Provisional Data: Hammer Creek near Route 322


Please select a monitoring station.
Please select start date.
Please select start date.

Toggle Unit: C/F Toggle Unit: C/F
Sample Time Temperature (C) Temperature (F) Specific Conductivity (mS/cm) pH   Turbidity (NTU+) DO (mg/L)
4/18/2023 12:00:00 AM 13.31 55.958 0.46 8.02 14.06 9.29
4/18/2023 12:15:00 AM 13.17 55.706 0.461 8.01 13.75 9.32
4/18/2023 12:30:00 AM 13.04 55.472 0.462 8 13.31 9.35
4/18/2023 12:45:00 AM 12.91 55.238 0.462 7.99 13.03 9.39
4/18/2023 1:00:00 AM 12.78 55.004 0.463 7.98 13.35 9.42
4/18/2023 1:15:00 AM 12.67 54.806 0.463 7.98 13.48 9.44
4/18/2023 1:30:00 AM 12.57 54.626 0.464 7.97 13.69 9.46
4/18/2023 1:45:00 AM 12.45 54.41 0.464 7.96 13.51 9.49
4/18/2023 2:00:00 AM 12.35 54.23 0.464 7.95 13.85 9.51
4/18/2023 2:15:00 AM 12.24 54.032 0.465 7.95 14.4 9.53
4/18/2023 2:30:00 AM 12.14 53.852 0.465 7.94 14.42 9.55
4/18/2023 2:45:00 AM 12.06 53.708 0.465 7.94 12.76 9.57
4/18/2023 3:00:00 AM 11.99 53.582 0.465 7.94 13.04 9.61
4/18/2023 3:15:00 AM 11.91 53.438 0.465 7.93 12.78 9.62
4/18/2023 3:30:00 AM 11.82 53.276 0.465 7.93 13.16 9.65
4/18/2023 3:45:00 AM 11.74 53.132 0.465 7.93 13.76 9.68
4/18/2023 4:00:00 AM 11.66 52.988 0.464 7.93 13.11 9.7
4/18/2023 4:15:00 AM 11.57 52.826 0.464 7.93 12.75 9.73
4/18/2023 4:30:00 AM 11.49 52.682 0.464 7.93 12.7 9.76
4/18/2023 4:45:00 AM 11.41 52.538 0.464 7.93 12.74 9.78
4/18/2023 5:00:00 AM 11.35 52.43 0.464 7.93 12.52 9.8
4/18/2023 5:15:00 AM 11.28 52.304 0.464 7.93 12.35 9.83
4/18/2023 5:30:00 AM 11.22 52.196 0.464 7.93 12.19 9.85
4/18/2023 5:45:00 AM 11.16 52.088 0.464 7.94 12.19 9.86
4/18/2023 6:00:00 AM 11.1 51.98 0.464 7.94 12.51 9.88
4/18/2023 6:15:00 AM 11.05 51.89 0.464 7.94 12.36 9.91
4/18/2023 6:30:00 AM 10.99 51.782 0.464 7.94 12.13 9.92
4/18/2023 6:45:00 AM 10.93 51.674 0.464 7.94 12.29 9.95
4/18/2023 7:00:00 AM 10.87 51.566 0.464 7.95 12.57 9.98
4/18/2023 7:15:00 AM 10.83 51.494 0.464 7.95 12.61 10.01
4/18/2023 7:30:00 AM 10.79 51.422 0.464 7.95 13.7 10.04
4/18/2023 7:45:00 AM 10.74 51.332 0.464 7.96 13.92 10.09
4/18/2023 8:00:00 AM 10.69 51.242 0.464 7.96 13.45 10.12
4/18/2023 8:15:00 AM 10.65 51.17 0.464 7.97 11.78 10.18
4/18/2023 8:30:00 AM 10.62 51.116 0.463 7.98 4817.8 10.22
4/18/2023 8:45:00 AM 10.59 51.062 0.464 7.98 15.72 10.28
4/18/2023 9:00:00 AM 10.58 51.044 0.463 7.99 12.03 10.4
4/18/2023 9:15:00 AM 10.6 51.08 0.463 8.01 11.33 10.56
4/18/2023 9:30:00 AM 10.61 51.098 0.463 8.03 11.12 10.7
4/18/2023 9:45:00 AM 10.62 51.116 0.463 8.05 11 10.8
4/18/2023 10:00:00 AM 10.61 51.098 0.463 8.06 11.08 10.8
4/18/2023 10:15:00 AM 10.59 51.062 0.463 8.06 10.94 10.79
4/18/2023 10:30:00 AM 10.58 51.044 0.463 8.07 12.1 10.79
4/18/2023 10:45:00 AM 10.58 51.044 0.462 8.07 11.69 10.8
4/18/2023 11:00:00 AM 10.57 51.026 0.463 8.08 11 10.87
4/18/2023 11:15:00 AM 10.56 51.008 0.462 8.09 10.55 10.92
4/18/2023 11:30:00 AM 10.54 50.972 0.462 8.1 10.59 10.96
4/18/2023 11:45:00 AM 10.52 50.936 0.462 8.11 10.58 10.99
4/18/2023 12:00:00 PM 10.52 50.936 0.462 8.11 10.49 11.02
4/18/2023 12:15:00 PM 10.54 50.972 0.461 8.13 10.62 11.12
4/18/2023 12:30:00 PM 10.65 51.17 0.461 8.15 10.77 11.29
4/18/2023 12:45:00 PM 10.85 51.53 0.46 8.17 17.71 11.45
4/18/2023 1:00:00 PM 11.15 52.07 0.459 8.18 10.98 11.57
4/18/2023 1:15:00 PM 11.55 52.79 0.459 8.21 11 11.64
4/18/2023 1:30:00 PM 11.87 53.366 0.458 8.23 11.03 11.71
4/18/2023 1:45:00 PM 12.27 54.086 0.458 8.24 11.02 11.74
4/18/2023 2:00:00 PM 12.47 54.446 0.457 8.26 11.03 11.71
4/18/2023 2:15:00 PM 12.64 54.752 0.456 8.27 11.09 11.69
4/18/2023 2:30:00 PM 12.92 55.256 0.456 8.28 11.11 11.7
4/18/2023 2:45:00 PM 13.22 55.796 0.455 8.3 11 11.72
4/18/2023 3:00:00 PM 13.42 56.156 0.455 8.31 10.89 11.73
4/18/2023 3:15:00 PM 13.61 56.498 0.454 8.33 11.05 11.69
4/18/2023 3:30:00 PM 13.74 56.732 0.453 8.34 10.08 11.65
4/18/2023 3:45:00 PM 13.89 57.002 0.453 8.35 9.91 11.59
4/18/2023 4:00:00 PM 13.9 57.02 0.452 8.36 10.03 11.54
4/18/2023 4:15:00 PM 13.92 57.056 0.452 8.37 10.02 11.46
4/18/2023 4:30:00 PM 13.91 57.038 0.452 8.38 10.1 11.39
4/18/2023 4:45:00 PM 13.87 56.966 0.452 8.38 9.99 11.31
4/18/2023 5:00:00 PM 13.78 56.804 0.452 8.38 10.07 11.23
4/18/2023 5:15:00 PM 13.7 56.66 0.451 8.38 10.24 11.13
4/18/2023 5:30:00 PM 13.56 56.408 0.451 8.38 10.34 11.06
4/18/2023 5:45:00 PM 13.45 56.21 0.451 8.38 10.33 10.99
4/18/2023 6:00:00 PM 13.32 55.976 0.451 8.38 10.36 10.92
4/18/2023 6:15:00 PM 13.15 55.67 0.45 8.38 10.34 10.86
4/18/2023 6:30:00 PM 12.98 55.364 0.45 8.38 10.25 10.76
4/18/2023 6:45:00 PM 12.87 55.166 0.449 8.38 10.3 10.69
4/18/2023 7:00:00 PM 12.76 54.968 0.448 8.37 10.39 10.61
4/18/2023 7:15:00 PM 12.68 54.824 0.447 8.37 10.47 10.52
4/18/2023 7:30:00 PM 12.6 54.68 0.447 8.36 10.42 10.42
4/18/2023 7:45:00 PM 12.52 54.536 0.446 8.35 10.28 10.33
4/18/2023 8:00:00 PM 12.45 54.41 0.445 8.34 10.44 10.24
4/18/2023 8:15:00 PM 12.4 54.32 0.445 8.33 10.54 10.16
4/18/2023 8:30:00 PM 12.36 54.248 0.444 8.31 10.66 10.09
4/18/2023 8:45:00 PM 12.3 54.14 0.444 8.3 10.8 10.04
4/18/2023 9:00:00 PM 12.26 54.068 0.444 8.28 10.92 10
4/18/2023 9:15:00 PM 12.21 53.978 0.444 8.27 10.79 9.97
4/18/2023 9:30:00 PM 12.17 53.906 0.443 8.26 11.28 9.94
4/18/2023 9:45:00 PM 12.12 53.816 0.444 8.24 11.33 9.93
4/18/2023 10:00:00 PM 12.06 53.708 0.444 8.23 10.82 9.92
4/18/2023 10:15:00 PM 12 53.6 0.444 8.21 11.39 9.9
4/18/2023 10:30:00 PM 11.92 53.456 0.445 8.19 10.97 9.91
4/18/2023 10:45:00 PM 11.82 53.276 0.445 8.18 11 9.91
4/18/2023 11:00:00 PM 11.71 53.078 0.446 8.16 10.96 9.93
4/18/2023 11:15:00 PM 11.59 52.862 0.447 8.15 11.02 9.95
4/18/2023 11:30:00 PM 11.46 52.628 0.448 8.14 11.18 9.97
4/18/2023 11:45:00 PM 11.33 52.394 0.45 8.12 11.07 10
4/19/2023 12:00:00 AM 11.19 52.142 0.451 8.11 11.11 10.03
4/19/2023 12:15:00 AM 11.05 51.89 0.453 8.1 11 10.06
4/19/2023 12:30:00 AM 10.9 51.62 0.455 8.09 10.96 10.09
4/19/2023 12:45:00 AM 10.75 51.35 0.457 8.08 11.02 10.13
4/19/2023 1:00:00 AM 10.59 51.062 0.458 8.06 10.88 10.16
4/19/2023 1:15:00 AM 10.43 50.774 0.46 8.05 10.94 10.2
4/19/2023 1:30:00 AM 10.27 50.486 0.461 8.03 10.94 10.23
4/19/2023 1:45:00 AM 10.12 50.216 0.462 8.01 10.85 10.28
4/19/2023 2:00:00 AM 9.97 49.946 0.463 7.99 10.86 10.31
4/19/2023 2:15:00 AM 9.82 49.676 0.464 7.98 10.79 10.34
4/19/2023 2:30:00 AM 9.68 49.424 0.464 7.96 10.86 10.38
4/19/2023 2:45:00 AM 9.55 49.19 0.465 7.95 10.69 10.41
4/19/2023 3:00:00 AM 9.43 48.974 0.465 7.95 10.62 10.44
4/19/2023 3:15:00 AM 9.31 48.758 0.466 7.95 10.71 10.48
4/19/2023 3:30:00 AM 9.2 48.56 0.466 7.94 10.51 10.5
4/19/2023 3:45:00 AM 9.09 48.362 0.467 7.94 10.48 10.53
4/19/2023 4:00:00 AM 9 48.2 0.467 7.94 10.58 10.56
4/19/2023 4:15:00 AM 8.9 48.02 0.468 7.94 10.61 10.59
4/19/2023 4:30:00 AM 8.81 47.858 0.468 7.95 10.57 10.62
4/19/2023 4:45:00 AM 8.73 47.714 0.468 7.95 10.57 10.65
4/19/2023 5:00:00 AM 8.64 47.552 0.469 7.95 10.61 10.67
4/19/2023 5:15:00 AM 8.56 47.408 0.469 7.95 11.02 10.7
4/19/2023 5:30:00 AM 8.48 47.264 0.469 7.95 11.65 10.73
4/19/2023 5:45:00 AM 8.41 47.138 0.469 7.96 11.04 10.75
4/19/2023 6:00:00 AM 8.33 46.994 0.47 7.96 10.88 10.78
4/19/2023 6:15:00 AM 8.26 46.868 0.47 7.96 10.95 10.8
4/19/2023 6:30:00 AM 8.19 46.742 0.47 7.96 10.73 10.84
4/19/2023 6:45:00 AM 8.12 46.616 0.47 7.97 10.87 10.89
4/19/2023 7:00:00 AM 8.07 46.526 0.47 7.97 10.64 10.95
4/19/2023 7:15:00 AM 8.02 46.436 0.47 7.98 10.83 11.01
4/19/2023 7:30:00 AM 7.98 46.364 0.47 7.99 10.79 11.08
4/19/2023 7:45:00 AM 7.95 46.31 0.47 7.99 10.47 11.15
4/19/2023 8:00:00 AM 7.93 46.274 0.469 8 10.52 11.22
4/19/2023 8:15:00 AM 7.95 46.31 0.469 8.01 10.25 11.31
4/19/2023 8:30:00 AM 7.99 46.382 0.469 8.03 10.11 11.4
4/19/2023 8:45:00 AM 8.08 46.544 0.469 8.04 10.16 11.49
4/19/2023 9:00:00 AM 8.19 46.742 0.468 8.06 10.25 11.59
4/19/2023 9:15:00 AM 8.29 46.922 0.468 8.08 10.01 11.67
4/19/2023 9:30:00 AM 8.43 47.174 0.468 8.09 9.95 11.75
4/19/2023 9:45:00 AM 8.58 47.444 0.467 8.11 10.08 11.83
4/19/2023 10:00:00 AM 8.77 47.786 0.467 8.12 9.92 11.89
4/19/2023 10:15:00 AM 8.96 48.128 0.466 8.14 9.98 11.94
4/19/2023 10:30:00 AM 9.2 48.56 0.466 8.15 9.93 12
4/19/2023 10:45:00 AM 9.46 49.028 0.466 8.17 10.18 12.05
4/19/2023 11:00:00 AM 9.75 49.55 0.465 8.18 9.91 12.08
4/19/2023 11:15:00 AM 10.04 50.072 0.465 8.2 9.89 12.1
4/19/2023 11:30:00 AM 10.35 50.63 0.464 8.21 9.84 12.12
4/19/2023 11:45:00 AM 10.7 51.26 0.464 8.22 9.63 12.12
4/19/2023 12:00:00 PM 11.06 51.908 0.463 8.24 9.57 12.11
4/19/2023 12:15:00 PM 11.43 52.574 0.463 8.25 9.64 12.11
4/19/2023 12:30:00 PM 11.81 53.258 0.462 8.27 9.95 12.11
4/19/2023 12:45:00 PM 12.18 53.924 0.461 8.29 9.98 12.1
4/19/2023 1:00:00 PM 12.56 54.608 0.461 8.3 9.96 12.07
4/19/2023 1:15:00 PM 12.96 55.328 0.46 8.32 9.89 12.05
4/19/2023 1:30:00 PM 13.37 56.066 0.459 8.34 9.81 12
4/19/2023 1:45:00 PM 13.75 56.75 0.458 8.36 9.63 11.95
4/19/2023 2:00:00 PM 14.13 57.434 0.457 8.38 9.71 11.89
4/19/2023 2:15:00 PM 14.48 58.064 0.456 8.4 9.68 11.83
4/19/2023 2:30:00 PM 14.84 58.712 0.455 8.42 9.77 11.76
4/19/2023 2:45:00 PM 15.14 59.252 0.454 8.44 9.59 11.68
4/19/2023 3:00:00 PM 15.42 59.756 0.453 8.46 9.45 11.62
4/19/2023 3:15:00 PM 15.68 60.224 0.452 8.48 9.28 11.53
4/19/2023 3:30:00 PM 15.94 60.692 0.451 8.5 9.58 11.44
4/19/2023 3:45:00 PM 16.12 61.016 0.45 8.52 9.31 11.33
4/19/2023 4:00:00 PM 16.24 61.232 0.449 8.53 9.47 11.21
4/19/2023 4:15:00 PM 16.32 61.376 0.448 8.54 9.67 11.11
4/19/2023 4:30:00 PM 16.33 61.394 0.447 8.54 9.68 10.99
4/19/2023 4:45:00 PM 16.36 61.448 0.446 8.55 9.96 10.87
4/19/2023 5:00:00 PM 16.34 61.412 0.445 8.55 9.74 10.75
4/19/2023 5:15:00 PM 16.28 61.304 0.444 8.55 9.92 10.63
4/19/2023 5:30:00 PM 16.24 61.232 0.443 8.55 10 10.52
4/19/2023 5:45:00 PM 16.19 61.142 0.441 8.54 10.05 10.41
4/19/2023 6:00:00 PM 16.08 60.944 0.44 8.53 9.92 10.3
4/19/2023 6:15:00 PM 15.95 60.71 0.439 8.52 10.05 10.18
4/19/2023 6:30:00 PM 15.85 60.53 0.438 8.51 10.63 10.05
4/19/2023 6:45:00 PM 15.76 60.368 0.438 8.49 10.38 9.95
4/19/2023 7:00:00 PM 15.66 60.188 0.437 8.47 10.45 9.85
4/19/2023 7:15:00 PM 15.55 59.99 0.437 8.45 10.52 9.76
4/19/2023 7:30:00 PM 15.44 59.792 0.437 8.42 10.51 9.66
4/19/2023 7:45:00 PM 15.33 59.594 0.437 8.39 10.54 9.57
4/19/2023 8:00:00 PM 15.22 59.396 0.438 8.37 10.51 9.48
4/19/2023 8:15:00 PM 15.12 59.216 0.438 8.34 10.68 9.4
4/19/2023 8:30:00 PM 15.02 59.036 0.438 8.31 10.98 9.34
4/19/2023 8:45:00 PM 14.92 58.856 0.438 8.28 11.74 9.29
4/19/2023 9:00:00 PM 14.82 58.676 0.439 8.26 11.46 9.26
4/19/2023 9:15:00 PM 14.72 58.496 0.439 8.23 11.5 9.23
4/19/2023 9:30:00 PM 14.61 58.298 0.44 8.21 11.43 9.21
4/19/2023 9:45:00 PM 14.51 58.118 0.44 8.19 12.42 9.21
4/19/2023 10:00:00 PM 14.39 57.902 0.441 8.18 12.39 9.21
4/19/2023 10:15:00 PM 14.27 57.686 0.441 8.16 11.99 9.22
4/19/2023 10:30:00 PM 14.14 57.452 0.442 8.15 11.96 9.24
4/19/2023 10:45:00 PM 14.01 57.218 0.443 8.13 12.09 9.26
4/19/2023 11:00:00 PM 13.87 56.966 0.444 8.11 13.36 9.27
4/19/2023 11:15:00 PM 13.73 56.714 0.445 8.1 12.62 9.3
4/19/2023 11:30:00 PM 13.58 56.444 0.446 8.09 12.25 9.33
4/19/2023 11:45:00 PM 13.44 56.192 0.448 8.08 12.3 9.36
4/20/2023 12:00:00 AM 13.29 55.922 0.449 8.07 12.29 9.41
4/20/2023 12:15:00 AM 13.14 55.652 0.451 8.07 12.08 9.44
4/20/2023 12:30:00 AM 12.99 55.382 0.452 8.06 12.01 9.48
4/20/2023 12:45:00 AM 12.84 55.112 0.454 8.05 12.04 9.52
4/20/2023 1:00:00 AM 12.68 54.824 0.456 8.04 12.28 9.55
4/20/2023 1:15:00 AM 12.54 54.572 0.458 8.04 12.25 9.58
4/20/2023 1:30:00 AM 12.41 54.338 0.461 8.03 12.08 9.62
4/20/2023 1:45:00 AM 12.26 54.068 0.463 8.02 12.08 9.66
4/20/2023 2:00:00 AM 12.11 53.798 0.464 8.02 11.85 9.7
4/20/2023 2:15:00 AM 11.96 53.528 0.466 8.01 12.01 9.73
4/20/2023 2:30:00 AM 11.81 53.258 0.467 8.01 12.38 9.77
4/20/2023 2:45:00 AM 11.67 53.006 0.468 8 12.16 9.81
4/20/2023 3:00:00 AM 11.53 52.754 0.468 8 12.4 9.84
4/20/2023 3:15:00 AM 11.4 52.52 0.469 8 11.84 9.88
4/20/2023 3:30:00 AM 11.27 52.286 0.469 7.99 11.92 9.91
4/20/2023 3:45:00 AM 11.15 52.07 0.47 7.99 11.91 9.96
4/20/2023 4:00:00 AM 11.04 51.872 0.47 7.99 12.19 9.99
4/20/2023 4:15:00 AM 10.93 51.674 0.47 7.98 11.6 10.03
4/20/2023 4:30:00 AM 10.82 51.476 0.47 7.98 11.69 10.06
4/20/2023 4:45:00 AM 10.72 51.296 0.47 7.98 11.96 10.08
4/20/2023 5:00:00 AM 10.62 51.116 0.47 7.97 11.83 10.12
4/20/2023 5:15:00 AM 10.52 50.936 0.47 7.97 12 10.17
4/20/2023 5:30:00 AM 10.43 50.774 0.47 7.97 11.97 10.18
4/20/2023 5:45:00 AM 10.34 50.612 0.47 7.97 11.68 10.22
4/20/2023 6:00:00 AM 10.26 50.468 0.471 7.96 11.86 10.25
4/20/2023 6:15:00 AM 10.18 50.324 0.471 7.96 12.25 10.27
4/20/2023 6:30:00 AM 10.1 50.18 0.471 7.96 13.02 10.3
4/20/2023 6:45:00 AM 10.03 50.054 0.471 7.96 11.31 10.35
4/20/2023 7:00:00 AM 9.97 49.946 0.471 7.96 10.3 10.41
4/20/2023 7:15:00 AM 9.91 49.838 0.47 7.97 10.52 10.48
4/20/2023 7:30:00 AM 9.87 49.766 0.47 7.97 10.03 10.56
4/20/2023 7:45:00 AM 9.85 49.73 0.47 7.98 9.84 10.64
4/20/2023 8:00:00 AM 9.84 49.712 0.47 7.99 9.55 10.72
4/20/2023 8:15:00 AM 9.86 49.748 0.47 7.99 9.34 10.82
4/20/2023 8:30:00 AM 9.92 49.856 0.47 8.01 9.12 10.91
4/20/2023 8:45:00 AM 10 50 0.47 8.02 9.09 11.02
4/20/2023 9:00:00 AM 10.1 50.18 0.469 8.04 9.09 11.11
4/20/2023 9:15:00 AM 10.23 50.414 0.469 8.05 9.23 11.21
4/20/2023 9:30:00 AM 10.37 50.666 0.469 8.07 8.9 11.3
4/20/2023 9:45:00 AM 10.55 50.99 0.469 8.09 8.7 11.39
4/20/2023 10:00:00 AM 10.73 51.314 0.469 8.11 8.9 11.46
4/20/2023 10:15:00 AM 10.93 51.674 0.468 8.12 8.88 11.53
4/20/2023 10:30:00 AM 11.15 52.07 0.468 8.14 9.35 11.6
4/20/2023 10:45:00 AM 11.39 52.502 0.468 8.15 9.01 11.66
4/20/2023 11:00:00 AM 11.66 52.988 0.467 8.17 9.15 11.7
4/20/2023 11:15:00 AM 11.95 53.51 0.467 8.18 8.9 11.75
4/20/2023 11:30:00 AM 12.26 54.068 0.467 8.2 8.68 11.76
4/20/2023 11:45:00 AM 12.58 54.644 0.466 8.21 8.82 11.77
4/20/2023 12:00:00 PM 12.93 55.274 0.466 8.23 9.24 11.8
4/20/2023 12:15:00 PM 13.28 55.904 0.465 8.24 8.77 11.8
4/20/2023 12:30:00 PM 13.64 56.552 0.464 8.26 8.91 11.81
4/20/2023 12:45:00 PM 14.01 57.218 0.464 8.28 9 11.83
4/20/2023 1:00:00 PM 14.39 57.902 0.463 8.29 9.03 11.81
4/20/2023 1:15:00 PM 14.77 58.586 0.462 8.31 17.3 11.79
4/20/2023 1:30:00 PM 15.16 59.288 0.461 8.33 8.55 11.76
4/20/2023 1:45:00 PM 15.56 60.008 0.46 8.35 8.87 11.73
4/20/2023 2:00:00 PM 15.94 60.692 0.459 8.38 8.46 11.66
4/20/2023 2:15:00 PM 16.32 61.376 0.457 8.4 8.35 11.6
4/20/2023 2:30:00 PM 16.68 62.024 0.456 8.42 8.36 11.53
4/20/2023 2:45:00 PM 17.02 62.636 0.455 8.44 8.42 11.45
4/20/2023 3:00:00 PM 17.34 63.212 0.453 8.46 8.57 11.37
4/20/2023 3:15:00 PM 17.63 63.734 0.452 8.48 8.3 11.28
4/20/2023 3:30:00 PM 17.89 64.202 0.45 8.5 8.43 11.18
4/20/2023 3:45:00 PM 18.09 64.562 0.449 8.51 8.64 11.07
4/20/2023 4:00:00 PM 18.24 64.832 0.448 8.52 9.28 10.96
4/20/2023 4:15:00 PM 18.35 65.03 0.446 8.53 9.11 10.83
4/20/2023 4:30:00 PM 18.42 65.156 0.445 8.54 9.24 10.7
4/20/2023 4:45:00 PM 18.46 65.228 0.444 8.54 9.12 10.57
4/20/2023 5:00:00 PM 18.46 65.228 0.442 8.54 8.97 10.44
4/20/2023 5:15:00 PM 18.45 65.21 0.441 8.54 9.25 10.3
4/20/2023 5:30:00 PM 18.38 65.084 0.44 8.53 9.31 10.17
4/20/2023 5:45:00 PM 18.38 65.084 0.439 8.53 9.62 10.11
4/20/2023 6:00:00 PM 18.37 65.066 0.437 8.52 10.1 10.04
4/20/2023 6:15:00 PM 18.33 64.994 0.436 8.52 9.46 9.95
4/20/2023 6:30:00 PM 18.29 64.922 0.436 8.5 9.29 9.84
4/20/2023 6:45:00 PM 18.21 64.778 0.435 8.48 9.37 9.69
4/20/2023 7:00:00 PM 18.13 64.634 0.434 8.46 9.54 9.54
4/20/2023 7:15:00 PM 18.05 64.49 0.434 8.43 9.37 9.38
4/20/2023 7:30:00 PM 17.96 64.328 0.434 8.4 9.53 9.23
4/20/2023 7:45:00 PM 17.88 64.184 0.434 8.37 9.43 9.1
4/20/2023 8:00:00 PM 17.8 64.04 0.434 8.33 9.67 8.98
4/20/2023 8:15:00 PM 17.73 63.914 0.434 8.3 9.95 8.88
4/20/2023 8:30:00 PM 17.65 63.77 0.434 8.27 10.3 8.79
4/20/2023 8:45:00 PM 17.58 63.644 0.434 8.24 10.38 8.71
4/20/2023 9:00:00 PM 17.5 63.5 0.434 8.21 10.86 8.65
4/20/2023 9:15:00 PM 17.42 63.356 0.434 8.18 10.65 8.6
4/20/2023 9:30:00 PM 17.32 63.176 0.435 8.16 11.03 8.57
4/20/2023 9:45:00 PM 17.23 63.014 0.435 8.13 11.01 8.54
4/20/2023 10:00:00 PM 17.13 62.834 0.436 8.11 10.95 8.53
4/20/2023 10:15:00 PM 17.03 62.654 0.437 8.09 10.82 8.51
4/20/2023 10:30:00 PM 16.92 62.456 0.438 8.07 10.93 8.51
4/20/2023 10:45:00 PM 16.81 62.258 0.439 8.06 10.96 8.52
4/20/2023 11:00:00 PM 16.69 62.042 0.44 8.05 11.24 8.53
4/20/2023 11:15:00 PM 16.56 61.808 0.442 8.03 10.92 8.55
4/20/2023 11:30:00 PM 16.43 61.574 0.443 8.02 11 8.56
4/20/2023 11:45:00 PM 16.3 61.34 0.445 8.02 10.82 8.59
4/21/2023 12:00:00 AM 16.16 61.088 0.447 8.01 11.69 8.61
4/21/2023 12:15:00 AM 16.02 60.836 0.45 8.01 11.1 8.65
4/21/2023 12:30:00 AM 15.87 60.566 0.452 8 11.19 8.68
4/21/2023 12:45:00 AM 15.71 60.278 0.454 8 11.11 8.71
4/21/2023 1:00:00 AM 15.57 60.026 0.456 8 11 8.75
4/21/2023 1:15:00 AM 15.41 59.738 0.459 7.99 10.89 8.79
4/21/2023 1:30:00 AM 15.25 59.45 0.461 7.99 10.74 8.82
4/21/2023 1:45:00 AM 15.1 59.18 0.463 7.98 10.94 8.85
4/21/2023 2:00:00 AM 14.93 58.874 0.465 7.98 10.72 8.89
4/21/2023 2:15:00 AM 14.77 58.586 0.466 7.98 10.59 8.93
4/21/2023 2:30:00 AM 14.61 58.298 0.467 7.97 10.42 8.96
4/21/2023 2:45:00 AM 14.46 58.028 0.468 7.97 10.45 9.01
4/21/2023 3:00:00 AM 14.31 57.758 0.469 7.97 10.5 9.04
4/21/2023 3:15:00 AM 14.16 57.488 0.469 7.97 10.34 9.07
4/21/2023 3:30:00 AM 14.02 57.236 0.469 7.96 10.29 9.11
4/21/2023 3:45:00 AM 13.88 56.984 0.47 7.96 10.22 9.16
4/21/2023 4:00:00 AM 13.75 56.75 0.47 7.96 10.29 9.19
4/21/2023 4:15:00 AM 13.62 56.516 0.47 7.96 10.18 9.23
4/21/2023 4:30:00 AM 13.5 56.3 0.47 7.96 10.03 9.27
4/21/2023 4:45:00 AM 13.38 56.084 0.47 7.96 10.19 9.31
4/21/2023 5:00:00 AM 13.26 55.868 0.47 7.95 10.19 9.33
4/21/2023 5:15:00 AM 13.14 55.652 0.47 7.96 10.24 9.38
4/21/2023 5:30:00 AM 13.03 55.454 0.471 7.95 10.27 9.41
4/21/2023 5:45:00 AM 12.92 55.256 0.471 7.96 10.07 9.44
4/21/2023 6:00:00 AM 12.82 55.076 0.471 7.96 10.02 9.47
4/21/2023 6:15:00 AM 12.71 54.878 0.471 7.95 8.87 9.5
4/21/2023 6:30:00 AM 12.62 54.716 0.471 7.95 9.11 9.54
4/21/2023 6:45:00 AM 12.52 54.536 0.471 7.96 8.78 9.6
4/21/2023 7:00:00 AM 12.44 54.392 0.471 7.96 9.02 9.67
4/21/2023 7:15:00 AM 12.36 54.248 0.471 7.96 8.79 9.74
4/21/2023 7:30:00 AM 12.29 54.122 0.471 7.97 8.7 9.83
4/21/2023 7:45:00 AM 12.23 54.014 0.472 7.97 8.55 9.92
4/21/2023 8:00:00 AM 12.2 53.96 0.471 7.98 8.27 10.01
4/21/2023 8:15:00 AM 12.18 53.924 0.471 7.99 8.33 10.11
4/21/2023 8:30:00 AM 12.2 53.96 0.471 8 8.04 10.23
4/21/2023 8:45:00 AM 12.25 54.05 0.471 8.01 7.98 10.35
4/21/2023 9:00:00 AM 12.32 54.176 0.47 8.03 7.98 10.47
4/21/2023 9:15:00 AM 12.42 54.356 0.47 8.04 7.6 10.58
4/21/2023 9:30:00 AM 12.54 54.572 0.47 8.06 7.37 10.69
4/21/2023 9:45:00 AM 12.69 54.842 0.469 8.07 7.23 10.79
4/21/2023 10:00:00 AM 12.85 55.13 0.469 8.09 7.25 10.89
4/21/2023 10:15:00 AM 13.03 55.454 0.468 8.11 7.32 10.97
4/21/2023 10:30:00 AM 13.24 55.832 0.468 8.13 7.12 11.07
4/21/2023 10:45:00 AM 13.47 56.246 0.467 8.14 7.22 11.15
4/21/2023 11:00:00 AM 13.73 56.714 0.467 8.16 7.12 11.21
4/21/2023 11:15:00 AM 14.01 57.218 0.466 8.18 7.23 11.28
4/21/2023 11:30:00 AM 14.31 57.758 0.466 8.19 6.9 11.32
4/21/2023 11:45:00 AM 14.62 58.316 0.465 8.21 7.54 11.36
4/21/2023 12:00:00 PM 14.95 58.91 0.465 8.23 7.64 11.39
4/21/2023 12:15:00 PM 15.31 59.558 0.464 8.24 7.36 11.42
4/21/2023 12:30:00 PM 15.66 60.188 0.463 8.26 8.47 11.45
4/21/2023 12:45:00 PM 16.01 60.818 0.462 8.28 7.96 11.46
4/21/2023 1:00:00 PM 16.36 61.448 0.462 8.3 8.29 11.46
4/21/2023 1:15:00 PM 16.73 62.114 0.461 8.32 8.22 11.46
4/21/2023 1:30:00 PM 17.11 62.798 0.459 8.34 8.14 11.45
4/21/2023 1:45:00 PM 17.49 63.482 0.458 8.36 8.24 11.43
4/21/2023 2:00:00 PM 17.86 64.148 0.457 8.38 8.27 11.39
4/21/2023 2:15:00 PM 18.2 64.76 0.456 8.4 9.82 11.33
4/21/2023 2:30:00 PM 18.54 65.372 0.454 8.42 9.07 11.26
4/21/2023 2:45:00 PM 18.87 65.966 0.453 8.44 9.56 11.19
4/21/2023 3:00:00 PM 19.16 66.488 0.451 8.46 8.58 11.11
4/21/2023 3:15:00 PM 19.44 66.992 0.449 8.48 7.76 11
4/21/2023 3:30:00 PM 19.67 67.406 0.448 8.5 8.16 10.92
4/21/2023 3:45:00 PM 19.86 67.748 0.446 8.51 9.86 10.81
4/21/2023 4:00:00 PM 19.98 67.964 0.444 8.52 9.19 10.69
4/21/2023 4:15:00 PM 20.09 68.162 0.443 8.53 9.7 10.56
4/21/2023 4:30:00 PM 20.15 68.27 0.441 8.53 9.51 10.42
4/21/2023 4:45:00 PM 20.18 68.324 0.44 8.54 9.56 10.28
4/21/2023 5:00:00 PM 20.18 68.324 0.438 8.53 9.38 10.14
4/21/2023 5:15:00 PM 20.15 68.27 0.437 8.53 9.69 9.99
4/21/2023 5:30:00 PM 20.11 68.198 0.436 8.52 9.69 9.85
4/21/2023 5:45:00 PM 20.06 68.108 0.435 8.51 10.01 9.71
4/21/2023 6:00:00 PM 19.97 67.946 0.434 8.49 9.89 9.56
4/21/2023 6:15:00 PM 19.87 67.766 0.433 8.48 10.54 9.39
4/21/2023 6:30:00 PM 19.77 67.586 0.432 8.45 11.85 9.25
4/21/2023 6:45:00 PM 19.67 67.406 0.432 8.43 12.12 9.11
4/21/2023 7:00:00 PM 19.58 67.244 0.431 8.4 11.53 8.98
4/21/2023 7:15:00 PM 19.49 67.082 0.431 8.37 11.42 8.84
4/21/2023 7:30:00 PM 19.39 66.902 0.431 8.33 10.73 8.72
4/21/2023 7:45:00 PM 19.27 66.686 0.43 8.3 10.24 8.6
4/21/2023 8:00:00 PM 19.15 66.47 0.43 8.26 10.93 8.49
4/21/2023 8:15:00 PM 19.03 66.254 0.43 8.22 9.06 8.39
4/21/2023 8:30:00 PM 18.92 66.056 0.43 8.19 9.39 8.32
4/21/2023 8:45:00 PM 18.82 65.876 0.431 8.16 10.03 8.26
4/21/2023 9:00:00 PM 18.72 65.696 0.431 8.13 9.85 8.21
4/21/2023 9:15:00 PM 18.62 65.516 0.431 8.11 10.01 8.18
4/21/2023 9:30:00 PM 18.53 65.354 0.431 8.08 10.14 8.15
4/21/2023 9:45:00 PM 18.44 65.192 0.432 8.07 10.49 8.13
4/21/2023 10:00:00 PM 18.35 65.03 0.432 8.05 10.55 8.12
4/21/2023 10:15:00 PM 18.27 64.886 0.433 8.04 10.77 8.12
4/21/2023 10:30:00 PM 18.18 64.724 0.434 8.02 10.58 8.11
4/21/2023 10:45:00 PM 18.09 64.562 0.436 8.01 10.62 8.12
4/21/2023 11:00:00 PM 17.98 64.364 0.437 8 11.17 8.13
4/21/2023 11:15:00 PM 17.86 64.148 0.439 7.99 10.29 8.14
4/21/2023 11:30:00 PM 17.72 63.896 0.44 7.99 10.09 8.16
4/21/2023 11:45:00 PM 17.59 63.662 0.442 7.98 10.74 8.19
4/22/2023 12:00:00 AM 17.44 63.392 0.444 7.98 10.5 8.22
4/22/2023 12:15:00 AM 17.29 63.122 0.446 7.97 10.08 8.25
4/22/2023 12:30:00 AM 17.13 62.834 0.448 7.97 11.28 8.28
4/22/2023 12:45:00 AM 16.97 62.546 0.451 7.97 10.61 8.32
4/22/2023 1:00:00 AM 16.8 62.24 0.453 7.97 10.56 8.36
4/22/2023 1:15:00 AM 16.62 61.916 0.456 7.97 9.78 8.4
4/22/2023 1:30:00 AM 16.44 61.592 0.459 7.96 9.56 8.44
4/22/2023 1:45:00 AM 16.26 61.268 0.461 7.96 9.41 8.48
4/22/2023 2:00:00 AM 16.08 60.944 0.463 7.96 9.87 8.52
4/22/2023 2:15:00 AM 15.92 60.656 0.465 7.96 9.56 8.56
4/22/2023 2:30:00 AM 15.76 60.368 0.467 7.95 9.73 8.59
4/22/2023 2:45:00 AM 15.61 60.098 0.468 7.95 9.52 8.65
4/22/2023 3:00:00 AM 15.44 59.792 0.469 7.95 9.4 8.69
4/22/2023 3:15:00 AM 15.27 59.486 0.47 7.95 9.05 8.73
4/22/2023 3:30:00 AM 15.1 59.18 0.47 7.95 9.23 8.78
4/22/2023 3:45:00 AM 14.93 58.874 0.471 7.94 8.93 8.82
4/22/2023 4:00:00 AM 14.8 58.64 0.471 7.94 8.88 8.87
4/22/2023 4:15:00 AM 14.67 58.406 0.471 7.94 8.95 8.9
4/22/2023 4:30:00 AM 14.54 58.172 0.471 7.94 8.97 8.94
4/22/2023 4:45:00 AM 14.41 57.938 0.472 7.94 8.89 8.99
4/22/2023 5:00:00 AM 14.3 57.74 0.472 7.94 8.97 9.01
4/22/2023 5:15:00 AM 14.18 57.524 0.472 7.94 9.1 9.06
4/22/2023 5:30:00 AM 14.07 57.326 0.472 7.94 9.07 9.09
4/22/2023 5:45:00 AM 13.96 57.128 0.471 7.94 9.24 9.11
4/22/2023 6:00:00 AM 13.86 56.948 0.471 7.94 9.16 9.14
4/22/2023 6:15:00 AM 13.99 57.182 0.469 7.93 9.02 9.1
4/22/2023 6:30:00 AM 13.88 56.984 0.469 7.93 9.02 9.14
4/22/2023 6:45:00 AM 13.78 56.804 0.469 7.92 8.92 9.19
4/22/2023 7:00:00 AM 13.69 56.642 0.469 7.92 8.84 9.25
4/22/2023 7:15:00 AM 13.63 56.534 0.469 7.92 10.54 9.34
4/22/2023 7:30:00 AM 13.58 56.444 0.469 7.93 8.43 9.47
4/22/2023 7:45:00 AM 13.58 56.444 0.469 7.94 8.34 9.61
4/22/2023 8:00:00 AM 13.56 56.408 0.469 7.96 8.08 9.71
4/22/2023 8:15:00 AM 13.54 56.372 0.468 7.97 8.2 9.8
4/22/2023 8:30:00 AM 13.51 56.318 0.468 7.98 8.35 9.86
4/22/2023 8:45:00 AM 13.53 56.354 0.468 8 7.87 9.97
4/22/2023 9:00:00 AM 13.58 56.444 0.468 8.02 8.21 10.1
4/22/2023 9:15:00 AM 13.7 56.66 0.467 8.04 7.52 10.25
4/22/2023 9:30:00 AM 13.82 56.876 0.467 8.06 7.44 10.37
4/22/2023 9:45:00 AM 13.98 57.164 0.467 8.08 7.7 10.47
4/22/2023 10:00:00 AM 14.13 57.434 0.467 8.1 7.61 10.56
4/22/2023 10:15:00 AM 14.23 57.614 0.466 8.12 7.73 10.64
4/22/2023 10:30:00 AM 14.41 57.938 0.466 8.14 7.63 10.72
4/22/2023 10:45:00 AM 14.54 58.172 0.466 8.15 7.52 10.78
4/22/2023 11:00:00 AM 14.66 58.388 0.465 8.17 7.64 10.87
4/22/2023 11:15:00 AM 14.83 58.694 0.465 8.19 7.9 10.95
4/22/2023 11:30:00 AM 15.06 59.108 0.465 8.21 7.63 11.02
4/22/2023 11:45:00 AM 15.4 59.72 0.464 8.23 7.81 11.09
4/22/2023 12:00:00 PM 15.81 60.458 0.464 8.24 9.33 11.17
4/22/2023 12:15:00 PM 16.02 60.836 0.463 8.26 10.37 11.21
4/22/2023 12:30:00 PM 16.29 61.322 0.462 8.28 8.39 11.25
4/22/2023 12:45:00 PM 16.29 61.322 0.462 8.3 8.23 11.24
4/22/2023 1:00:00 PM 16.35 61.43 0.461 8.31 9.46 11.2
4/22/2023 1:15:00 PM 16.52 61.736 0.46 8.33 7.77 11.22
4/22/2023 1:30:00 PM 16.83 62.294 0.459 8.35 7.63 11.27
4/22/2023 1:45:00 PM 16.9 62.42 0.458 8.37 6.41 11.19
4/22/2023 2:00:00 PM 16.98 62.564 0.457 8.38 14.31 11.12
4/22/2023 2:15:00 PM 17.1 62.78 0.456 8.4 6.75 11.14
4/22/2023 2:30:00 PM 17.21 62.978 0.455 8.42 6.69 11.12
4/22/2023 2:45:00 PM 17.29 63.122 0.453 8.44 6.75 11.06
4/22/2023 3:00:00 PM 17.29 63.122 0.452 8.45 6.81 10.89
4/22/2023 3:15:00 PM 17.27 63.086 0.451 8.45 6.79 10.7
4/22/2023 3:30:00 PM 17.27 63.086 0.45 8.45 6.79 10.52
4/22/2023 3:45:00 PM 17.27 63.086 0.449 8.45 6.79 10.34
4/22/2023 4:00:00 PM 17.25 63.05 0.448 8.45 7.1 10.13
4/22/2023 4:15:00 PM 17.13 62.834 0.44 8.44 7.74 9.87
4/22/2023 4:30:00 PM 16.99 62.582 0.433 8.41 11.33 9.67
4/22/2023 4:45:00 PM 16.87 62.366 0.428 8.39 11.1 9.53
4/22/2023 5:00:00 PM 16.79 62.222 0.422 8.37 12.58 9.41
4/22/2023 5:15:00 PM 16.74 62.132 0.42 8.34 12.59 9.31
4/22/2023 5:30:00 PM 16.68 62.024 0.416 8.31 13.1 9.2
4/22/2023 5:45:00 PM 16.6 61.88 0.41 8.28 12.77 9.11
4/22/2023 6:00:00 PM 16.54 61.772 0.406 8.24 14.44 9.03
4/22/2023 6:15:00 PM 16.5 61.7 0.402 8.2 15.42 8.96
4/22/2023 6:30:00 PM 16.45 61.61 0.399 8.16 16.79 8.9
4/22/2023 6:45:00 PM 16.41 61.538 0.397 8.13 16.23 8.85
4/22/2023 7:00:00 PM 16.37 61.466 0.397 8.1 16.49 8.81
4/22/2023 7:15:00 PM 16.32 61.376 0.398 8.07 17.35 8.78
4/22/2023 7:30:00 PM 16.27 61.286 0.398 8.05 17.16 8.74
4/22/2023 7:45:00 PM 16.21 61.178 0.399 8.02 17.44 8.72
4/22/2023 8:00:00 PM 16.13 61.034 0.4 8 16.77 8.7
4/22/2023 8:15:00 PM 16.04 60.872 0.403 7.99 17.34 8.69
4/22/2023 8:30:00 PM 15.93 60.674 0.406 7.97 18.18 8.68
4/22/2023 8:45:00 PM 15.8 60.44 0.409 7.96 17.73 8.68
4/22/2023 9:00:00 PM 15.66 60.188 0.41 7.94 17.65 8.68
4/22/2023 9:15:00 PM 15.51 59.918 0.41 7.93 17.7 8.67
4/22/2023 9:30:00 PM 15.37 59.666 0.411 7.91 17.64 8.67
4/22/2023 9:45:00 PM 15.22 59.396 0.414 7.9 17.74 8.66
4/22/2023 10:00:00 PM 15.1 59.18 0.422 7.89 16.81 8.65
4/22/2023 10:15:00 PM 14.98 58.964 0.43 7.87 17.44 8.65
4/22/2023 10:30:00 PM 14.87 58.766 0.432 7.86 16.83 8.65
4/22/2023 10:45:00 PM 14.77 58.586 0.427 7.85 17.06 8.64
4/22/2023 11:00:00 PM 14.68 58.424 0.421 7.84 17.29 8.6
4/22/2023 11:15:00 PM 14.6 58.28 0.415 7.82 17.66 8.52
4/22/2023 11:30:00 PM 14.51 58.118 0.412 7.8 19.14 8.44
4/22/2023 11:45:00 PM 14.43 57.974 0.411 7.78 19.29 8.38
4/23/2023 12:00:00 AM 14.35 57.83 0.412 7.77 19.16 8.36
4/23/2023 12:15:00 AM 14.28 57.704 0.414 7.77 18.5 8.38
4/23/2023 12:30:00 AM 14.2 57.56 0.418 7.77 17.29 8.42
4/23/2023 12:45:00 AM 14.13 57.434 0.422 7.76 18.24 8.47
4/23/2023 1:00:00 AM 14.05 57.29 0.427 7.77 16.24 8.52
4/23/2023 1:15:00 AM 13.98 57.164 0.431 7.77 15.81 8.58
4/23/2023 1:30:00 AM 13.91 57.038 0.433 7.77 15.39 8.64
4/23/2023 1:45:00 AM 13.84 56.912 0.434 7.78 15.25 8.71
4/23/2023 2:00:00 AM 13.77 56.786 0.434 7.78 14.15 8.77
4/23/2023 2:15:00 AM 13.71 56.678 0.432 7.78 13.77 8.82
4/23/2023 2:30:00 AM 13.65 56.57 0.429 7.78 13.49 8.86
4/23/2023 2:45:00 AM 13.6 56.48 0.424 7.78 13.08 8.9
4/23/2023 3:00:00 AM 13.56 56.408 0.419 7.78 13.61 8.93
4/23/2023 3:15:00 AM 13.51 56.318 0.413 7.78 13.61 8.95
4/23/2023 3:30:00 AM 13.47 56.246 0.407 7.77 13.07 8.98
4/23/2023 3:45:00 AM 13.42 56.156 0.401 7.77 12.59 8.99
4/23/2023 4:00:00 AM 13.38 56.084 0.394 7.77 12.46 9
4/23/2023 4:15:00 AM 13.34 56.012 0.389 7.76 12.57 9.03
4/23/2023 4:30:00 AM 13.3 55.94 0.383 7.76 12.45 9.03
4/23/2023 4:45:00 AM 13.25 55.85 0.379 7.76 12.54 9.03
4/23/2023 5:00:00 AM 13.2 55.76 0.376 7.76 12.43 9.06
4/23/2023 5:15:00 AM 13.14 55.652 0.374 7.75 12.59 9.06
4/23/2023 5:30:00 AM 13.07 55.526 0.373 7.75 12.15 9.07
4/23/2023 5:45:00 AM 12.99 55.382 0.373 7.75 12.63 9.08
4/23/2023 6:00:00 AM 12.92 55.256 0.374 7.75 13 9.09
4/23/2023 6:15:00 AM 12.83 55.094 0.375 7.75 13.79 9.09
4/23/2023 6:30:00 AM 12.75 54.95 0.378 7.75 13.54 9.09
4/23/2023 6:45:00 AM 12.67 54.806 0.38 7.75 11.22 9.12
4/23/2023 7:00:00 AM 12.59 54.662 0.383 7.75 12.4 9.17
4/23/2023 7:15:00 AM 12.51 54.518 0.385 7.76 11.95 9.23
4/23/2023 7:30:00 AM 12.44 54.392 0.387 7.76 11.8 9.31
4/23/2023 7:45:00 AM 12.4 54.32 0.389 7.77 11.35 9.38
4/23/2023 8:00:00 AM 12.36 54.248 0.391 7.78 10.75 9.47
4/23/2023 8:15:00 AM 12.35 54.23 0.393 7.79 10.71 9.56
4/23/2023 8:30:00 AM 12.35 54.23 0.394 7.81 10.61 9.67
4/23/2023 8:45:00 AM 12.38 54.284 0.397 7.82 10.61 9.78
4/23/2023 9:00:00 AM 12.42 54.356 0.399 7.84 12.78 9.9
4/23/2023 9:15:00 AM 12.5 54.5 0.401 7.86 10.47 10.03
4/23/2023 9:30:00 AM 12.59 54.662 0.403 7.89 11.15 10.15
4/23/2023 9:45:00 AM 12.7 54.86 0.404 7.91 11.3 10.27
4/23/2023 10:00:00 AM 12.83 55.094 0.406 7.93 8.16 10.4
4/23/2023 10:15:00 AM 12.97 55.346 0.408 7.95 7.65 10.52
4/23/2023 10:30:00 AM 13.15 55.67 0.41 7.98 7.92 10.65
4/23/2023 10:45:00 AM 13.35 56.03 0.411 8 8.1 10.75
4/23/2023 11:00:00 AM 13.56 56.408 0.413 8.03 7.82 10.85
4/23/2023 11:15:00 AM 13.77 56.786 0.414 8.05 8.09 10.95
4/23/2023 11:30:00 AM 14.02 57.236 0.415 8.07 7.85 11.04
4/23/2023 11:45:00 AM 14.28 57.704 0.417 8.1 7.95 11.13
4/23/2023 12:00:00 PM 14.56 58.208 0.417 8.12 8.71 11.2
4/23/2023 12:15:00 PM 14.8 58.64 0.418 8.14 7.91 11.26
4/23/2023 12:30:00 PM 14.96 58.928 0.419 8.17 8.49 11.28
4/23/2023 12:45:00 PM 15.03 59.054 0.419 8.19 8.22 11.28
4/23/2023 1:00:00 PM 15.24 59.432 0.419 8.21 9.81 11.33
4/23/2023 1:15:00 PM 15.25 59.45 0.419 8.24 7.72 11.31
4/23/2023 1:30:00 PM 15.44 59.792 0.419 8.26 7.31 11.28
4/23/2023 1:45:00 PM 15.54 59.972 0.419 8.28 7.22 11.25
4/23/2023 2:00:00 PM 15.69 60.242 0.419 8.3 7.21 11.24
4/23/2023 2:15:00 PM 15.96 60.728 0.419 8.32 7.37 11.26
4/23/2023 2:30:00 PM 16.14 61.052 0.419 8.35 7.66 11.29
4/23/2023 2:45:00 PM 16.19 61.142 0.419 8.37 14.08 11.24
4/23/2023 3:00:00 PM 16.34 61.412 0.419 8.39 7.44 11.25
4/23/2023 3:15:00 PM 16.36 61.448 0.419 8.41 7.4 11.14
4/23/2023 3:30:00 PM 16.29 61.322 0.42 8.41 7.32 10.9
4/23/2023 3:45:00 PM 16.24 61.232 0.42 8.41 7.18 10.68
4/23/2023 4:00:00 PM 16.13 61.034 0.421 8.4 7.45 10.46
4/23/2023 4:15:00 PM 16.11 60.998 0.421 8.4 7.47 10.44
4/23/2023 4:30:00 PM 16.13 61.034 0.421 8.42 7.49 10.49
4/23/2023 4:45:00 PM 16.12 61.016 0.421 8.43 7.44 10.48
4/23/2023 5:00:00 PM 16.07 60.926 0.421 8.43 7.75 10.42
4/23/2023 5:15:00 PM 16.03 60.854 0.422 8.43 7.39 10.36
4/23/2023 5:30:00 PM 15.97 60.746 0.423 8.42 7.85 10.27
4/23/2023 5:45:00 PM 15.95 60.71 0.423 8.41 7.77 10.2
4/23/2023 6:00:00 PM 15.91 60.638 0.424 8.4 7.38 10.16
4/23/2023 6:15:00 PM 15.87 60.566 0.425 8.39 7.68 10.1
4/23/2023 6:30:00 PM 15.76 60.368 0.425 8.38 7.81 10.03
4/23/2023 6:45:00 PM 15.65 60.17 0.426 8.38 7.91 9.95
4/23/2023 7:00:00 PM 15.55 59.99 0.427 8.36 7.91 9.87
4/23/2023 7:15:00 PM 15.41 59.738 0.429 8.34 7.45 9.79
4/23/2023 7:30:00 PM 15.26 59.468 0.43 8.32 8.28 9.71
4/23/2023 7:45:00 PM 15.07 59.126 0.431 8.3 7.61 9.64
4/23/2023 8:00:00 PM 14.92 58.856 0.432 8.27 7.6 9.58
4/23/2023 8:15:00 PM 14.76 58.568 0.433 8.25 7.43 9.52
4/23/2023 8:30:00 PM 14.61 58.298 0.434 8.23 7.8 9.48
4/23/2023 8:45:00 PM 14.45 58.01 0.435 8.21 7.82 9.45
4/23/2023 9:00:00 PM 14.29 57.722 0.436 8.19 8.1 9.43
4/23/2023 9:15:00 PM 14.14 57.452 0.438 8.17 8.16 9.42
4/23/2023 9:30:00 PM 13.98 57.164 0.439 8.14 8.4 9.41
4/23/2023 9:45:00 PM 13.81 56.858 0.441 8.13 8.15 9.42
4/23/2023 10:00:00 PM 13.65 56.57 0.442 8.11 8.2 9.42
4/23/2023 10:15:00 PM 13.49 56.282 0.443 8.09 8.21 9.44
4/23/2023 10:30:00 PM 13.33 55.994 0.444 8.08 8.21 9.45
4/23/2023 10:45:00 PM 13.18 55.724 0.444 8.07 8.3 9.48
4/23/2023 11:00:00 PM 13.03 55.454 0.445 8.06 8.14 9.5
4/23/2023 11:15:00 PM 12.89 55.202 0.446 8.04 8.36 9.54
4/23/2023 11:30:00 PM 12.76 54.968 0.446 8.03 8.09 9.56
4/23/2023 11:45:00 PM 12.63 54.734 0.447 8.01 8.37 9.59
4/24/2023 12:00:00 AM 12.49 54.482 0.448 8 8.27 9.62
4/24/2023 12:15:00 AM 12.36 54.248 0.449 7.99 8.04 9.65
4/24/2023 12:30:00 AM 12.23 54.014 0.45 7.97 8.03 9.68
4/24/2023 12:45:00 AM 12.09 53.762 0.451 7.96 8.08 9.71
4/24/2023 1:00:00 AM 11.96 53.528 0.452 7.95 7.82 9.74
4/24/2023 1:15:00 AM 11.82 53.276 0.453 7.94 7.85 9.78
4/24/2023 1:30:00 AM 11.68 53.024 0.454 7.94 7.79 9.8
4/24/2023 1:45:00 AM 11.55 52.79 0.454 7.93 7.75 9.83
4/24/2023 2:00:00 AM 11.4 52.52 0.455 7.93 7.71 9.87
4/24/2023 2:15:00 AM 11.26 52.268 0.456 7.93 7.53 9.9
4/24/2023 2:30:00 AM 11.13 52.034 0.456 7.92 7.54 9.93
4/24/2023 2:45:00 AM 11.01 51.818 0.457 7.92 7.55 9.97
4/24/2023 3:00:00 AM 10.89 51.602 0.457 7.92 7.6 9.99
4/24/2023 3:15:00 AM 10.77 51.386 0.457 7.92 7.55 10.03
4/24/2023 3:30:00 AM 10.65 51.17 0.458 7.92 7.45 10.06
4/24/2023 3:45:00 AM 10.53 50.954 0.458 7.91 7.38 10.1
4/24/2023 4:00:00 AM 10.39 50.702 0.458 7.91 7.38 10.14
4/24/2023 4:15:00 AM 10.27 50.486 0.458 7.91 7.35 10.17
4/24/2023 4:30:00 AM 10.16 50.288 0.459 7.91 7.27 10.2
4/24/2023 4:45:00 AM 10.04 50.072 0.459 7.91 7.52 10.23
4/24/2023 5:00:00 AM 9.93 49.874 0.459 7.91 7.43 10.27
4/24/2023 5:15:00 AM 9.83 49.694 0.459 7.92 7.42 10.3
4/24/2023 5:30:00 AM 9.73 49.514 0.46 7.92 7.41 10.33
4/24/2023 5:45:00 AM 9.63 49.334 0.46 7.92 7.4 10.36
4/24/2023 6:00:00 AM 9.53 49.154 0.46 7.92 7.41 10.39
4/24/2023 6:15:00 AM 9.44 48.992 0.46 7.92 7.43 10.43
4/24/2023 6:30:00 AM 9.34 48.812 0.46 7.93 7.26 10.48
4/24/2023 6:45:00 AM 9.26 48.668 0.46 7.93 6.97 10.53
4/24/2023 7:00:00 AM 9.18 48.524 0.46 7.94 6.76 10.6
4/24/2023 7:15:00 AM 9.11 48.398 0.46 7.95 6.92 10.66
4/24/2023 7:30:00 AM 9.05 48.29 0.46 7.95 6.69 10.74
4/24/2023 7:45:00 AM 9.01 48.218 0.46 7.96 6.58 10.81
4/24/2023 8:00:00 AM 8.99 48.182 0.46 7.98 6.36 10.9
4/24/2023 8:15:00 AM 8.99 48.182 0.46 7.99 6.23 10.99
4/24/2023 8:30:00 AM 9.03 48.254 0.46 8 6.21 11.09
4/24/2023 8:45:00 AM 9.09 48.362 0.46 8.02 6.6 11.19
4/24/2023 9:00:00 AM 9.17 48.506 0.46 8.04 6.16 11.28
4/24/2023 9:15:00 AM 9.27 48.686 0.46 8.06 6.3 11.38
4/24/2023 9:30:00 AM 9.39 48.902 0.459 8.07 6.79 11.46
4/24/2023 9:45:00 AM 9.53 49.154 0.459 8.09 7.01 11.53
4/24/2023 10:00:00 AM 9.67 49.406 0.459 8.11 6.35 11.6
4/24/2023 10:15:00 AM 9.78 49.604 0.459 8.12 6.11 11.64
4/24/2023 10:30:00 AM 10.04 50.072 0.459 8.14 5.98 11.73
4/24/2023 10:45:00 AM 10.2 50.36 0.459 8.15 6.08 11.77
4/24/2023 11:00:00 AM 10.4 50.72 0.459 8.17 6.01 11.82
4/24/2023 11:15:00 AM 10.57 51.026 0.459 8.18 6.22 11.81
4/24/2023 11:30:00 AM 10.75 51.35 0.459 8.19 6.19 11.84
4/24/2023 11:45:00 AM 10.93 51.674 0.459 8.2 6.15 11.89
4/24/2023 12:00:00 PM 11.04 51.872 0.459 8.22 5.91 11.88
4/24/2023 12:15:00 PM 11.08 51.944 0.459 8.23 5.77 11.85
4/24/2023 12:30:00 PM 11.43 52.574 0.458 8.24 5.93 11.9
4/24/2023 12:45:00 PM 11.42 52.556 0.458 8.26 5.86 11.84
4/24/2023 1:00:00 PM 11.7 53.06 0.457 8.27 5.81 11.88
4/24/2023 1:15:00 PM 11.8 53.24 0.457 8.29 5.91 11.89
4/24/2023 1:30:00 PM 11.83 53.294 0.456 8.3 5.99 11.83
4/24/2023 1:45:00 PM 12.09 53.762 0.455 8.32 5.87 11.85
4/24/2023 2:00:00 PM 12.43 54.374 0.454 8.34 5.92 11.88
4/24/2023 2:15:00 PM 12.61 54.698 0.453 8.36 5.88 11.83
4/24/2023 2:30:00 PM 12.68 54.824 0.452 8.37 6.05 11.77
4/24/2023 2:45:00 PM 12.79 55.022 0.452 8.39 5.91 11.72
4/24/2023 3:00:00 PM 12.97 55.346 0.451 8.4 5.95 11.69
4/24/2023 3:15:00 PM 13.28 55.904 0.45 8.42 5.91 11.64
4/24/2023 3:30:00 PM 13.43 56.174 0.449 8.43 5.99 11.6
4/24/2023 3:45:00 PM 13.51 56.318 0.448 8.44 6.35 11.51
4/24/2023 4:00:00 PM 13.56 56.408 0.447 8.45 6.43 11.42
4/24/2023 4:15:00 PM 13.65 56.57 0.447 8.46 6.55 11.37
4/24/2023 4:30:00 PM 13.82 56.876 0.446 8.47 6.03 11.33
4/24/2023 4:45:00 PM 13.93 57.074 0.446 8.48 6.33 11.25
4/24/2023 5:00:00 PM 14.1 57.38 0.445 8.49 6.13 11.17
4/24/2023 5:15:00 PM 14.08 57.344 0.445 8.49 6.25 11.02
4/24/2023 5:30:00 PM 14.15 57.47 0.444 8.49 6.31 10.92
4/24/2023 5:45:00 PM 14.2 57.56 0.444 8.49 6.27 10.86
4/24/2023 6:00:00 PM 14.25 57.65 0.444 8.49 6.28 10.82
4/24/2023 6:15:00 PM 14.19 57.542 0.444 8.49 6.25 10.69
4/24/2023 6:30:00 PM 14.17 57.506 0.444 8.48 6.55 10.59
4/24/2023 6:45:00 PM 14.11 57.398 0.444 8.46 6.45 10.47
4/24/2023 7:00:00 PM 14.09 57.362 0.445 8.45 6.31 10.36
4/24/2023 7:15:00 PM 14.08 57.344 0.445 8.43 6.43 10.25
4/24/2023 7:30:00 PM 14.05 57.29 0.445 8.41 6.69 10.14
4/24/2023 7:45:00 PM 13.99 57.182 0.446 8.39 6.51 10.05
4/24/2023 8:00:00 PM 13.94 57.092 0.446 8.37 6.72 9.95
4/24/2023 8:15:00 PM 13.89 57.002 0.446 8.34 6.35 9.85
4/24/2023 8:30:00 PM 13.84 56.912 0.446 8.32 6.93 9.77
4/24/2023 8:45:00 PM 13.79 56.822 0.446 8.3 7.22 9.71
4/24/2023 9:00:00 PM 13.73 56.714 0.446 8.27 7.21 9.64
4/24/2023 9:15:00 PM 13.66 56.588 0.447 8.25 7.27 9.59
4/24/2023 9:30:00 PM 13.58 56.444 0.447 8.23 7.29 9.56
4/24/2023 9:45:00 PM 13.5 56.3 0.447 8.21 7.52 9.53
4/24/2023 10:00:00 PM 13.42 56.156 0.448 8.19 7.51 9.52
4/24/2023 10:15:00 PM 13.33 55.994 0.449 8.18 7.52 9.52
4/24/2023 10:30:00 PM 13.23 55.814 0.449 8.16 7.32 9.51
4/24/2023 10:45:00 PM 13.11 55.598 0.45 8.15 7.38 9.53
4/24/2023 11:00:00 PM 12.99 55.382 0.451 8.13 7.52 9.54
4/24/2023 11:15:00 PM 12.87 55.166 0.452 8.12 7.54 9.57
4/24/2023 11:30:00 PM 12.73 54.914 0.453 8.11 7.5 9.6
4/24/2023 11:45:00 PM 12.59 54.662 0.454 8.1 7.79 9.62
4/25/2023 12:00:00 AM 12.45 54.41 0.455 8.09 7.74 9.66
4/25/2023 12:15:00 AM 12.3 54.14 0.456 8.08 7.62 9.69
4/25/2023 12:30:00 AM 12.15 53.87 0.458 8.07 7.79 9.72
4/25/2023 12:45:00 AM 12 53.6 0.459 8.06 7.35 9.76
4/25/2023 1:00:00 AM 11.84 53.312 0.46 8.05 7.3 9.8
4/25/2023 1:15:00 AM 11.69 53.042 0.461 8.04 7.59 9.85
4/25/2023 1:30:00 AM 11.54 52.772 0.462 8.04 7.38 9.88
4/25/2023 1:45:00 AM 11.38 52.484 0.463 8.03 7.18 9.91
4/25/2023 2:00:00 AM 11.23 52.214 0.464 8.02 7.17 9.96
4/25/2023 2:15:00 AM 11.07 51.926 0.464 8.02 7.1 9.99
4/25/2023 2:30:00 AM 10.92 51.656 0.465 8.01 6.92 10.02
4/25/2023 2:45:00 AM 10.78 51.404 0.465 8.01 7.09 10.06
4/25/2023 3:00:00 AM 10.64 51.152 0.466 8.01 7.32 10.11
4/25/2023 3:15:00 AM 10.51 50.918 0.466 8 7.15 10.15
4/25/2023 3:30:00 AM 10.37 50.666 0.466 7.99 7.26 10.18
4/25/2023 3:45:00 AM 10.24 50.432 0.466 7.99 7.25 10.22
4/25/2023 4:00:00 AM 10.11 50.198 0.466 7.98 7.27 10.26
4/25/2023 4:15:00 AM 9.99 49.982 0.466 7.98 7.06 10.3
4/25/2023 4:30:00 AM 9.87 49.766 0.466 7.97 6.93 10.34
4/25/2023 4:45:00 AM 9.75 49.55 0.466 7.96 6.94 10.38
4/25/2023 5:00:00 AM 9.63 49.334 0.466 7.96 7.1 10.41
4/25/2023 5:15:00 AM 9.52 49.136 0.466 7.95 7.17 10.45
4/25/2023 5:30:00 AM 9.41 48.938 0.466 7.95 7.12 10.48
4/25/2023 5:45:00 AM 9.3 48.74 0.466 7.94 7.09 10.52
4/25/2023 6:00:00 AM 9.2 48.56 0.466 7.94 6.73 10.55
4/25/2023 6:15:00 AM 9.11 48.398 0.467 7.94 6.87 10.58
4/25/2023 6:30:00 AM 9.02 48.236 0.467 7.94 6.51 10.63
4/25/2023 6:45:00 AM 8.93 48.074 0.467 7.95 6.71 10.68
4/25/2023 7:00:00 AM 8.86 47.948 0.467 7.95 6.66 10.74
4/25/2023 7:15:00 AM 8.79 47.822 0.467 7.96 6.61 10.82
4/25/2023 7:30:00 AM 8.73 47.714 0.468 7.96 6.45 10.9
4/25/2023 7:45:00 AM 8.69 47.642 0.467 7.97 6.17 10.98
4/25/2023 8:00:00 AM 8.68 47.624 0.467 7.99 6.22 11.05
4/25/2023 8:15:00 AM 8.7 47.66 0.467 8 6 11.14
4/25/2023 8:30:00 AM 8.74 47.732 0.467 8.02 5.89 11.25
4/25/2023 8:45:00 AM 8.8 47.84 0.467 8.03 5.94 11.35
4/25/2023 9:00:00 AM 8.87 47.966 0.466 8.05 5.8 11.44
4/25/2023 9:15:00 AM 8.98 48.164 0.466 8.07 5.76 11.55
4/25/2023 9:30:00 AM 9.1 48.38 0.466 8.09 5.56 11.63
4/25/2023 9:45:00 AM 9.26 48.668 0.466 8.1 5.54 11.72
4/25/2023 10:00:00 AM 9.36 48.848 0.465 8.12 5.59 11.77
4/25/2023 10:15:00 AM 9.48 49.064 0.465 8.13 5.57 11.81
4/25/2023 10:30:00 AM 9.71 49.478 0.465 8.15 6.2 11.88
4/25/2023 10:45:00 AM 9.98 49.964 0.464 8.16 5.36 11.95
4/25/2023 11:00:00 AM 10.24 50.432 0.464 8.18 5.36 11.99
4/25/2023 11:15:00 AM 10.2 50.36 0.464 8.19 5.96 11.96
4/25/2023 11:30:00 AM 10.4 50.72 0.463 8.2 5.6 11.98
4/25/2023 11:45:00 AM 10.48 50.864 0.463 8.21 5.84 11.97
4/25/2023 12:00:00 PM 10.95 51.71 0.463 8.22 5.79 12.03
4/25/2023 12:15:00 PM 11.4 52.52 0.462 8.24 5.66 12.11
4/25/2023 12:30:00 PM 11.62 52.916 0.462 8.26 5.62 12.1
4/25/2023 12:45:00 PM 12.08 53.744 0.461 8.28 5.9 12.11
4/25/2023 1:00:00 PM 12.22 53.996 0.461 8.29 5.7 12.07
4/25/2023 1:15:00 PM 12.3 54.14 0.461 8.3 5.86 12
4/25/2023 1:30:00 PM 12.43 54.374 0.46 8.32 5.59 11.97
4/25/2023 1:45:00 PM 12.48 54.464 0.459 8.33 5.67 11.9
4/25/2023 2:00:00 PM 12.58 54.644 0.459 8.35 5.77 11.88
4/25/2023 2:15:00 PM 12.89 55.202 0.458 8.36 5.63 11.86
4/25/2023 2:30:00 PM 13.13 55.634 0.457 8.38 5.53 11.87
4/25/2023 2:45:00 PM 13.63 56.534 0.456 8.4 5.7 11.88
4/25/2023 3:00:00 PM 14.03 57.254 0.455 8.42 6.09 11.81
4/25/2023 3:15:00 PM 14.3 57.74 0.454 8.44 6 11.74
4/25/2023 3:30:00 PM 14.72 58.496 0.453 8.46 5.87 11.69
4/25/2023 3:45:00 PM 15 59 0.452 8.48 6.01 11.6
4/25/2023 4:00:00 PM 15.14 59.252 0.451 8.5 6.33 11.52
4/25/2023 4:15:00 PM 15.17 59.306 0.45 8.51 6.09 11.38
4/25/2023 4:30:00 PM 15.3 59.54 0.449 8.52 5.94 11.27
4/25/2023 4:45:00 PM 15.33 59.594 0.448 8.53 6.2 11.17
4/25/2023 5:00:00 PM 15.36 59.648 0.447 8.54 5.98 11.09
4/25/2023 5:15:00 PM 15.31 59.558 0.447 8.54 6.12 10.96
4/25/2023 5:30:00 PM 15.24 59.432 0.446 8.54 6.21 10.84
4/25/2023 5:45:00 PM 15.21 59.378 0.446 8.53 6.99 10.75
4/25/2023 6:00:00 PM 15.16 59.288 0.445 8.53 6.29 10.65
4/25/2023 6:15:00 PM 15.09 59.162 0.445 8.52 6.49 10.53
4/25/2023 6:30:00 PM 15 59 0.445 8.5 6.88 10.43
4/25/2023 6:45:00 PM 14.91 58.838 0.445 8.49 6.62 10.32
4/25/2023 7:00:00 PM 14.83 58.694 0.445 8.47 6.53 10.22
4/25/2023 7:15:00 PM 14.74 58.532 0.445 8.45 6.68 10.1
4/25/2023 7:30:00 PM 14.66 58.388 0.445 8.43 6.37 9.99
4/25/2023 7:45:00 PM 14.57 58.226 0.445 8.4 6.62 9.87
4/25/2023 8:00:00 PM 14.48 58.064 0.445 8.38 6.63 9.76
4/25/2023 8:15:00 PM 14.4 57.92 0.446 8.35 6.77 9.66
4/25/2023 8:30:00 PM 14.31 57.758 0.446 8.32 6.51 9.59
4/25/2023 8:45:00 PM 14.21 57.578 0.446 8.29 7.34 9.52
4/25/2023 9:00:00 PM 14.12 57.416 0.447 8.27 7.55 9.47
4/25/2023 9:15:00 PM 14.03 57.254 0.447 8.25 7.27 9.44
4/25/2023 9:30:00 PM 13.93 57.074 0.447 8.23 7.46 9.42
4/25/2023 9:45:00 PM 13.83 56.894 0.448 8.21 7.99 9.4
4/25/2023 10:00:00 PM 13.72 56.696 0.448 8.19 7.46 9.4
4/25/2023 10:15:00 PM 13.6 56.48 0.449 8.17 7.55 9.4
4/25/2023 10:30:00 PM 13.48 56.264 0.45 8.15 7.21 9.4
4/25/2023 10:45:00 PM 13.34 56.012 0.451 8.14 7.56 9.43
4/25/2023 11:00:00 PM 13.2 55.76 0.452 8.12 7.37 9.46
4/25/2023 11:15:00 PM 13.05 55.49 0.453 8.11 7.21 9.48
4/25/2023 11:30:00 PM 12.89 55.202 0.454 8.1 7.95 9.51
4/25/2023 11:45:00 PM 12.72 54.896 0.455 8.09 8.64 9.54
4/26/2023 12:00:00 AM 12.56 54.608 0.456 8.08 7.34 9.58
4/26/2023 12:15:00 AM 12.39 54.302 0.458 8.08 7.07 9.63
4/26/2023 12:30:00 AM 12.23 54.014 0.459 8.07 7.07 9.67
4/26/2023 12:45:00 AM 12.07 53.726 0.46 8.06 7.01 9.73
4/26/2023 1:00:00 AM 11.91 53.438 0.461 8.06 6.97 9.76
4/26/2023 1:15:00 AM 11.76 53.168 0.462 8.05 6.96 9.81
4/26/2023 1:30:00 AM 11.61 52.898 0.464 8.04 6.98 9.86
4/26/2023 1:45:00 AM 11.46 52.628 0.465 8.04 6.93 9.9
4/26/2023 2:00:00 AM 11.32 52.376 0.466 8.03 7 9.93
4/26/2023 2:15:00 AM 11.18 52.124 0.467 8.02 6.89 9.98
4/26/2023 2:30:00 AM 11.05 51.89 0.468 8.02 6.97 10.01
4/26/2023 2:45:00 AM 10.94 51.692 0.468 8.01 6.72 10.05
4/26/2023 3:00:00 AM 10.83 51.494 0.469 8.01 6.81 10.09
4/26/2023 3:15:00 AM 10.74 51.332 0.469 8 8.17 10.12
4/26/2023 3:30:00 AM 10.64 51.152 0.469 8 7.1 10.16
4/26/2023 3:45:00 AM 10.55 50.99 0.47 8 6.76 10.18
4/26/2023 4:00:00 AM 10.46 50.828 0.47 7.99 6.74 10.22
4/26/2023 4:15:00 AM 10.38 50.684 0.47 7.98 6.67 10.25
4/26/2023 4:30:00 AM 10.3 50.54 0.47 7.98 6.57 10.27
4/26/2023 4:45:00 AM 10.23 50.414 0.47 7.98 6.68 10.3
4/26/2023 5:00:00 AM 10.16 50.288 0.47 7.97 6.72 10.32
4/26/2023 5:15:00 AM 10.09 50.162 0.47 7.97 6.65 10.35
4/26/2023 5:30:00 AM 10.04 50.072 0.47 7.97 6.66 10.37
4/26/2023 5:45:00 AM 9.98 49.964 0.47 7.97 6.61 10.39
4/26/2023 6:00:00 AM 9.91 49.838 0.47 7.97 6.79 10.41
4/26/2023 6:15:00 AM 9.83 49.694 0.47 7.96 6.87 10.43
4/26/2023 6:30:00 AM 9.79 49.622 0.47 7.96 7.01 10.47
4/26/2023 6:45:00 AM 9.75 49.55 0.47 7.96 6.81 10.5
4/26/2023 7:00:00 AM 9.72 49.496 0.47 7.97 6.79 10.53
4/26/2023 7:15:00 AM 9.7 49.46 0.47 7.97 6.73 10.59
4/26/2023 7:30:00 AM 9.69 49.442 0.47 7.97 6.49 10.64
4/26/2023 7:45:00 AM 9.67 49.406 0.47 7.98 6.45 10.66
4/26/2023 8:00:00 AM 9.69 49.442 0.47 7.99 6.35 10.77
4/26/2023 8:15:00 AM 9.73 49.514 0.47 8 6.33 10.88
4/26/2023 8:30:00 AM 9.73 49.514 0.469 8.01 6.62 10.89
4/26/2023 8:45:00 AM 9.79 49.622 0.469 8.03 6.49 10.99
4/26/2023 9:00:00 AM 9.87 49.766 0.469 8.04 6.29 11.09
4/26/2023 9:15:00 AM 9.92 49.856 0.468 8.06 6.06 11.17
4/26/2023 9:30:00 AM 10.04 50.072 0.468 8.07 6.04 11.3
4/26/2023 9:45:00 AM 10.12 50.216 0.468 8.09 6.05 11.4
4/26/2023 10:00:00 AM 10.28 50.504 0.467 8.11 5.97 11.5
4/26/2023 10:15:00 AM 10.44 50.792 0.467 8.13 6.01 11.59
4/26/2023 10:30:00 AM 10.61 51.098 0.467 8.15 6.12 11.69
4/26/2023 10:45:00 AM 10.79 51.422 0.466 8.17 5.98 11.76
4/26/2023 11:00:00 AM 11.11 51.998 0.466 8.19 5.93 11.85
4/26/2023 11:15:00 AM 11.36 52.448 0.466 8.2 5.86 11.9
4/26/2023 11:30:00 AM 11.65 52.97 0.465 8.22 5.88 11.94
4/26/2023 11:45:00 AM 11.9 53.42 0.465 8.24 5.91 11.99
4/26/2023 12:00:00 PM 12.16 53.888 0.465 8.25 6.1 11.99
4/26/2023 12:15:00 PM 12.52 54.536 0.464 8.27 8.15 12.01
4/26/2023 12:30:00 PM 12.92 55.256 0.463 8.28 6.63 12.03
4/26/2023 12:45:00 PM 13.34 56.012 0.463 8.3 6.49 12.04
4/26/2023 1:00:00 PM 13.79 56.822 0.462 8.32 6.51 12.04
4/26/2023 1:15:00 PM 14.06 57.308 0.461 8.33 6.77 11.98
4/26/2023 1:30:00 PM 14.45 58.01 0.461 8.35 6.2 11.98
4/26/2023 1:45:00 PM 14.65 58.37 0.46 8.37 6.31 11.91
4/26/2023 2:00:00 PM 14.72 58.496 0.459 8.38 6.08 11.85
4/26/2023 2:15:00 PM 14.66 58.388 0.458 8.39 6.02 11.72
4/26/2023 2:30:00 PM 14.58 58.244 0.456 8.39 6.91 11.5
4/26/2023 2:45:00 PM 14.6 58.28 0.454 8.4 6.46 11.43
4/26/2023 3:00:00 PM 14.71 58.478 0.453 8.41 6.19 11.45
4/26/2023 3:15:00 PM 14.96 58.928 0.453 8.43 6.42 11.51
4/26/2023 3:30:00 PM 15.2 59.36 0.451 8.44 6.1 11.52
4/26/2023 3:45:00 PM 15.31 59.558 0.451 8.46 6.19 11.5
4/26/2023 4:00:00 PM 15.27 59.486 0.45 8.47 6.01 11.44
4/26/2023 4:15:00 PM 15.23 59.414 0.449 8.47 6.06 11.35
4/26/2023 4:30:00 PM 15.19 59.342 0.448 8.48 6.1 11.26
4/26/2023 4:45:00 PM 15.15 59.27 0.447 8.47 6.13 11.09
4/26/2023 5:00:00 PM 15.16 59.288 0.447 8.48 6.24 11.04
4/26/2023 5:15:00 PM 15.22 59.396 0.446 8.49 6.34 11
4/26/2023 5:30:00 PM 15.18 59.324 0.445 8.49 6.41 10.9
4/26/2023 5:45:00 PM 15.16 59.288 0.444 8.5 6.3 10.83
4/26/2023 6:00:00 PM 15.12 59.216 0.444 8.49 6.22 10.71
4/26/2023 6:15:00 PM 15.07 59.126 0.443 8.48 6.39 10.61
4/26/2023 6:30:00 PM 15.02 59.036 0.444 8.47 6.37 10.53
4/26/2023 6:45:00 PM 14.95 58.91 0.444 8.46 6.87 10.44
4/26/2023 7:00:00 PM 14.86 58.748 0.444 8.44 6.62 10.35
4/26/2023 7:15:00 PM 14.79 58.622 0.445 8.43 6.55 10.25
4/26/2023 7:30:00 PM 14.73 58.514 0.445 8.41 6.53 10.14
4/26/2023 7:45:00 PM 14.67 58.406 0.446 8.39 6.54 10.02
4/26/2023 8:00:00 PM 14.57 58.226 0.447 8.36 6.81 9.91
4/26/2023 8:15:00 PM 14.47 58.046 0.447 8.34 6.48 9.8
4/26/2023 8:30:00 PM 14.36 57.848 0.448 8.31 6.68 9.73
4/26/2023 8:45:00 PM 14.26 57.668 0.449 8.28 6.8 9.66
4/26/2023 9:00:00 PM 14.16 57.488 0.449 8.26 6.92 9.61
4/26/2023 9:15:00 PM 14.09 57.362 0.45 8.24 6.91 9.56
4/26/2023 9:30:00 PM 14.03 57.254 0.45 8.22 7 9.52
4/26/2023 9:45:00 PM 13.99 57.182 0.45 8.2 6.85 9.48
4/26/2023 10:00:00 PM 13.94 57.092 0.451 8.18 7.11 9.46
4/26/2023 10:15:00 PM 13.89 57.002 0.451 8.16 6.95 9.44
4/26/2023 10:30:00 PM 13.82 56.876 0.452 8.15 6.93 9.43
4/26/2023 10:45:00 PM 13.74 56.732 0.452 8.13 7.09 9.42
4/26/2023 11:00:00 PM 13.65 56.57 0.453 8.12 6.87 9.43
4/26/2023 11:15:00 PM 13.53 56.354 0.453 8.11 7.04 9.44
4/26/2023 11:30:00 PM 13.42 56.156 0.454 8.09 6.96 9.46
4/26/2023 11:45:00 PM 13.31 55.958 0.455 8.09 6.87 9.46
4/27/2023 12:00:00 AM 13.2 55.76 0.455 8.08 6.92 9.48
4/27/2023 12:15:00 AM 13.08 55.544 0.456 8.07 7.23 9.49
4/27/2023 12:30:00 AM 12.97 55.346 0.457 8.06 7.33 9.51
4/27/2023 12:45:00 AM 12.85 55.13 0.458 8.05 7.41 9.55
4/27/2023 1:00:00 AM 12.74 54.932 0.459 8.04 7.12 9.58
4/27/2023 1:15:00 AM 12.63 54.734 0.46 8.04 6.98 9.61
4/27/2023 1:30:00 AM 12.51 54.518 0.461 8.03 6.91 9.63
4/27/2023 1:45:00 AM 12.4 54.32 0.462 8.03 6.93 9.67
4/27/2023 2:00:00 AM 12.29 54.122 0.463 8.02 6.85 9.7
4/27/2023 2:15:00 AM 12.18 53.924 0.464 8.01 6.73 9.72
4/27/2023 2:30:00 AM 12.06 53.708 0.464 8.01 6.75 9.76
4/27/2023 2:45:00 AM 11.94 53.492 0.465 8 6.57 9.78
4/27/2023 3:00:00 AM 11.82 53.276 0.465 8 6.8 9.82
4/27/2023 3:15:00 AM 11.71 53.078 0.466 8 6.54 9.84
4/27/2023 3:30:00 AM 11.62 52.916 0.466 7.99 6.53 9.87
4/27/2023 3:45:00 AM 11.53 52.754 0.466 7.99 6.35 9.9
4/27/2023 4:00:00 AM 11.43 52.574 0.466 7.99 6.39 9.92
4/27/2023 4:15:00 AM 11.35 52.43 0.467 7.98 6.37 9.95
4/27/2023 4:30:00 AM 11.29 52.322 0.467 7.98 6.33 9.97
4/27/2023 4:45:00 AM 11.23 52.214 0.467 7.98 6.31 9.99
4/27/2023 5:00:00 AM 11.17 52.106 0.467 7.98 6.28 10.01
4/27/2023 5:15:00 AM 11.12 52.016 0.467 7.98 6.21 10.02
4/27/2023 5:30:00 AM 11.07 51.926 0.467 7.98 6.49 10.05
4/27/2023 5:45:00 AM 11.03 51.854 0.467 7.98 6.6 10.07
4/27/2023 6:00:00 AM 10.99 51.782 0.467 7.98 6.7 10.08
4/27/2023 6:15:00 AM 10.95 51.71 0.467 7.98 6.86 10.1
4/27/2023 6:30:00 AM 10.92 51.656 0.467 7.98 6.62 10.12
4/27/2023 6:45:00 AM 10.9 51.62 0.467 7.98 6.62 10.15
4/27/2023 7:00:00 AM 10.88 51.584 0.467 7.98 6.77 10.17
4/27/2023 7:15:00 AM 10.87 51.566 0.467 7.98 6.75 10.24
4/27/2023 7:30:00 AM 10.86 51.548 0.467 7.99 6.55 10.28
4/27/2023 7:45:00 AM 10.86 51.548 0.467 7.99 6.55 10.34
4/27/2023 8:00:00 AM 10.87 51.566 0.467 8 6.82 10.39
4/27/2023 8:15:00 AM 10.89 51.602 0.467 8.01 6.47 10.48
4/27/2023 8:30:00 AM 10.92 51.656 0.467 8.02 6.18 10.59
4/27/2023 8:45:00 AM 10.99 51.782 0.466 8.03 5.97 10.74
4/27/2023 9:00:00 AM 11.07 51.926 0.466 8.05 5.98 10.88
4/27/2023 9:15:00 AM 11.17 52.106 0.466 8.07 5.9 11.02
4/27/2023 9:30:00 AM 11.26 52.268 0.465 8.09 6.51 11.14
4/27/2023 9:45:00 AM 11.38 52.484 0.465 8.1 5.98 11.25
4/27/2023 10:00:00 AM 11.47 52.646 0.465 8.12 6.51 11.34
4/27/2023 10:15:00 AM 11.58 52.844 0.464 8.14 6.14 11.4
4/27/2023 10:30:00 AM 11.62 52.916 0.464 8.15 6.54 11.42
4/27/2023 10:45:00 AM 11.67 53.006 0.464 8.16 6.06 11.44
4/27/2023 11:00:00 AM 11.75 53.15 0.464 8.17 6.2 11.48
4/27/2023 11:15:00 AM 11.92 53.456 0.463 8.19 6.01 11.57
4/27/2023 11:30:00 AM 12.11 53.798 0.463 8.21 6.08 11.66
4/27/2023 11:45:00 AM 12.15 53.87 0.462 8.22 6.01 11.71
4/27/2023 12:00:00 PM 12.27 54.086 0.462 8.24 6.06 11.74
4/27/2023 12:15:00 PM 12.47 54.446 0.462 8.25 6.23 11.74
4/27/2023 12:30:00 PM 12.61 54.698 0.461 8.26 6.12 11.73
4/27/2023 12:45:00 PM 12.67 54.806 0.461 8.27 6.01 11.76
4/27/2023 1:00:00 PM 12.74 54.932 0.461 8.29 5.81 11.76
4/27/2023 1:15:00 PM 13.1 55.58 0.46 8.3 5.71 11.82
4/27/2023 1:30:00 PM 13.31 55.958 0.459 8.32 5.76 11.86
4/27/2023 1:45:00 PM 13.69 56.642 0.459 8.33 6.07 11.91
4/27/2023 2:00:00 PM 13.93 57.074 0.458 8.35 6.1 11.88
4/27/2023 2:15:00 PM 14.11 57.398 0.457 8.36 6 11.85
4/27/2023 2:30:00 PM 14.42 57.956 0.457 8.38 5.9 11.83
4/27/2023 2:45:00 PM 14.68 58.424 0.456 8.4 5.9 11.81
4/27/2023 3:00:00 PM 14.94 58.892 0.455 8.42 5.83 11.82
4/27/2023 3:15:00 PM 15.06 59.108 0.454 8.43 5.81 11.76
4/27/2023 3:30:00 PM 15.12 59.216 0.453 8.45 6.01 11.71
4/27/2023 3:45:00 PM 15.1 59.18 0.452 8.46 6.14 11.64
4/27/2023 4:00:00 PM 15.13 59.234 0.451 8.47 6.33 11.56
4/27/2023 4:15:00 PM 15.19 59.342 0.451 8.48 6.19 11.5
4/27/2023 4:30:00 PM 15.24 59.432 0.449 8.49 10.66 11.46
4/27/2023 4:45:00 PM 15.24 59.432 0.449 8.5 7.01 11.41
4/27/2023 5:00:00 PM 15.23 59.414 0.448 8.51 6.95 11.37
4/27/2023 5:15:00 PM 15.2 59.36 0.448 8.52 6.78 11.26
4/27/2023 5:30:00 PM 15.2 59.36 0.447 8.52 6.53 11.15
4/27/2023 5:45:00 PM 15.23 59.414 0.447 8.52 6.6 11.06
4/27/2023 6:00:00 PM 15.24 59.432 0.446 8.52 6.49 10.96
4/27/2023 6:15:00 PM 15.23 59.414 0.446 8.51 6.43 10.83
4/27/2023 6:30:00 PM 15.2 59.36 0.446 8.51 6.36 10.7
4/27/2023 6:45:00 PM 15.14 59.252 0.446 8.49 6.39 10.56
4/27/2023 7:00:00 PM 15.09 59.162 0.446 8.47 6.59 10.43
4/27/2023 7:15:00 PM 15.03 59.054 0.446 8.46 6.51 10.31
4/27/2023 7:30:00 PM 14.94 58.892 0.447 8.43 6.65 10.17
4/27/2023 7:45:00 PM 14.85 58.73 0.448 8.41 6.63 10.05
4/27/2023 8:00:00 PM 14.75 58.55 0.449 8.38 6.67 9.94
4/27/2023 8:15:00 PM 14.65 58.37 0.449 8.35 6.8 9.83
4/27/2023 8:30:00 PM 14.55 58.19 0.45 8.33 6.99 9.74
4/27/2023 8:45:00 PM 14.46 58.028 0.45 8.3 7.25 9.66
4/27/2023 9:00:00 PM 14.37 57.866 0.45 8.27 7.71 9.59
4/27/2023 9:15:00 PM 14.28 57.704 0.45 8.24 7.55 9.54
4/27/2023 9:30:00 PM 14.19 57.542 0.451 8.22 7.48 9.49
4/27/2023 9:45:00 PM 14.1 57.38 0.451 8.2 7.31 9.46
4/27/2023 10:00:00 PM 14.02 57.236 0.452 8.18 7.39 9.44
4/27/2023 10:15:00 PM 13.96 57.128 0.452 8.17 7.45 9.42
4/27/2023 10:30:00 PM 13.91 57.038 0.453 8.15 7.45 9.4
4/27/2023 10:45:00 PM 13.86 56.948 0.454 8.14 7.24 9.4
4/27/2023 11:00:00 PM 13.8 56.84 0.454 8.12 7.28 9.39
4/27/2023 11:15:00 PM 13.77 56.786 0.455 8.11 8.54 9.39
4/27/2023 11:30:00 PM 13.71 56.678 0.456 8.1 8.03 9.39
4/27/2023 11:45:00 PM 13.66 56.588 0.456 8.09 7.71 9.39
4/28/2023 12:00:00 AM 13.6 56.48 0.457 8.08 7.24 9.39
4/28/2023 12:15:00 AM 13.53 56.354 0.457 8.07 7.3 9.39
4/28/2023 12:30:00 AM 13.48 56.264 0.458 8.07 7.62 9.41
4/28/2023 12:45:00 AM 13.42 56.156 0.459 8.06 8.2 9.4
4/28/2023 1:00:00 AM 13.35 56.03 0.46 8.05 8.01 9.43
4/28/2023 1:15:00 AM 13.28 55.904 0.461 8.04 7.57 9.44
4/28/2023 1:30:00 AM 13.2 55.76 0.462 8.04 7.71 9.46
4/28/2023 1:45:00 AM 13.12 55.616 0.463 8.03 7.72 9.47
4/28/2023 2:00:00 AM 13.03 55.454 0.464 8.02 7.51 9.49
4/28/2023 2:15:00 AM 12.93 55.274 0.465 8.02 7.25 9.51
4/28/2023 2:30:00 AM 12.84 55.112 0.465 8.01 7.27 9.53
4/28/2023 2:45:00 AM 12.75 54.95 0.466 8.01 7.12 9.56
4/28/2023 3:00:00 AM 12.67 54.806 0.466 8 6.96 9.58
4/28/2023 3:15:00 AM 12.59 54.662 0.467 8 7.08 9.6
4/28/2023 3:30:00 AM 12.51 54.518 0.467 8 7.01 9.62
4/28/2023 3:45:00 AM 12.44 54.392 0.467 7.99 6.99 9.64
4/28/2023 4:00:00 AM 12.37 54.266 0.467 7.99 6.92 9.66
4/28/2023 4:15:00 AM 12.29 54.122 0.467 7.99 6.93 9.69
4/28/2023 4:30:00 AM 12.24 54.032 0.467 7.99 7.28 9.7
4/28/2023 4:45:00 AM 12.18 53.924 0.467 7.98 7.24 9.72
4/28/2023 5:00:00 AM 12.12 53.816 0.467 7.98 7 9.74
4/28/2023 5:15:00 AM 12.07 53.726 0.467 7.98 6.96 9.76
4/28/2023 5:30:00 AM 12.03 53.654 0.467 7.98 6.94 9.77
4/28/2023 5:45:00 AM 11.98 53.564 0.467 7.98 7.07 9.78
4/28/2023 6:00:00 AM 11.93 53.474 0.467 7.98 6.85 9.8
4/28/2023 6:15:00 AM 11.88 53.384 0.467 7.98 6.83 9.81
4/28/2023 6:30:00 AM 11.83 53.294 0.467 7.98 7.78 9.83
4/28/2023 6:45:00 AM 11.8 53.24 0.467 7.98 7.06 9.86
4/28/2023 7:00:00 AM 11.77 53.186 0.467 7.98 7.07 9.9
4/28/2023 7:15:00 AM 11.74 53.132 0.467 7.99 7.02 9.93
4/28/2023 7:30:00 AM 11.72 53.096 0.467 7.99 6.91 9.99
4/28/2023 7:45:00 AM 11.69 53.042 0.467 8 7.07 10.04
4/28/2023 8:00:00 AM 11.67 53.006 0.467 8 6.85 10.08
4/28/2023 8:15:00 AM 11.66 52.988 0.467 8.01 6.7 10.14
4/28/2023 8:30:00 AM 11.66 52.988 0.467 8.02 6.71 10.22
4/28/2023 8:45:00 AM 11.67 53.006 0.467 8.02 6.5 10.31
4/28/2023 9:00:00 AM 11.66 52.988 0.467 8.03 6.28 10.38
4/28/2023 9:15:00 AM 11.66 52.988 0.467 8.04 6.1 10.43
4/28/2023 9:30:00 AM 11.65 52.97 0.466 8.05 6.01 10.47
4/28/2023 9:45:00 AM 11.64 52.952 0.466 8.05 6.1 10.51
4/28/2023 10:00:00 AM 11.65 52.97 0.466 8.06 6.15 10.56
4/28/2023 10:15:00 AM 11.65 52.97 0.466 8.07 6.2 10.63
4/28/2023 10:30:00 AM 11.67 53.006 0.465 8.09 6.08 10.72
4/28/2023 10:45:00 AM 11.68 53.024 0.465 8.1 6.18 10.79
4/28/2023 11:00:00 AM 11.68 53.024 0.465 8.11 6.61 10.83
4/28/2023 11:15:00 AM 11.68 53.024 0.464 8.11 6.2 10.85
4/28/2023 11:30:00 AM 11.68 53.024 0.463 8.12 6.13 10.87
4/28/2023 11:45:00 AM 11.68 53.024 0.462 8.12 6.15 10.89
4/28/2023 12:00:00 PM 11.68 53.024 0.46 8.13 6.17 10.9
4/28/2023 12:15:00 PM 11.67 53.006 0.459 8.13 6.28 10.91
4/28/2023 12:30:00 PM 11.67 53.006 0.459 8.13 6.27 10.94
4/28/2023 12:45:00 PM 11.68 53.024 0.457 8.14 6.18 10.98
4/28/2023 1:00:00 PM 11.7 53.06 0.456 8.15 6.16 11.03
4/28/2023 1:15:00 PM 11.72 53.096 0.456 8.16 6.25 11.09
4/28/2023 1:30:00 PM 11.72 53.096 0.454 8.16 6.33 11.1
4/28/2023 1:45:00 PM 11.72 53.096 0.453 8.16 6.25 11.11
4/28/2023 2:00:00 PM 11.72 53.096 0.451 8.17 6.41 11.13
4/28/2023 2:15:00 PM 11.71 53.078 0.449 8.18 6.37 11.15
4/28/2023 2:30:00 PM 11.73 53.114 0.447 8.19 6.84 11.2
4/28/2023 2:45:00 PM 11.73 53.114 0.445 8.19 7.23 11.23
4/28/2023 3:00:00 PM 11.75 53.15 0.444 8.2 7.1 11.27
4/28/2023 3:15:00 PM 11.78 53.204 0.444 8.21 7.47 11.32
4/28/2023 3:30:00 PM 11.85 53.33 0.443 8.23 7.67 11.4
4/28/2023 3:45:00 PM 11.9 53.42 0.443 8.24 7.62 11.42
4/28/2023 4:00:00 PM 11.86 53.348 0.442 8.24 9.1 11.33
4/28/2023 4:15:00 PM 11.85 53.33 0.442 8.24 7.73 11.26
4/28/2023 4:30:00 PM 11.85 53.33 0.442 8.24 7.87 11.22
4/28/2023 4:45:00 PM 11.85 53.33 0.441 8.24 7.51 11.19
4/28/2023 5:00:00 PM 11.83 53.294 0.442 8.24 7.58 11.12
4/28/2023 5:15:00 PM 11.8 53.24 0.442 8.24 7.58 11.05
4/28/2023 5:30:00 PM 11.77 53.186 0.442 8.23 7.69 10.98
4/28/2023 5:45:00 PM 11.75 53.15 0.442 8.22 8.04 10.92
4/28/2023 6:00:00 PM 11.71 53.078 0.442 8.21 8.06 10.84
4/28/2023 6:15:00 PM 11.68 53.024 0.442 8.2 8.1 10.77
4/28/2023 6:30:00 PM 11.64 52.952 0.441 8.19 8.03 10.69
4/28/2023 6:45:00 PM 11.6 52.88 0.44 8.18 8.14 10.64
4/28/2023 7:00:00 PM 11.55 52.79 0.437 8.16 8.39 10.57
4/28/2023 7:15:00 PM 11.52 52.736 0.434 8.15 9.02 10.51
4/28/2023 7:30:00 PM 11.49 52.682 0.431 8.13 10.04 10.45
4/28/2023 7:45:00 PM 11.45 52.61 0.428 8.11 10.81 10.39
4/28/2023 8:00:00 PM 11.41 52.538 0.424 8.09 11.32 10.35
4/28/2023 8:15:00 PM 11.37 52.466 0.419 8.08 12.69 10.3
4/28/2023 8:30:00 PM 11.35 52.43 0.416 8.05 14.03 10.24
4/28/2023 8:45:00 PM 11.31 52.358 0.411 8.03 14.64 10.19
4/28/2023 9:00:00 PM 11.28 52.304 0.406 8 14.5 10.15
4/28/2023 9:15:00 PM 11.24 52.232 0.4 7.98 15.31 10.09
4/28/2023 9:30:00 PM 11.2 52.16 0.396 7.95 15.96 10.04
4/28/2023 9:45:00 PM 11.16 52.088 0.39 7.93 16.46 9.98
4/28/2023 10:00:00 PM 11.12 52.016 0.385 7.91 16.17 9.93
4/28/2023 10:15:00 PM 11.07 51.926 0.378 7.88 16.78 9.9
4/28/2023 10:30:00 PM 11.03 51.854 0.374 7.86 17.41 9.87
4/28/2023 10:45:00 PM 10.98 51.764 0.371 7.85 17.72 9.86
4/28/2023 11:00:00 PM 10.95 51.71 0.37 7.84 17.11 9.88
4/28/2023 11:15:00 PM 10.91 51.638 0.369 7.83 16.88 9.89
4/28/2023 11:30:00 PM 10.87 51.566 0.37 7.83 16.45 9.89
4/28/2023 11:45:00 PM 10.83 51.494 0.37 7.82 16.52 9.91
4/29/2023 12:00:00 AM 10.79 51.422 0.37 7.81 16.98 9.89
4/29/2023 12:15:00 AM 10.76 51.368 0.371 7.8 17.25 9.88
4/29/2023 12:30:00 AM 10.73 51.314 0.371 7.8 17.78 9.84
4/29/2023 12:45:00 AM 10.7 51.26 0.371 7.78 18.51 9.81
4/29/2023 1:00:00 AM 10.67 51.206 0.37 7.77 19.44 9.76
4/29/2023 1:15:00 AM 10.65 51.17 0.369 7.76 19.63 9.7
4/29/2023 1:30:00 AM 10.62 51.116 0.368 7.75 20.46 9.63
4/29/2023 1:45:00 AM 10.6 51.08 0.367 7.74 21.26 9.58
4/29/2023 2:00:00 AM 10.58 51.044 0.367 7.73 20.38 9.55
4/29/2023 2:15:00 AM 10.56 51.008 0.369 7.73 19.62 9.52
4/29/2023 2:30:00 AM 10.55 50.99 0.372 7.73 22.36 9.51
4/29/2023 2:45:00 AM 10.53 50.954 0.375 7.74 18.7 9.51
4/29/2023 3:00:00 AM 10.52 50.936 0.379 7.74 18.08 9.54
4/29/2023 3:15:00 AM 10.51 50.918 0.382 7.75 17.02 9.56
4/29/2023 3:30:00 AM 10.5 50.9 0.384 7.76 16.06 9.59
4/29/2023 3:45:00 AM 10.49 50.882 0.385 7.76 15.26 9.63
4/29/2023 4:00:00 AM 10.48 50.864 0.383 7.76 15 9.66
4/29/2023 4:15:00 AM 10.48 50.864 0.381 7.77 14.68 9.68
4/29/2023 4:30:00 AM 10.47 50.846 0.377 7.76 13.85 9.71
4/29/2023 4:45:00 AM 10.46 50.828 0.372 7.76 13.71 9.73
4/29/2023 5:00:00 AM 10.45 50.81 0.366 7.76 13.3 9.75
4/29/2023 5:15:00 AM 10.44 50.792 0.361 7.76 13.29 9.77
4/29/2023 5:30:00 AM 10.43 50.774 0.355 7.75 13.2 9.78
4/29/2023 5:45:00 AM 10.42 50.756 0.35 7.75 13.74 9.78
4/29/2023 6:00:00 AM 10.41 50.738 0.346 7.75 12.7 9.78
4/29/2023 6:15:00 AM 10.4 50.72 0.342 7.74 12.36 9.77
4/29/2023 6:30:00 AM 10.39 50.702 0.339 7.74 12.14 9.76
4/29/2023 6:45:00 AM 10.38 50.684 0.337 7.74 11.85 9.77
4/29/2023 7:00:00 AM 10.38 50.684 0.335 7.74 11.38 9.78
4/29/2023 7:15:00 AM 10.38 50.684 0.334 7.74 10.79 9.81
4/29/2023 7:30:00 AM 10.39 50.702 0.333 7.74 10.74 9.84
4/29/2023 7:45:00 AM 10.4 50.72 0.333 7.74 10.27 9.87
4/29/2023 8:00:00 AM 10.42 50.756 0.334 7.74 11.08 9.93
4/29/2023 8:15:00 AM 10.45 50.81 0.334 7.75 9.7 9.99
4/29/2023 8:30:00 AM 10.48 50.864 0.335 7.76 9.27 10.06
4/29/2023 8:45:00 AM 10.52 50.936 0.337 7.77 9.27 10.13
4/29/2023 9:00:00 AM 10.55 50.99 0.339 7.78 8.61 10.19
4/29/2023 9:15:00 AM 10.59 51.062 0.34 7.79 8.48 10.26
4/29/2023 9:30:00 AM 10.63 51.134 0.342 7.8 8.11 10.33
4/29/2023 9:45:00 AM 10.68 51.224 0.344 7.81 7.96 10.42
4/29/2023 10:00:00 AM 10.73 51.314 0.346 7.83 7.87 10.49
4/29/2023 10:15:00 AM 10.79 51.422 0.348 7.84 7.87 10.57
4/29/2023 10:30:00 AM 10.86 51.548 0.35 7.86 7.63 10.67
4/29/2023 10:45:00 AM 10.93 51.674 0.352 7.87 7.54 10.76
4/29/2023 11:00:00 AM 10.99 51.782 0.354 7.89 7.75 10.82
4/29/2023 11:15:00 AM 11.05 51.89 0.356 7.9 7.41 10.87
4/29/2023 11:30:00 AM 11.13 52.034 0.357 7.92 7.49 10.94
4/29/2023 11:45:00 AM 11.22 52.196 0.359 7.93 7.49 11.02
4/29/2023 12:00:00 PM 11.31 52.358 0.36 7.95 7.24 11.09
4/29/2023 12:15:00 PM 11.4 52.52 0.361 7.97 7.33 11.14
4/29/2023 12:30:00 PM 11.47 52.646 0.363 7.98 6.94 11.16
4/29/2023 12:45:00 PM 11.54 52.772 0.365 7.99 6.87 11.18
4/29/2023 1:00:00 PM 11.65 52.97 0.367 8.01 6.93 11.23
4/29/2023 1:15:00 PM 11.8 53.24 0.368 8.03 7.1 11.29
4/29/2023 1:30:00 PM 11.92 53.456 0.37 8.05 6.83 11.32
4/29/2023 1:45:00 PM 12.01 53.618 0.372 8.06 6.77 11.33
4/29/2023 2:00:00 PM 12.1 53.78 0.374 8.08 6.73 11.34
4/29/2023 2:15:00 PM 12.25 54.05 0.375 8.09 6.63 11.39
4/29/2023 2:30:00 PM 12.35 54.23 0.376 8.11 6.45 11.42
4/29/2023 2:45:00 PM 12.44 54.392 0.377 8.13 6.43 11.43
4/29/2023 3:00:00 PM 12.49 54.482 0.379 8.14 6.51 11.37
4/29/2023 3:15:00 PM 12.55 54.59 0.38 8.14 7 11.31
4/29/2023 3:30:00 PM 12.66 54.788 0.381 8.16 7.07 11.33
4/29/2023 3:45:00 PM 12.73 54.914 0.383 8.16 7.05 11.29
4/29/2023 4:00:00 PM 12.79 55.022 0.384 8.17 6.53 11.22
4/29/2023 4:15:00 PM 12.91 55.238 0.385 8.19 6.91 11.25
4/29/2023 4:30:00 PM 13.07 55.526 0.386 8.21 11.3 11.27
4/29/2023 4:45:00 PM 13.17 55.706 0.387 8.22 7.06 11.23
4/29/2023 5:00:00 PM 13.26 55.868 0.389 8.23 7.16 11.19
4/29/2023 5:15:00 PM 13.33 55.994 0.39 8.22 6.78 11.07
4/29/2023 5:30:00 PM 13.37 56.066 0.391 8.22 6.39 10.92
4/29/2023 5:45:00 PM 13.42 56.156 0.392 8.21 6.5 10.82
4/29/2023 6:00:00 PM 13.47 56.246 0.393 8.2 6.39 10.69
4/29/2023 6:15:00 PM 13.51 56.318 0.394 8.19 6.64 10.6
4/29/2023 6:30:00 PM 13.56 56.408 0.395 8.18 6.47 10.49
4/29/2023 6:45:00 PM 13.59 56.462 0.396 8.17 6.27 10.39
4/29/2023 7:00:00 PM 13.62 56.516 0.396 8.16 6.23 10.28
4/29/2023 7:15:00 PM 13.64 56.552 0.397 8.14 6.23 10.19
4/29/2023 7:30:00 PM 13.65 56.57 0.397 8.13 6.37 10.1
4/29/2023 7:45:00 PM 13.64 56.552 0.398 8.1 6.27 10
4/29/2023 8:00:00 PM 13.63 56.534 0.399 8.09 6.5 9.9
4/29/2023 8:15:00 PM 13.6 56.48 0.4 8.07 6.47 9.82
4/29/2023 8:30:00 PM 13.58 56.444 0.401 8.05 6.81 9.74
4/29/2023 8:45:00 PM 13.56 56.408 0.402 8.03 6.9 9.68
4/29/2023 9:00:00 PM 13.55 56.39 0.403 8.02 6.91 9.62
4/29/2023 9:15:00 PM 13.53 56.354 0.404 8 7.23 9.58
4/29/2023 9:30:00 PM 13.51 56.318 0.406 7.99 7.08 9.53
4/29/2023 9:45:00 PM 13.49 56.282 0.407 7.98 7.05 9.51
4/29/2023 10:00:00 PM 13.47 56.246 0.408 7.97 6.85 9.47
4/29/2023 10:15:00 PM 13.44 56.192 0.409 7.97 6.74 9.45
4/29/2023 10:30:00 PM 13.4 56.12 0.41 7.96 6.68 9.44
4/29/2023 10:45:00 PM 13.35 56.03 0.411 7.95 6.6 9.42
4/29/2023 11:00:00 PM 13.3 55.94 0.412 7.94 6.42 9.4
4/29/2023 11:15:00 PM 13.24 55.832 0.414 7.94 6.58 9.41
4/29/2023 11:30:00 PM 13.18 55.724 0.415 7.93 6.53 9.4
4/29/2023 11:45:00 PM 13.13 55.634 0.416 7.92 6.47 9.39
4/30/2023 12:00:00 AM 13.07 55.526 0.416 7.92 6.96 9.41
4/30/2023 12:15:00 AM 13.02 55.436 0.416 7.91 6.87 9.41
4/30/2023 12:30:00 AM 12.96 55.328 0.414 7.91 6.63 9.4
4/30/2023 12:45:00 AM 12.91 55.238 0.411 7.9 6.33 9.4
4/30/2023 1:00:00 AM 12.85 55.13 0.409 7.89 6.38 9.41
4/30/2023 1:15:00 AM 12.8 55.04 0.409 7.89 6.32 9.41
4/30/2023 1:30:00 AM 12.75 54.95 0.41 7.88 6.43 9.42
4/30/2023 1:45:00 AM 12.7 54.86 0.412 7.88 6.4 9.43
4/30/2023 2:00:00 AM 12.66 54.788 0.414 7.88 6.41 9.44
4/30/2023 2:15:00 AM 12.61 54.698 0.416 7.88 6.55 9.45
4/30/2023 2:30:00 AM 12.57 54.626 0.417 7.88 6.48 9.46
4/30/2023 2:45:00 AM 12.53 54.554 0.418 7.88 6.35 9.47
4/30/2023 3:00:00 AM 12.49 54.482 0.419 7.88 6.39 9.48
4/30/2023 3:15:00 AM 12.46 54.428 0.42 7.88 6.17 9.49
4/30/2023 3:30:00 AM 12.42 54.356 0.42 7.88 6.25 9.5
4/30/2023 3:45:00 AM 12.39 54.302 0.421 7.88 6.16 9.51
4/30/2023 4:00:00 AM 12.35 54.23 0.421 7.88 6.13 9.52
4/30/2023 4:15:00 AM 12.32 54.176 0.421 7.88 6.14 9.53
4/30/2023 4:30:00 AM 12.28 54.104 0.421 7.88 6.31 9.53
4/30/2023 4:45:00 AM 12.25 54.05 0.421 7.88 6.32 9.54
4/30/2023 5:00:00 AM 12.22 53.996 0.421 7.88 6.14 9.55
4/30/2023 5:15:00 AM 12.19 53.942 0.421 7.88 6.34 9.56
4/30/2023 5:30:00 AM 12.16 53.888 0.421 7.88 6.39 9.57
4/30/2023 5:45:00 AM 12.14 53.852 0.422 7.88 6.26 9.57
4/30/2023 6:00:00 AM 12.11 53.798 0.422 7.87 6.31 9.59
4/30/2023 6:15:00 AM 12.09 53.762 0.422 7.87 6.43 9.59
4/30/2023 6:30:00 AM 12.06 53.708 0.422 7.88 6.14 9.61
4/30/2023 6:45:00 AM 12.04 53.672 0.422 7.88 5.94 9.62
4/30/2023 7:00:00 AM 12.03 53.654 0.423 7.88 6.12 9.65
4/30/2023 7:15:00 AM 12.02 53.636 0.423 7.88 6.39 9.68
4/30/2023 7:30:00 AM 12.01 53.618 0.423 7.89 6.23 9.73
4/30/2023 7:45:00 AM 12 53.6 0.424 7.89 5.99 9.78
4/30/2023 8:00:00 AM 12 53.6 0.424 7.9 6.02 9.83
4/30/2023 8:15:00 AM 12 53.6 0.424 7.91 5.69 9.89
4/30/2023 8:30:00 AM 12 53.6 0.424 7.91 5.54 9.91
4/30/2023 8:45:00 AM 11.99 53.582 0.424 7.92 5.51 9.94
4/30/2023 9:00:00 AM 11.98 53.564 0.424 7.92 5.43 9.95
4/30/2023 9:15:00 AM 11.97 53.546 0.424 7.92 5.28 9.97
4/30/2023 9:30:00 AM 11.96 53.528 0.423 7.92 5.25 9.96
4/30/2023 9:45:00 AM 11.93 53.474 0.414 7.93 5.76 10
4/30/2023 10:00:00 AM 11.91 53.438 0.406 7.92 10.05 10.02
4/30/2023 10:15:00 AM 11.91 53.438 0.402 7.91 9.95 10.05
4/30/2023 10:30:00 AM 11.9 53.42 0.398 7.91 13.33 10.04
4/30/2023 10:45:00 AM 11.9 53.42 0.397 7.9 11.5 10.07
4/30/2023 11:00:00 AM 11.9 53.42 0.394 7.89 13.2 10.1
4/30/2023 11:15:00 AM 11.91 53.438 0.391 7.89 17.13 10.11
4/30/2023 11:30:00 AM 11.91 53.438 0.386 7.88 15.25 10.14
4/30/2023 11:45:00 AM 11.91 53.438 0.381 7.87 13.38 10.15
4/30/2023 12:00:00 PM 11.91 53.438 0.377 7.86 13.62 10.14
4/30/2023 12:15:00 PM 11.92 53.456 0.374 7.85 16.11 10.09
4/30/2023 12:30:00 PM 11.93 53.474 0.37 7.83 17.34 10.09
4/30/2023 12:45:00 PM 11.96 53.528 0.368 7.83 18.37 10.08
4/30/2023 1:00:00 PM 11.97 53.546 0.37 7.82 18.7 10.07
4/30/2023 1:15:00 PM 11.99 53.582 0.372 7.82 18.79 10.06
4/30/2023 1:30:00 PM 12.02 53.636 0.372 7.82 19.68 10.06
4/30/2023 1:45:00 PM 12.05 53.69 0.368 7.82 20.28 10.04
4/30/2023 2:00:00 PM 12.06 53.708 0.363 7.8 22.12 9.98
4/30/2023 2:15:00 PM 12.1 53.78 0.359 7.79 24.36 9.94
4/30/2023 2:30:00 PM 12.14 53.852 0.356 7.78 25.56 9.9
4/30/2023 2:45:00 PM 12.18 53.924 0.353 7.78 27.61 9.88
4/30/2023 3:00:00 PM 12.22 53.996 0.347 7.78 29.69 9.82
4/30/2023 3:15:00 PM 12.24 54.032 0.342 7.76 31.92 9.66
4/30/2023 3:30:00 PM 12.28 54.104 0.339 7.75 34.24 9.5
4/30/2023 3:45:00 PM 12.31 54.158 0.338 7.74 35.68 9.43
4/30/2023 4:00:00 PM 12.34 54.212 0.337 7.73 38.52 9.43
4/30/2023 4:15:00 PM 12.38 54.284 0.339 7.74 37.88 9.46
4/30/2023 4:30:00 PM 12.41 54.338 0.342 7.74 38.28 9.46
4/30/2023 4:45:00 PM 12.43 54.374 0.344 7.74 38.29 9.46
4/30/2023 5:00:00 PM 12.45 54.41 0.347 7.74 37.32 9.47
4/30/2023 5:15:00 PM 12.47 54.446 0.346 7.74 35.44 9.48
4/30/2023 5:30:00 PM 12.49 54.482 0.34 7.73 33.91 9.49
4/30/2023 5:45:00 PM 12.5 54.5 0.332 7.72 31.84 9.49
4/30/2023 6:00:00 PM 12.5 54.5 0.322 7.71 29.74 9.49
4/30/2023 6:15:00 PM 12.51 54.518 0.313 7.69 28.55 9.47
4/30/2023 6:30:00 PM 12.5 54.5 0.305 7.68 27.53 9.45
4/30/2023 6:45:00 PM 12.5 54.5 0.298 7.67 26.69 9.42
4/30/2023 7:00:00 PM 12.49 54.482 0.291 7.65 25.58 9.38
4/30/2023 7:15:00 PM 12.49 54.482 0.285 7.64 24.77 9.34
4/30/2023 7:30:00 PM 12.49 54.482 0.279 7.63 24.54 9.33
4/30/2023 7:45:00 PM 12.48 54.464 0.274 7.62 23.56 9.31
4/30/2023 8:00:00 PM 12.48 54.464 0.271 7.6 23.58 9.29
4/30/2023 8:15:00 PM 12.47 54.446 0.27 7.59 22.69 9.27
4/30/2023 8:30:00 PM 12.46 54.428 0.269 7.58 24.04 9.26
4/30/2023 8:45:00 PM 12.45 54.41 0.269 7.58 23.69 9.24
4/30/2023 9:00:00 PM 12.44 54.392 0.269 7.57 23.8 9.23
4/30/2023 9:15:00 PM 12.43 54.374 0.27 7.56 23.2 9.21
4/30/2023 9:30:00 PM 12.41 54.338 0.271 7.56 23.35 9.19
4/30/2023 9:45:00 PM 12.4 54.32 0.273 7.55 24.09 9.17
4/30/2023 10:00:00 PM 12.37 54.266 0.275 7.55 23.63 9.15
4/30/2023 10:15:00 PM 12.34 54.212 0.278 7.55 23.61 9.13
4/30/2023 10:30:00 PM 12.3 54.14 0.281 7.55 24.22 9.1
4/30/2023 10:45:00 PM 12.26 54.068 0.284 7.55 24.77 9.09
4/30/2023 11:00:00 PM 12.23 54.014 0.286 7.56 24.05 9.06
4/30/2023 11:15:00 PM 12.19 53.942 0.288 7.56 24.51 9.04
4/30/2023 11:30:00 PM 12.15 53.87 0.29 7.56 26.01 9.03
4/30/2023 11:45:00 PM 12.12 53.816 0.291 7.56 26.52 9.02
5/1/2023 12:00:00 AM 12.08 53.744 0.293 7.56 27.22 8.99
5/1/2023 12:15:00 AM 12.05 53.69 0.295 7.56 28.63 8.97
5/1/2023 12:30:00 AM 12.02 53.636 0.297 7.57 30.7 8.95
5/1/2023 12:45:00 AM 11.97 53.546 0.3 7.56 31.65 8.97
5/1/2023 1:00:00 AM 11.92 53.456 0.304 7.57 32.38 9.01
5/1/2023 1:15:00 AM 11.88 53.384 0.309 7.59 30.87 9.05
5/1/2023 1:30:00 AM 11.82 53.276 0.312 7.6 29.78 9.11
5/1/2023 1:45:00 AM 11.76 53.168 0.314 7.6 28.99 9.16
5/1/2023 2:00:00 AM 11.71 53.078 0.313 7.6 28.21 9.19
5/1/2023 2:15:00 AM 11.64 52.952 0.31 7.59 26.85 9.22
5/1/2023 2:30:00 AM 11.56 52.808 0.307 7.59 25.28 9.25
5/1/2023 2:45:00 AM 11.5 52.7 0.303 7.59 24.11 9.28
5/1/2023 3:00:00 AM 11.43 52.574 0.3 7.58 24.3 9.31
5/1/2023 3:15:00 AM 11.36 52.448 0.296 7.57 22.4 9.34
5/1/2023 3:30:00 AM 11.3 52.34 0.292 7.57 22.49 9.36
5/1/2023 3:45:00 AM 11.25 52.25 0.288 7.56 21.05 9.38
5/1/2023 4:00:00 AM 11.2 52.16 0.286 7.55 19.91 9.4
5/1/2023 4:15:00 AM 11.15 52.07 0.284 7.55 20.21 9.42
5/1/2023 4:30:00 AM 11.1 51.98 0.283 7.54 20.06 9.43
5/1/2023 4:45:00 AM 11.05 51.89 0.282 7.56 19.25 9.46
5/1/2023 5:00:00 AM 11.01 51.818 0.282 7.54 19.12 9.48
5/1/2023 5:15:00 AM 10.96 51.728 0.283 7.54 19.09 9.5
5/1/2023 5:30:00 AM 10.92 51.656 0.283 7.54 17.56 9.53
5/1/2023 5:45:00 AM 10.87 51.566 0.284 7.54 17.73 9.55
5/1/2023 6:00:00 AM 10.81 51.458 0.286 7.56 17.79 9.58
5/1/2023 6:15:00 AM 10.74 51.332 0.287 7.55 16.19 9.61
5/1/2023 6:30:00 AM 10.69 51.242 0.289 7.54 16.46 9.65
5/1/2023 6:45:00 AM 10.65 51.17 0.29 7.56 16.03 9.7
5/1/2023 7:00:00 AM 10.6 51.08 0.292 7.55 14.69 9.72
5/1/2023 7:15:00 AM 10.56 51.008 0.294 7.56 14.97 9.75
5/1/2023 7:30:00 AM 10.53 50.954 0.295 7.57 14.92 9.8
5/1/2023 7:45:00 AM 10.52 50.936 0.297 7.58 14.43 9.85
5/1/2023 8:00:00 AM 10.51 50.918 0.299 7.59 13.32 9.9
5/1/2023 8:15:00 AM 10.5 50.9 0.3 7.58 12.96 9.97
5/1/2023 8:30:00 AM 10.5 50.9 0.302 7.6 12.66 10.04
5/1/2023 8:45:00 AM 10.52 50.936 0.304 7.61 12.4 10.11
5/1/2023 9:00:00 AM 10.6 51.08 0.306 7.61 12.05 10.21
5/1/2023 9:15:00 AM 10.65 51.17 0.308 7.64 11.93 10.31
5/1/2023 9:30:00 AM 10.67 51.206 0.309 7.65 11.45 10.37
5/1/2023 9:45:00 AM 10.7 51.26 0.311 7.67 11.2 10.44
5/1/2023 10:00:00 AM 10.7 51.26 0.312 7.67 11.05 10.47
5/1/2023 10:15:00 AM 10.79 51.422 0.313 7.68 10.77 10.58
5/1/2023 10:30:00 AM 10.88 51.584 0.315 7.7 10 10.68
5/1/2023 10:45:00 AM 11.03 51.854 0.316 7.71 9.69 10.74
5/1/2023 11:00:00 AM 11.08 51.944 0.317 7.73 9.4 10.77
5/1/2023 11:15:00 AM 11.24 52.232 0.318 7.74 9.38 10.84
5/1/2023 11:30:00 AM 11.41 52.538 0.319 7.76 9.1 10.9
5/1/2023 11:45:00 AM 11.5 52.7 0.32 7.78 9.64 10.93
5/1/2023 12:00:00 PM 11.59 52.862 0.321 7.8 9.13 10.96
5/1/2023 12:15:00 PM 11.74 53.132 0.321 7.8 9.34 11.01
5/1/2023 12:30:00 PM 11.89 53.402 0.322 7.82 9.41 11.07
5/1/2023 12:45:00 PM 12.34 54.212 0.323 7.83 13.93 11.12
5/1/2023 1:00:00 PM 12.71 54.878 0.323 7.85 8.86 11.14
5/1/2023 1:15:00 PM 13.02 55.436 0.324 7.87 9.25 11.15
5/1/2023 1:30:00 PM 13.26 55.868 0.324 7.88 9.78 11.13
5/1/2023 1:45:00 PM 13.38 56.084 0.325 7.9 9.02 11.12
5/1/2023 2:00:00 PM 13.35 56.03 0.326 7.9 8.88 11.02
5/1/2023 2:15:00 PM 13.56 56.408 0.327 7.91 8.79 11.02
5/1/2023 2:30:00 PM 13.84 56.912 0.328 7.92 8.61 11.04
5/1/2023 2:45:00 PM 13.93 57.074 0.328 7.94 8.48 11.01
5/1/2023 3:00:00 PM 13.92 57.056 0.328 7.94 8.64 10.95
5/1/2023 3:15:00 PM 13.99 57.182 0.329 7.94 8.5 10.92
5/1/2023 3:30:00 PM 13.95 57.11 0.329 7.93 8.58 10.79
5/1/2023 3:45:00 PM 13.97 57.146 0.33 7.95 8.68 10.77
5/1/2023 4:00:00 PM 13.89 57.002 0.33 7.93 8.4 10.67
5/1/2023 4:15:00 PM 13.94 57.092 0.33 7.94 8.55 10.66
5/1/2023 4:30:00 PM 13.91 57.038 0.331 7.93 8.43 10.59
5/1/2023 4:45:00 PM 13.91 57.038 0.331 7.92 8.35 10.56
5/1/2023 5:00:00 PM 13.88 56.984 0.331 7.91 8.15 10.46
5/1/2023 5:15:00 PM 13.86 56.948 0.331 7.9 8.53 10.37
5/1/2023 5:30:00 PM 13.78 56.804 0.33 7.89 9.41 10.24
5/1/2023 5:45:00 PM 13.78 56.804 0.33 7.89 8.56 10.26
5/1/2023 6:00:00 PM 13.71 56.678 0.33 7.87 8.57 10.23
5/1/2023 6:15:00 PM 13.64 56.552 0.33 7.87 8.88 10.21
5/1/2023 6:30:00 PM 13.55 56.39 0.331 7.86 8.37 10.17
5/1/2023 6:45:00 PM 13.47 56.246 0.331 7.85 7.91 10.13
5/1/2023 7:00:00 PM 13.36 56.048 0.331 7.84 8.36 10.05
5/1/2023 7:15:00 PM 13.27 55.886 0.332 7.82 8.23 10.02
5/1/2023 7:30:00 PM 13.18 55.724 0.332 7.82 8.09 9.97
5/1/2023 7:45:00 PM 13.09 55.562 0.333 7.8 7.87 9.9
5/1/2023 8:00:00 PM 12.99 55.382 0.333 7.79 7.93 9.83
5/1/2023 8:15:00 PM 12.89 55.202 0.333 7.78 8.14 9.79
5/1/2023 8:30:00 PM 12.79 55.022 0.334 7.76 8.81 9.76
5/1/2023 8:45:00 PM 12.71 54.878 0.334 7.76 9.13 9.73
5/1/2023 9:00:00 PM 12.63 54.734 0.334 7.75 8.96 9.71
5/1/2023 9:15:00 PM 12.56 54.608 0.334 7.74 8.9 9.68
5/1/2023 9:30:00 PM 12.49 54.482 0.334 7.73 9.87 9.67
5/1/2023 9:45:00 PM 12.4 54.32 0.334 7.73 9 9.66
5/1/2023 10:00:00 PM 12.32 54.176 0.334 7.72 8.7 9.67
5/1/2023 10:15:00 PM 12.23 54.014 0.334 7.72 8.71 9.67
5/1/2023 10:30:00 PM 12.15 53.87 0.334 7.71 8.93 9.68
5/1/2023 10:45:00 PM 12.07 53.726 0.335 7.72 8.85 9.68
5/1/2023 11:00:00 PM 11.99 53.582 0.335 7.7 8.85 9.68
5/1/2023 11:15:00 PM 11.9 53.42 0.335 7.7 8.71 9.69
5/1/2023 11:30:00 PM 11.81 53.258 0.336 7.7 8.64 9.7
5/1/2023 11:45:00 PM 11.71 53.078 0.336 7.7 8.31 9.71
5/2/2023 12:00:00 AM 11.62 52.916 0.337 7.7 8.17 9.71
5/2/2023 12:15:00 AM 11.53 52.754 0.337 7.69 8.25 9.71
5/2/2023 12:30:00 AM 11.45 52.61 0.338 7.69 8.67 9.71
5/2/2023 12:45:00 AM 11.37 52.466 0.338 7.69 8.06 9.72
5/2/2023 1:00:00 AM 11.28 52.304 0.338 7.68 8.21 9.73
5/2/2023 1:15:00 AM 11.2 52.16 0.339 7.68 8.21 9.74
5/2/2023 1:30:00 AM 11.11 51.998 0.339 7.67 7.92 9.77
5/2/2023 1:45:00 AM 11.02 51.836 0.339 7.68 7.75 9.79
5/2/2023 2:00:00 AM 10.94 51.692 0.339 7.67 7.78 9.81
5/2/2023 2:15:00 AM 10.86 51.548 0.339 7.67 7.75 9.82
5/2/2023 2:30:00 AM 10.79 51.422 0.339 7.67 7.66 9.85
5/2/2023 2:45:00 AM 10.73 51.314 0.339 7.66 7.95 9.86
5/2/2023 3:00:00 AM 10.68 51.224 0.339 7.66 7.93 9.87
5/2/2023 3:15:00 AM 10.62 51.116 0.339 7.65 7.95 9.87
5/2/2023 3:30:00 AM 10.57 51.026 0.34 7.66 7.86 9.89
5/2/2023 3:45:00 AM 10.52 50.936 0.34 7.66 7.66 9.9
5/2/2023 4:00:00 AM 10.49 50.882 0.34 7.66 7.98 9.93
5/2/2023 4:15:00 AM 10.44 50.792 0.34 7.65 7.87 9.94
5/2/2023 4:30:00 AM 10.39 50.702 0.34 7.66 7.67 9.95
5/2/2023 4:45:00 AM 10.35 50.63 0.34 7.64 7.48 9.97
5/2/2023 5:00:00 AM 10.31 50.558 0.34 7.65 7.72 9.99
5/2/2023 5:15:00 AM 10.27 50.486 0.339 7.65 7.6 10
5/2/2023 5:30:00 AM 10.23 50.414 0.34 7.65 7.6 10.02
5/2/2023 5:45:00 AM 10.19 50.342 0.339 7.65 7.82 10.03
5/2/2023 6:00:00 AM 10.15 50.27 0.339 7.65 7.99 10.04
5/2/2023 6:15:00 AM 10.12 50.216 0.339 7.65 7.6 10.06
5/2/2023 6:30:00 AM 10.09 50.162 0.339 7.66 7.43 10.08
5/2/2023 6:45:00 AM 10.06 50.108 0.339 7.67 7.32 10.12
5/2/2023 7:00:00 AM 10.05 50.09 0.339 7.66 7.96 10.16
5/2/2023 7:15:00 AM 10.04 50.072 0.338 7.66 6.98 10.22
5/2/2023 7:30:00 AM 10.04 50.072 0.338 7.67 7.11 10.27
5/2/2023 7:45:00 AM 10.05 50.09 0.338 7.68 6.86 10.37
5/2/2023 8:00:00 AM 10.05 50.09 0.338 7.7 6.93 10.45
5/2/2023 8:15:00 AM 10.07 50.126 0.338 7.7 6.51 10.51
5/2/2023 8:30:00 AM 10.07 50.126 0.338 7.71 6.35 10.58
5/2/2023 8:45:00 AM 10.12 50.216 0.338 7.72 6.4 10.67
5/2/2023 9:00:00 AM 10.19 50.342 0.338 7.74 6.41 10.78
5/2/2023 9:15:00 AM 10.23 50.414 0.338 7.75 6.29 10.84
5/2/2023 9:30:00 AM 10.3 50.54 0.337 7.77 6.16 10.93
5/2/2023 9:45:00 AM 10.38 50.684 0.338 7.78 5.86 11.01
5/2/2023 10:00:00 AM 10.41 50.738 0.338 7.79 5.84 11.06
5/2/2023 10:15:00 AM 10.51 50.918 0.338 7.8 6.21 11.11
5/2/2023 10:30:00 AM 10.56 51.008 0.338 7.81 5.82 11.16
5/2/2023 10:45:00 AM 10.61 51.098 0.338 7.82 5.9 11.19
5/2/2023 11:00:00 AM 10.72 51.296 0.338 7.83 5.71 11.23
5/2/2023 11:15:00 AM 10.8 51.44 0.338 7.84 5.74 11.25
5/2/2023 11:30:00 AM 10.9 51.62 0.338 7.86 5.62 11.3
5/2/2023 11:45:00 AM 11.01 51.818 0.338 7.87 5.78 11.33
5/2/2023 12:00:00 PM 11.09 51.962 0.338 7.88 5.94 11.36
5/2/2023 12:15:00 PM 11.16 52.088 0.338 7.89 5.64 11.37
5/2/2023 12:30:00 PM 11.22 52.196 0.338 7.9 5.67 11.38
5/2/2023 12:45:00 PM 11.33 52.394 0.338 7.91 5.94 11.41
5/2/2023 1:00:00 PM 11.47 52.646 0.338 7.93 5.88 11.45
5/2/2023 1:15:00 PM 11.62 52.916 0.338 7.95 5.85 11.49
5/2/2023 1:30:00 PM 11.76 53.168 0.337 7.95 5.8 11.5
5/2/2023 1:45:00 PM 11.86 53.348 0.337 7.97 5.77 11.48
5/2/2023 2:00:00 PM 11.92 53.456 0.337 7.99 5.98 11.43
5/2/2023 2:15:00 PM 11.99 53.582 0.337 7.99 5.77 11.43
5/2/2023 2:30:00 PM 12.1 53.78 0.337 7.99 5.78 11.43
5/2/2023 2:45:00 PM 12.2 53.96 0.337 8 5.82 11.43
5/2/2023 3:00:00 PM 12.24 54.032 0.338 8.01 5.98 11.4
5/2/2023 3:15:00 PM 12.28 54.104 0.337 8.01 5.8 11.36
5/2/2023 3:30:00 PM 12.29 54.122 0.338 8 5.78 11.3
5/2/2023 3:45:00 PM 12.29 54.122 0.338 8 6.17 11.26
5/2/2023 4:00:00 PM 12.29 54.122 0.338 8.01 5.89 11.22
5/2/2023 4:15:00 PM 12.31 54.158 0.338 8 5.77 11.19
5/2/2023 4:30:00 PM 12.32 54.176 0.338 8 5.69 11.15
5/2/2023 4:45:00 PM 12.36 54.248 0.339 8.01 6.19 11.14
5/2/2023 5:00:00 PM 12.38 54.284 0.339 8 5.97 11.12
5/2/2023 5:15:00 PM 12.37 54.266 0.338 8 5.99 11.04
5/2/2023 5:30:00 PM 12.33 54.194 0.339 7.98 6.45 10.92
5/2/2023 5:45:00 PM 12.32 54.176 0.339 7.97 6.33 10.84
5/2/2023 6:00:00 PM 12.3 54.14 0.339 7.96 6.18 10.78
5/2/2023 6:15:00 PM 12.27 54.086 0.34 7.95 6.16 10.74
5/2/2023 6:30:00 PM 12.22 53.996 0.34 7.94 6.21 10.66
5/2/2023 6:45:00 PM 12.17 53.906 0.34 7.93 6.02 10.59
5/2/2023 7:00:00 PM 12.12 53.816 0.34 7.91 6.2 10.5
5/2/2023 7:15:00 PM 12.06 53.708 0.341 7.9 6.2 10.45
5/2/2023 7:30:00 PM 11.99 53.582 0.341 7.89 6.28 10.4
5/2/2023 7:45:00 PM 11.94 53.492 0.341 7.87 6.26 10.33
5/2/2023 8:00:00 PM 11.88 53.384 0.341 7.86 6.74 10.27
5/2/2023 8:15:00 PM 11.82 53.276 0.342 7.84 6.57 10.21
5/2/2023 8:30:00 PM 11.76 53.168 0.342 7.83 6.68 10.15
5/2/2023 8:45:00 PM 11.69 53.042 0.342 7.82 6.53 10.11
5/2/2023 9:00:00 PM 11.63 52.934 0.342 7.81 6.67 10.09
5/2/2023 9:15:00 PM 11.57 52.826 0.343 7.8 6.59 10.06
5/2/2023 9:30:00 PM 11.51 52.718 0.343 7.79 6.75 10.04
5/2/2023 9:45:00 PM 11.44 52.592 0.343 7.79 6.89 10.03
5/2/2023 10:00:00 PM 11.38 52.484 0.343 7.78 6.73 10.02
5/2/2023 10:15:00 PM 11.32 52.376 0.344 7.77 6.64 10.02
5/2/2023 10:30:00 PM 11.26 52.268 0.344 7.77 6.81 10.01
5/2/2023 10:45:00 PM 11.21 52.178 0.344 7.77 6.84 10.01
5/2/2023 11:00:00 PM 11.14 52.052 0.344 7.77 7.13 10.01
5/2/2023 11:15:00 PM 11.08 51.944 0.345 7.76 6.58 10.02
5/2/2023 11:30:00 PM 11.02 51.836 0.345 7.77 6.78 10.03
5/2/2023 11:45:00 PM 10.96 51.728 0.345 7.76 6.93 10.03
5/3/2023 12:00:00 AM 10.89 51.602 0.346 7.74 7.05 10.04
5/3/2023 12:15:00 AM 10.81 51.458 0.346 7.76 6.48 10.03
5/3/2023 12:30:00 AM 10.74 51.332 0.346 7.74 6.55 10.05
5/3/2023 12:45:00 AM 10.68 51.224 0.346 7.75 6.5 10.05
5/3/2023 1:00:00 AM 10.62 51.116 0.347 7.73 6.52 10.06
5/3/2023 1:15:00 AM 10.56 51.008 0.347 7.73 6.43 10.06
5/3/2023 1:30:00 AM 10.51 50.918 0.347 7.72 6.34 10.07
5/3/2023 1:45:00 AM 10.45 50.81 0.347 7.72 6.31 10.08
5/3/2023 2:00:00 AM 10.41 50.738 0.347 7.72 6.41 10.09
5/3/2023 2:15:00 AM 10.36 50.648 0.347 7.72 6.31 10.1
5/3/2023 2:30:00 AM 10.31 50.558 0.348 7.71 6.28 10.11
5/3/2023 2:45:00 AM 10.26 50.468 0.348 7.71 6.09 10.12
5/3/2023 3:00:00 AM 10.22 50.396 0.348 7.71 6.25 10.13
5/3/2023 3:15:00 AM 10.17 50.306 0.348 7.71 6.21 10.14
5/3/2023 3:30:00 AM 10.13 50.234 0.348 7.71 6.16 10.14
5/3/2023 3:45:00 AM 10.08 50.144 0.348 7.71 6.17 10.16
5/3/2023 4:00:00 AM 10.04 50.072 0.349 7.71 6.05 10.17
5/3/2023 4:15:00 AM 10 50 0.349 7.7 6.05 10.18
5/3/2023 4:30:00 AM 9.96 49.928 0.349 7.71 6.17 10.19
5/3/2023 4:45:00 AM 9.92 49.856 0.349 7.7 6.3 10.2
5/3/2023 5:00:00 AM 9.88 49.784 0.349 7.7 6.09 10.21
5/3/2023 5:15:00 AM 9.84 49.712 0.349 7.7 6.16 10.23
5/3/2023 5:30:00 AM 9.81 49.658 0.349 7.7 6.29 10.24
5/3/2023 5:45:00 AM 9.78 49.604 0.35 7.72 6.52 10.25
5/3/2023 6:00:00 AM 9.74 49.532 0.35 7.71 7 10.26
5/3/2023 6:15:00 AM 9.7 49.46 0.35 7.71 6.24 10.28
5/3/2023 6:30:00 AM 9.68 49.424 0.35 7.71 6.3 10.29
5/3/2023 6:45:00 AM 9.67 49.406 0.35 7.71 5.96 10.32
5/3/2023 7:00:00 AM 9.65 49.37 0.35 7.71 7.44 10.35
5/3/2023 7:15:00 AM 9.64 49.352 0.351 7.71 5.87 10.39
5/3/2023 7:30:00 AM 9.64 49.352 0.351 7.72 5.96 10.42
5/3/2023 7:45:00 AM 9.65 49.37 0.351 7.72 6.05 10.47
5/3/2023 8:00:00 AM 9.67 49.406 0.351 7.73 5.85 10.54
5/3/2023 8:15:00 AM 9.7 49.46 0.351 7.75 5.9 10.63
5/3/2023 8:30:00 AM 9.76 49.568 0.351 7.76 6.2 10.74
5/3/2023 8:45:00 AM 9.83 49.694 0.351 7.79 5.48 10.85
5/3/2023 9:00:00 AM 9.91 49.838 0.351 7.8 5.52 10.97
5/3/2023 9:15:00 AM 9.98 49.964 0.351 7.81 5.42 11.06
5/3/2023 9:30:00 AM 10.05 50.09 0.351 7.81 5.48 11.11
5/3/2023 9:45:00 AM 10.1 50.18 0.351 7.84 4.94 11.16
5/3/2023 10:00:00 AM 10.17 50.306 0.351 7.85 4.87 11.22
5/3/2023 10:15:00 AM 10.2 50.36 0.351 7.87 4.86 11.24
5/3/2023 10:30:00 AM 10.25 50.45 0.351 7.87 4.89 11.28
5/3/2023 10:45:00 AM 10.32 50.576 0.351 7.88 4.84 11.32
5/3/2023 11:00:00 AM 10.42 50.756 0.351 7.89 4.96 11.39
5/3/2023 11:15:00 AM 10.53 50.954 0.35 7.91 4.98 11.43
5/3/2023 11:30:00 AM 10.6 51.08 0.351 7.91 4.95 11.48
5/3/2023 11:45:00 AM 10.68 51.224 0.35 7.93 4.8 11.51
5/3/2023 12:00:00 PM 10.7 51.26 0.351 7.94 4.92 11.49
5/3/2023 12:15:00 PM 10.75 51.35 0.35 7.94 4.82 11.5
5/3/2023 12:30:00 PM 10.82 51.476 0.35 7.95 4.97 11.53
5/3/2023 12:45:00 PM 10.88 51.584 0.35 7.97 5.55 11.58
5/3/2023 1:00:00 PM 10.96 51.728 0.35 7.98 5.17 11.59
5/3/2023 1:15:00 PM 11.09 51.962 0.35 7.99 5.11 11.62
5/3/2023 1:30:00 PM 11.28 52.304 0.35 8.01 4.8 11.64
5/3/2023 1:45:00 PM 11.51 52.718 0.349 8.02 4.72 11.67
5/3/2023 2:00:00 PM 11.75 53.15 0.349 8.05 4.81 11.67
5/3/2023 2:15:00 PM 11.99 53.582 0.349 8.05 4.87 11.67
5/3/2023 2:30:00 PM 12.18 53.924 0.349 8.06 4.96 11.63
5/3/2023 2:45:00 PM 12.37 54.266 0.349 8.07 5 11.6
5/3/2023 3:00:00 PM 12.54 54.572 0.349 8.08 4.99 11.56
5/3/2023 3:15:00 PM 12.47 54.446 0.349 8.09 5.21 11.53
5/3/2023 3:30:00 PM 12.69 54.842 0.349 8.1 5.21 11.52
5/3/2023 3:45:00 PM 12.85 55.13 0.349 8.1 5.12 11.47
5/3/2023 4:00:00 PM 12.93 55.274 0.349 8.11 5.23 11.42
5/3/2023 4:15:00 PM 12.77 54.986 0.349 8.1 5.06 11.23
5/3/2023 4:30:00 PM 12.77 54.986 0.35 8.09 5.12 11.2
5/3/2023 4:45:00 PM 12.84 55.112 0.35 8.09 5.16 11.17
5/3/2023 5:00:00 PM 12.75 54.95 0.35 8.08 5.18 11.11
5/3/2023 5:15:00 PM 12.65 54.77 0.35 8.07 5.21 11.03
5/3/2023 5:30:00 PM 12.6 54.68 0.35 8.06 5.37 10.99
5/3/2023 5:45:00 PM 12.6 54.68 0.35 8.07 5.46 10.95
5/3/2023 6:00:00 PM 12.58 54.644 0.35 8.05 5.67 10.9
5/3/2023 6:15:00 PM 12.58 54.644 0.35 8.05 5.45 10.86
5/3/2023 6:30:00 PM 12.58 54.644 0.35 8.04 5.23 10.76
5/3/2023 6:45:00 PM 12.57 54.626 0.35 8.03 5.24 10.68
5/3/2023 7:00:00 PM 12.56 54.608 0.349 8.01 5.37 10.59
5/3/2023 7:15:00 PM 12.55 54.59 0.349 8 5.39 10.5
5/3/2023 7:30:00 PM 12.54 54.572 0.349 7.98 5.62 10.41
5/3/2023 7:45:00 PM 12.51 54.518 0.349 7.96 5.81 10.32
5/3/2023 8:00:00 PM 12.48 54.464 0.35 7.95 5.88 10.23
5/3/2023 8:15:00 PM 12.43 54.374 0.351 7.93 5.55 10.13
5/3/2023 8:30:00 PM 12.36 54.248 0.351 7.91 5.58 10.07
5/3/2023 8:45:00 PM 12.28 54.104 0.352 7.9 5.49 10.02
5/3/2023 9:00:00 PM 12.19 53.942 0.353 7.88 5.85 9.99
5/3/2023 9:15:00 PM 12.09 53.762 0.353 7.87 5.88 9.96
5/3/2023 9:30:00 PM 11.97 53.546 0.354 7.86 5.97 9.96
5/3/2023 9:45:00 PM 11.86 53.348 0.354 7.85 6.1 9.96
5/3/2023 10:00:00 PM 11.74 53.132 0.355 7.84 6.25 9.96
5/3/2023 10:15:00 PM 11.63 52.934 0.355 7.84 6.54 9.96
5/3/2023 10:30:00 PM 11.52 52.736 0.355 7.83 5.72 9.97
5/3/2023 10:45:00 PM 11.41 52.538 0.356 7.83 5.8 9.99
5/3/2023 11:00:00 PM 11.3 52.34 0.356 7.82 5.59 10
5/3/2023 11:15:00 PM 11.19 52.142 0.356 7.82 5.61 10.03
5/3/2023 11:30:00 PM 11.09 51.962 0.357 7.81 5.61 10.05
5/3/2023 11:45:00 PM 10.98 51.764 0.357 7.81 5.39 10.06
5/4/2023 12:00:00 AM 10.88 51.584 0.358 7.8 5.64 10.08
5/4/2023 12:15:00 AM 10.78 51.404 0.359 7.8 5.96 10.1
5/4/2023 12:30:00 AM 10.67 51.206 0.359 7.8 6.15 10.1
5/4/2023 12:45:00 AM 10.57 51.026 0.36 7.79 6.25 10.13
5/4/2023 1:00:00 AM 10.47 50.846 0.361 7.78 6.12 10.14
5/4/2023 1:15:00 AM 10.38 50.684 0.361 7.78 6.53 10.16
5/4/2023 1:30:00 AM 10.29 50.522 0.361 7.77 6.17 10.18
5/4/2023 1:45:00 AM 10.21 50.378 0.361 7.77 6.48 10.2
5/4/2023 2:00:00 AM 10.13 50.234 0.361 7.77 5.72 10.22
5/4/2023 2:15:00 AM 10.06 50.108 0.361 7.76 6.08 10.23
5/4/2023 2:30:00 AM 9.99 49.982 0.361 7.76 5.76 10.25
5/4/2023 2:45:00 AM 9.92 49.856 0.361 7.75 5.79 10.27
5/4/2023 3:00:00 AM 9.86 49.748 0.361 7.76 5.48 10.29
5/4/2023 3:15:00 AM 9.79 49.622 0.361 7.75 5.58 10.31
5/4/2023 3:30:00 AM 9.73 49.514 0.361 7.75 6.18 10.32
5/4/2023 3:45:00 AM 9.67 49.406 0.362 7.74 5.89 10.34
5/4/2023 4:00:00 AM 9.61 49.298 0.362 7.73 5.53 10.36
5/4/2023 4:15:00 AM 9.55 49.19 0.362 7.73 5.35 10.39
5/4/2023 4:30:00 AM 9.48 49.064 0.362 7.73 5.33 10.41
5/4/2023 4:45:00 AM 9.42 48.956 0.363 7.73 5.11 10.42
5/4/2023 5:00:00 AM 9.36 48.848 0.363 7.73 5.43 10.44
5/4/2023 5:15:00 AM 9.3 48.74 0.363 7.74 5.24 10.47
5/4/2023 5:30:00 AM 9.24 48.632 0.363 7.73 5.36 10.48
5/4/2023 5:45:00 AM 9.19 48.542 0.363 7.73 5.55 10.49
5/4/2023 6:00:00 AM 9.13 48.434 0.363 7.73 5.52 10.52
5/4/2023 6:15:00 AM 9.07 48.326 0.364 7.74 5.63 10.55
5/4/2023 6:30:00 AM 9.02 48.236 0.364 7.73 5.45 10.57
5/4/2023 6:45:00 AM 8.96 48.128 0.364 7.74 5.32 10.62
5/4/2023 7:00:00 AM 8.92 48.056 0.364 7.74 5.1 10.67
5/4/2023 7:15:00 AM 8.88 47.984 0.364 7.75 5.35 10.71
5/4/2023 7:30:00 AM 8.86 47.948 0.365 7.75 5.35 10.78
5/4/2023 7:45:00 AM 8.9 48.02 0.364 7.77 5.26 10.88
5/4/2023 8:00:00 AM 8.97 48.146 0.364 7.78 5.09 11.02
5/4/2023 8:15:00 AM 9.03 48.254 0.364 7.81 5.04 11.11
5/4/2023 8:30:00 AM 9.09 48.362 0.365 7.81 5 11.2
5/4/2023 8:45:00 AM 9.16 48.488 0.364 7.83 5.14 11.27
5/4/2023 9:00:00 AM 9.22 48.596 0.364 7.85 4.65 11.33
5/4/2023 9:15:00 AM 9.36 48.848 0.364 7.86 4.6 11.43
5/4/2023 9:30:00 AM 9.43 48.974 0.365 7.87 4.55 11.47
5/4/2023 9:45:00 AM 9.59 49.262 0.365 7.88 4.46 11.5
5/4/2023 10:00:00 AM 9.74 49.532 0.365 7.9 4.41 11.54
5/4/2023 10:15:00 AM 9.9 49.82 0.365 7.91 4.37 11.59
5/4/2023 10:30:00 AM 10.1 50.18 0.364 7.92 4.71 11.64
5/4/2023 10:45:00 AM 10.29 50.522 0.364 7.93 4.38 11.67
5/4/2023 11:00:00 AM 10.55 50.99 0.364 7.95 4.56 11.72
5/4/2023 11:15:00 AM 10.6 51.08 0.364 7.97 4.38 11.69
5/4/2023 11:30:00 AM 10.9 51.62 0.364 7.97 4.33 11.75
5/4/2023 11:45:00 AM 11.05 51.89 0.364 8 4.39 11.77
5/4/2023 12:00:00 PM 11.16 52.088 0.364 8.01 4.38 11.78
5/4/2023 12:15:00 PM 11.31 52.358 0.364 8.02 4.29 11.81
5/4/2023 12:30:00 PM 11.52 52.736 0.364 8.04 4.65 11.83
5/4/2023 12:45:00 PM 11.67 53.006 0.363 8.06 4.92 11.82
5/4/2023 1:00:00 PM 11.84 53.312 0.363 8.07 5.06 11.78
5/4/2023 1:15:00 PM 12.06 53.708 0.363 8.09 5.26 11.77
5/4/2023 1:30:00 PM 12.21 53.978 0.363 8.1 4.96 11.76
5/4/2023 1:45:00 PM 12.29 54.122 0.363 8.12 4.81 11.74
5/4/2023 2:00:00 PM 12.39 54.302 0.363 8.13 4.64 11.72
5/4/2023 2:15:00 PM 12.72 54.896 0.363 8.14 6.01 11.72
5/4/2023 2:30:00 PM 13.07 55.526 0.363 8.15 4.75 11.7
5/4/2023 2:45:00 PM 13.29 55.922 0.362 8.15 4.76 11.57
5/4/2023 3:00:00 PM 13.53 56.354 0.363 8.16 4.89 11.52
5/4/2023 3:15:00 PM 13.56 56.408 0.363 8.16 4.86 11.4
5/4/2023 3:30:00 PM 13.85 56.93 0.363 8.16 7.03 11.33
5/4/2023 3:45:00 PM 13.89 57.002 0.363 8.16 4.52 11.19
5/4/2023 4:00:00 PM 13.89 57.002 0.363 8.16 4.5 11.12
5/4/2023 4:15:00 PM 14.03 57.254 0.363 8.16 4.56 11.12
5/4/2023 4:30:00 PM 14.14 57.452 0.363 8.17 4.46 11.07
5/4/2023 4:45:00 PM 14.12 57.416 0.363 8.16 4.56 10.96
5/4/2023 5:00:00 PM 14.14 57.452 0.364 8.16 4.59 10.9
5/4/2023 5:15:00 PM 14.15 57.47 0.364 8.14 4.49 10.83
5/4/2023 5:30:00 PM 14.16 57.488 0.364 8.14 4.72 10.78
5/4/2023 5:45:00 PM 14.16 57.488 0.364 8.14 4.84 10.74
5/4/2023 6:00:00 PM 14.15 57.47 0.364 8.13 4.82 10.66
5/4/2023 6:15:00 PM 14.09 57.362 0.365 8.11 4.77 10.53
5/4/2023 6:30:00 PM 14.03 57.254 0.365 8.09 4.7 10.42
5/4/2023 6:45:00 PM 13.94 57.092 0.365 8.07 4.87 10.34
5/4/2023 7:00:00 PM 13.84 56.912 0.366 8.06 4.77 10.25
5/4/2023 7:15:00 PM 13.77 56.786 0.366 8.04 4.82 10.17
5/4/2023 7:30:00 PM 13.74 56.732 0.366 8.01 4.97 10.07
5/4/2023 7:45:00 PM 13.73 56.714 0.367 7.99 5.11 9.95
5/4/2023 8:00:00 PM 13.73 56.714 0.367 7.98 4.84 9.86
5/4/2023 8:15:00 PM 13.72 56.696 0.367 7.95 5.17 9.77
5/4/2023 8:30:00 PM 13.69 56.642 0.368 7.94 5.19 9.7
5/4/2023 8:45:00 PM 13.64 56.552 0.368 7.92 5.37 9.65
5/4/2023 9:00:00 PM 13.58 56.444 0.369 7.9 5.52 9.62
5/4/2023 9:15:00 PM 13.54 56.372 0.369 7.89 5.9 9.59
5/4/2023 9:30:00 PM 13.49 56.282 0.369 7.88 5.87 9.57
5/4/2023 9:45:00 PM 13.45 56.21 0.369 7.87 5.97 9.56
5/4/2023 10:00:00 PM 13.4 56.12 0.37 7.87 5.8 9.56
5/4/2023 10:15:00 PM 13.32 55.976 0.37 7.86 5.96 9.55
5/4/2023 10:30:00 PM 13.23 55.814 0.371 7.85 5.87 9.57
5/4/2023 10:45:00 PM 13.13 55.634 0.371 7.85 5.8 9.58
5/4/2023 11:00:00 PM 13.03 55.454 0.372 7.85 5.76 9.61
5/4/2023 11:15:00 PM 12.92 55.256 0.372 7.84 5.8 9.61
5/4/2023 11:30:00 PM 12.81 55.058 0.372 7.85 5.84 9.64
5/4/2023 11:45:00 PM 12.69 54.842 0.373 7.83 5.74 9.66
5/5/2023 12:00:00 AM 12.56 54.608 0.373 7.83 5.77 9.69
5/5/2023 12:15:00 AM 12.43 54.374 0.374 7.83 5.83 9.72
5/5/2023 12:30:00 AM 12.3 54.14 0.374 7.82 5.65 9.74
5/5/2023 12:45:00 AM 12.17 53.906 0.375 7.82 5.72 9.76
5/5/2023 1:00:00 AM 12.04 53.672 0.375 7.81 5.82 9.79
5/5/2023 1:15:00 AM 11.93 53.474 0.375 7.82 5.55 9.81
5/5/2023 1:30:00 AM 11.81 53.258 0.375 7.8 5.6 9.83
5/5/2023 1:45:00 AM 11.71 53.078 0.375 7.8 5.52 9.86
5/5/2023 2:00:00 AM 11.6 52.88 0.376 7.79 5.58 9.89
5/5/2023 2:15:00 AM 11.5 52.7 0.376 7.79 5.45 9.91
5/5/2023 2:30:00 AM 11.41 52.538 0.376 7.79 5.44 9.94
5/5/2023 2:45:00 AM 11.33 52.394 0.376 7.79 6.35 9.96
5/5/2023 3:00:00 AM 11.25 52.25 0.376 7.8 5.43 9.98
5/5/2023 3:15:00 AM 11.18 52.124 0.376 7.79 5.54 10
5/5/2023 3:30:00 AM 11.12 52.016 0.376 7.79 5.61 10.02
5/5/2023 3:45:00 AM 11.05 51.89 0.377 7.8 5.29 10.04
5/5/2023 4:00:00 AM 10.98 51.764 0.377 7.79 5.29 10.07
5/5/2023 4:15:00 AM 10.92 51.656 0.377 7.8 5.23 10.09
5/5/2023 4:30:00 AM 10.85 51.53 0.377 7.79 5.44 10.11
5/5/2023 4:45:00 AM 10.79 51.422 0.377 7.78 5.39 10.14
5/5/2023 5:00:00 AM 10.72 51.296 0.378 7.78 6.09 10.15
5/5/2023 5:15:00 AM 10.65 51.17 0.378 7.78 5.59 10.17
5/5/2023 5:30:00 AM 10.58 51.044 0.378 7.78 5.32 10.21
5/5/2023 5:45:00 AM 10.51 50.918 0.378 7.78 5.39 10.21
5/5/2023 6:00:00 AM 10.44 50.792 0.378 7.78 5.42 10.24
5/5/2023 6:15:00 AM 10.37 50.666 0.378 7.78 6.18 10.28
5/5/2023 6:30:00 AM 10.31 50.558 0.379 7.78 5.41 10.32
5/5/2023 6:45:00 AM 10.25 50.45 0.379 7.79 5.38 10.36
5/5/2023 7:00:00 AM 10.19 50.342 0.379 7.78 5.27 10.4
5/5/2023 7:15:00 AM 10.14 50.252 0.379 7.78 4.99 10.46
5/5/2023 7:30:00 AM 10.1 50.18 0.379 7.8 5.21 10.51
5/5/2023 7:45:00 AM 10.09 50.162 0.379 7.78 4.89 10.59
5/5/2023 8:00:00 AM 10.11 50.198 0.379 7.8 4.91 10.68
5/5/2023 8:15:00 AM 10.18 50.324 0.379 7.81 5.38 10.81
5/5/2023 8:30:00 AM 10.26 50.468 0.379 7.83 5.11 10.93
5/5/2023 8:45:00 AM 10.34 50.612 0.379 7.85 4.79 11.04
5/5/2023 9:00:00 AM 10.44 50.792 0.379 7.86 4.52 11.15
5/5/2023 9:15:00 AM 10.5 50.9 0.379 7.88 4.69 11.23
5/5/2023 9:30:00 AM 10.58 51.044 0.379 7.89 4.52 11.32
5/5/2023 9:45:00 AM 10.66 51.188 0.379 7.91 4.67 11.4
5/5/2023 10:00:00 AM 10.8 51.44 0.379 7.94 4.62 11.47
5/5/2023 10:15:00 AM 11.02 51.836 0.379 7.94 4.41 11.58
5/5/2023 10:30:00 AM 11.18 52.124 0.379 7.96 4.42 11.66
5/5/2023 10:45:00 AM 11.28 52.304 0.379 7.98 4.45 11.69
5/5/2023 11:00:00 AM 11.4 52.52 0.379 8 4.93 11.76
5/5/2023 11:15:00 AM 11.56 52.808 0.378 8.02 4.63 11.84
5/5/2023 11:30:00 AM 11.81 53.258 0.378 8.04 4.58 11.94
5/5/2023 11:45:00 AM 11.98 53.564 0.378 8.06 4.59 11.97
5/5/2023 12:00:00 PM 12.18 53.924 0.378 8.08 4.47 11.98
5/5/2023 12:15:00 PM 12.33 54.194 0.377 8.1 4.41 11.97
5/5/2023 12:30:00 PM 12.5 54.5 0.377 8.12 4.44 11.97
5/5/2023 12:45:00 PM 12.67 54.806 0.377 8.13 4.43 11.95
5/5/2023 1:00:00 PM 12.86 55.148 0.377 8.15 4.53 11.96
5/5/2023 1:15:00 PM 13.27 55.886 0.377 8.17 4.44 11.96
5/5/2023 1:30:00 PM 13.47 56.246 0.377 8.19 4.54 11.95
5/5/2023 1:45:00 PM 13.56 56.408 0.376 8.21 4.52 11.9
5/5/2023 2:00:00 PM 13.67 56.606 0.376 8.22 4.57 11.85
5/5/2023 2:15:00 PM 13.86 56.948 0.376 8.24 4.46 11.8
5/5/2023 2:30:00 PM 14.03 57.254 0.376 8.26 6.31 11.71
5/5/2023 2:45:00 PM 14.18 57.524 0.376 8.27 4.49 11.66
5/5/2023 3:00:00 PM 14.26 57.668 0.376 8.28 4.55 11.6
5/5/2023 3:15:00 PM 14.35 57.83 0.376 8.28 4.73 11.55
5/5/2023 3:30:00 PM 14.45 58.01 0.376 8.29 4.49 11.52
5/5/2023 3:45:00 PM 14.52 58.136 0.377 8.29 4.44 11.48
5/5/2023 4:00:00 PM 14.57 58.226 0.377 8.3 4.39 11.42
5/5/2023 4:15:00 PM 14.59 58.262 0.377 8.29 4.34 11.36
5/5/2023 4:30:00 PM 14.74 58.532 0.376 8.3 4.52 11.34
5/5/2023 4:45:00 PM 14.84 58.712 0.376 8.3 4.55 11.27
5/5/2023 5:00:00 PM 14.84 58.712 0.376 8.29 4.7 11.16
5/5/2023 5:15:00 PM 14.87 58.766 0.376 8.28 4.46 11.03
5/5/2023 5:30:00 PM 14.9 58.82 0.376 8.26 5.25 10.93
5/5/2023 5:45:00 PM 14.91 58.838 0.377 8.25 5.01 10.82
5/5/2023 6:00:00 PM 14.87 58.766 0.378 8.23 5.29 10.7
5/5/2023 6:15:00 PM 14.82 58.676 0.379 8.22 5.44 10.58
5/5/2023 6:30:00 PM 14.74 58.532 0.38 8.19 5.15 10.45
5/5/2023 6:45:00 PM 14.65 58.37 0.381 8.17 5.71 10.34
5/5/2023 7:00:00 PM 14.54 58.172 0.381 8.14 5.24 10.25
5/5/2023 7:15:00 PM 14.4 57.92 0.382 8.11 4.99 10.15
5/5/2023 7:30:00 PM 14.25 57.65 0.381 8.08 6.73 10.06
5/5/2023 7:45:00 PM 14.11 57.398 0.381 8.05 5.08 9.97
5/5/2023 8:00:00 PM 13.98 57.164 0.381 8.03 6.16 9.89
5/5/2023 8:15:00 PM 13.87 56.966 0.38 8.01 5.59 9.83
5/5/2023 8:30:00 PM 13.76 56.768 0.381 7.99 5.33 9.77
5/5/2023 8:45:00 PM 13.68 56.624 0.381 7.97 5.47 9.74
5/5/2023 9:00:00 PM 13.6 56.48 0.381 7.95 5.48 9.7
5/5/2023 9:15:00 PM 13.51 56.318 0.381 7.94 5.63 9.68
5/5/2023 9:30:00 PM 13.43 56.174 0.382 7.93 5.75 9.66
5/5/2023 9:45:00 PM 13.35 56.03 0.382 7.92 5.92 9.65
5/5/2023 10:00:00 PM 13.27 55.886 0.383 7.91 5.64 9.65
5/5/2023 10:15:00 PM 13.18 55.724 0.383 7.91 5.86 9.65
5/5/2023 10:30:00 PM 13.09 55.562 0.383 7.9 5.5 9.66
5/5/2023 10:45:00 PM 13 55.4 0.384 7.89 5.72 9.64
5/5/2023 11:00:00 PM 12.89 55.202 0.384 7.89 6.14 9.66
5/5/2023 11:15:00 PM 12.79 55.022 0.384 7.88 5.7 9.68
5/5/2023 11:30:00 PM 12.68 54.824 0.385 7.88 5.82 9.69
5/5/2023 11:45:00 PM 12.56 54.608 0.385 7.87 5.91 9.73
5/6/2023 12:00:00 AM 12.44 54.392 0.386 7.87 5.7 9.75
5/6/2023 12:15:00 AM 12.31 54.158 0.386 7.86 5.66 9.79
5/6/2023 12:30:00 AM 12.18 53.924 0.386 7.86 5.7 9.82
5/6/2023 12:45:00 AM 12.05 53.69 0.387 7.85 5.89 9.85
5/6/2023 1:00:00 AM 11.91 53.438 0.387 7.85 5.47 9.88
5/6/2023 1:15:00 AM 11.76 53.168 0.387 7.84 5.36 9.91
5/6/2023 1:30:00 AM 11.63 52.934 0.388 7.84 5.35 9.94
5/6/2023 1:45:00 AM 11.49 52.682 0.388 7.83 5.45 9.98
5/6/2023 2:00:00 AM 11.36 52.448 0.388 7.83 5.41 10.01
5/6/2023 2:15:00 AM 11.24 52.232 0.388 7.82 5.32 10.04
5/6/2023 2:30:00 AM 11.13 52.034 0.388 7.82 5.46 10.07
5/6/2023 2:45:00 AM 11.02 51.836 0.388 7.81 5.82 10.1
5/6/2023 3:00:00 AM 10.91 51.638 0.389 7.81 5.59 10.14
5/6/2023 3:15:00 AM 10.81 51.458 0.389 7.81 5.54 10.16
5/6/2023 3:30:00 AM 10.71 51.278 0.389 7.8 5.33 10.2
5/6/2023 3:45:00 AM 10.61 51.098 0.389 7.8 5.29 10.23
5/6/2023 4:00:00 AM 10.52 50.936 0.389 7.79 5.21 10.25
5/6/2023 4:15:00 AM 10.43 50.774 0.39 7.79 5.11 10.27
5/6/2023 4:30:00 AM 10.34 50.612 0.39 7.79 5.22 10.3
5/6/2023 4:45:00 AM 10.26 50.468 0.39 7.78 5.21 10.33
5/6/2023 5:00:00 AM 10.17 50.306 0.39 7.78 5.04 10.35
5/6/2023 5:15:00 AM 10.09 50.162 0.39 7.78 5.27 10.38
5/6/2023 5:30:00 AM 10.01 50.018 0.39 7.78 6.44 10.41
5/6/2023 5:45:00 AM 9.93 49.874 0.39 7.78 5.19 10.43
5/6/2023 6:00:00 AM 9.86 49.748 0.39 7.78 5.06 10.46
5/6/2023 6:15:00 AM 9.79 49.622 0.39 7.78 5.09 10.49
5/6/2023 6:30:00 AM 9.72 49.496 0.391 7.78 5.18 10.54
5/6/2023 6:45:00 AM 9.66 49.388 0.391 7.78 5.11 10.58
5/6/2023 7:00:00 AM 9.6 49.28 0.391 7.79 4.86 10.65
5/6/2023 7:15:00 AM 9.56 49.208 0.391 7.79 4.65 10.7
5/6/2023 7:30:00 AM 9.53 49.154 0.391 7.8 4.81 10.77
5/6/2023 7:45:00 AM 9.51 49.118 0.391 7.81 4.77 10.84
5/6/2023 8:00:00 AM 9.52 49.136 0.391 7.81 5.15 10.92
5/6/2023 8:15:00 AM 9.56 49.208 0.391 7.83 4.4 11.02
5/6/2023 8:30:00 AM 9.61 49.298 0.391 7.84 4.79 11.09
5/6/2023 8:45:00 AM 9.69 49.442 0.391 7.85 4.58 11.17
5/6/2023 9:00:00 AM 9.8 49.64 0.391 7.87 4.69 11.27
5/6/2023 9:15:00 AM 9.93 49.874 0.391 7.89 4.64 11.35
5/6/2023 9:30:00 AM 10.08 50.144 0.391 7.9 4.51 11.43
5/6/2023 9:45:00 AM 10.24 50.432 0.391 7.92 4.47 11.5
5/6/2023 10:00:00 AM 10.41 50.738 0.39 7.94 4.65 11.58
5/6/2023 10:15:00 AM 10.62 51.116 0.39 7.96 4.27 11.65
5/6/2023 10:30:00 AM 10.84 51.512 0.39 7.98 4.13 11.71
5/6/2023 10:45:00 AM 11.09 51.962 0.39 8 4.4 11.77
5/6/2023 11:00:00 AM 11.35 52.43 0.39 8.02 4.12 11.83
5/6/2023 11:15:00 AM 11.63 52.934 0.39 8.04 4 11.87
5/6/2023 11:30:00 AM 11.93 53.474 0.389 8.05 4.04 11.89
5/6/2023 11:45:00 AM 12.24 54.032 0.389 8.07 4.19 11.93
5/6/2023 12:00:00 PM 12.57 54.626 0.389 8.1 4.07 11.94
5/6/2023 12:15:00 PM 12.91 55.238 0.388 8.13 4.06 11.96
5/6/2023 12:30:00 PM 13.27 55.886 0.389 8.15 4.15 11.95
5/6/2023 12:45:00 PM 13.65 56.57 0.389 8.17 5.92 11.95
5/6/2023 1:00:00 PM 14.03 57.254 0.388 8.19 4.11 11.94
5/6/2023 1:15:00 PM 14.46 58.028 0.388 8.21 4.15 11.91
5/6/2023 1:30:00 PM 14.81 58.658 0.387 8.23 4.07 11.86
5/6/2023 1:45:00 PM 15.21 59.378 0.386 8.25 4.28 11.81
5/6/2023 2:00:00 PM 15.65 60.17 0.386 8.28 4.28 11.78
5/6/2023 2:15:00 PM 15.88 60.584 0.386 8.3 4.21 11.66
5/6/2023 2:30:00 PM 16.16 61.088 0.385 8.31 4.1 11.57
5/6/2023 2:45:00 PM 16.43 61.574 0.385 8.32 4.27 11.48
5/6/2023 3:00:00 PM 16.8 62.24 0.385 8.34 4.21 11.46
5/6/2023 3:15:00 PM 17.09 62.762 0.385 8.36 4.29 11.41
5/6/2023 3:30:00 PM 17.31 63.158 0.384 8.37 4.46 11.33
5/6/2023 3:45:00 PM 17.46 63.428 0.384 8.38 6.3 11.23
5/6/2023 4:00:00 PM 17.53 63.554 0.384 8.38 5.48 11.11
5/6/2023 4:15:00 PM 17.59 63.662 0.384 8.38 5.11 11.01
5/6/2023 4:30:00 PM 17.66 63.788 0.384 8.38 4.95 10.89
5/6/2023 4:45:00 PM 17.66 63.788 0.384 8.37 4.91 10.75
5/6/2023 5:00:00 PM 17.66 63.788 0.384 8.36 4.9 10.62
5/6/2023 5:15:00 PM 17.65 63.77 0.385 8.35 4.85 10.49
5/6/2023 5:30:00 PM 17.61 63.698 0.385 8.33 4.87 10.37
5/6/2023 5:45:00 PM 17.54 63.572 0.385 8.31 4.95 10.23
5/6/2023 6:00:00 PM 17.44 63.392 0.385 8.29 4.98 10.11
5/6/2023 6:15:00 PM 17.35 63.23 0.385 8.27 5 9.99
5/6/2023 6:30:00 PM 17.25 63.05 0.386 8.24 4.89 9.88
5/6/2023 6:45:00 PM 17.17 62.906 0.386 8.21 5.08 9.74
5/6/2023 7:00:00 PM 17.06 62.708 0.386 8.18 5.38 9.59
5/6/2023 7:15:00 PM 16.97 62.546 0.387 8.15 5.5 9.48
5/6/2023 7:30:00 PM 16.86 62.348 0.387 8.11 5.47 9.34
5/6/2023 7:45:00 PM 16.75 62.15 0.387 8.08 5.39 9.24
5/6/2023 8:00:00 PM 16.65 61.97 0.388 8.05 5.25 9.14
5/6/2023 8:15:00 PM 16.55 61.79 0.388 8.02 5.35 9.06
5/6/2023 8:30:00 PM 16.44 61.592 0.388 8 5.59 8.99
5/6/2023 8:45:00 PM 16.34 61.412 0.389 7.98 6 8.95
5/6/2023 9:00:00 PM 16.22 61.196 0.389 7.96 6 8.91
5/6/2023 9:15:00 PM 16.11 60.998 0.389 7.95 6.26 8.89
5/6/2023 9:30:00 PM 15.99 60.782 0.389 7.94 6.54 8.88
5/6/2023 9:45:00 PM 15.86 60.548 0.389 7.93 6.36 8.88
5/6/2023 10:00:00 PM 15.72 60.296 0.39 7.92 6.4 8.89
5/6/2023 10:15:00 PM 15.57 60.026 0.39 7.91 6.42 8.9
5/6/2023 10:30:00 PM 15.42 59.756 0.391 7.9 6.44 8.92
5/6/2023 10:45:00 PM 15.26 59.468 0.391 7.89 6.54 8.95
5/6/2023 11:00:00 PM 15.09 59.162 0.391 7.88 6.65 8.98
5/6/2023 11:15:00 PM 14.92 58.856 0.392 7.88 6.41 9.01
5/6/2023 11:30:00 PM 14.75 58.55 0.392 7.88 6.38 9.05
5/6/2023 11:45:00 PM 14.58 58.244 0.393 7.87 6.39 9.11
5/7/2023 12:00:00 AM 14.4 57.92 0.394 7.87 7.15 9.14
5/7/2023 12:15:00 AM 14.22 57.596 0.394 7.86 6.61 9.19
5/7/2023 12:30:00 AM 14.04 57.272 0.395 7.86 6.93 9.23
5/7/2023 12:45:00 AM 13.85 56.93 0.396 7.85 6.5 9.28
5/7/2023 1:00:00 AM 13.67 56.606 0.396 7.85 6.26 9.33
5/7/2023 1:15:00 AM 13.48 56.264 0.397 7.85 6.3 9.36
5/7/2023 1:30:00 AM 13.31 55.958 0.397 7.84 6.16 9.4
5/7/2023 1:45:00 AM 13.13 55.634 0.397 7.84 6.23 9.45
5/7/2023 2:00:00 AM 12.97 55.346 0.398 7.84 6.37 9.49
5/7/2023 2:15:00 AM 12.82 55.076 0.398 7.83 6.35 9.54
5/7/2023 2:30:00 AM 12.67 54.806 0.398 7.83 6.14 9.58
5/7/2023 2:45:00 AM 12.53 54.554 0.397 7.82 6.23 9.62
5/7/2023 3:00:00 AM 12.4 54.32 0.397 7.82 5.92 9.66
5/7/2023 3:15:00 AM 12.27 54.086 0.397 7.81 5.99 9.69
5/7/2023 3:30:00 AM 12.15 53.87 0.397 7.81 6.02 9.73
5/7/2023 3:45:00 AM 12.03 53.654 0.397 7.81 6.02 9.76
5/7/2023 4:00:00 AM 11.91 53.438 0.397 7.81 5.99 9.79
5/7/2023 4:15:00 AM 11.8 53.24 0.398 7.8 5.95 9.83
5/7/2023 4:30:00 AM 11.69 53.042 0.398 7.8 6.28 9.86
5/7/2023 4:45:00 AM 11.59 52.862 0.398 7.8 6.09 9.89
5/7/2023 5:00:00 AM 11.49 52.682 0.398 7.8 5.91 9.92
5/7/2023 5:15:00 AM 11.4 52.52 0.398 7.8 5.85 9.95
5/7/2023 5:30:00 AM 11.3 52.34 0.398 7.8 6.07 9.98
5/7/2023 5:45:00 AM 11.21 52.178 0.398 7.8 9.43 10.01
5/7/2023 6:00:00 AM 11.13 52.034 0.398 7.79 5.32 10.04
5/7/2023 6:15:00 AM 11.04 51.872 0.399 7.79 5.2 10.08
5/7/2023 6:30:00 AM 10.97 51.746 0.399 7.79 5.24 10.12
5/7/2023 6:45:00 AM 10.9 51.62 0.398 7.79 5.2 10.19
5/7/2023 7:00:00 AM 10.86 51.548 0.398 7.8 5.05 10.28
5/7/2023 7:15:00 AM 10.85 51.53 0.398 7.81 5.08 10.4
5/7/2023 7:30:00 AM 10.85 51.53 0.398 7.82 4.97 10.52
5/7/2023 7:45:00 AM 10.85 51.53 0.398 7.83 4.86 10.59
5/7/2023 8:00:00 AM 10.86 51.548 0.397 7.84 4.63 10.66
5/7/2023 8:15:00 AM 10.91 51.638 0.397 7.85 4.45 10.78
5/7/2023 8:30:00 AM 10.94 51.692 0.397 7.86 4.37 10.85
5/7/2023 8:45:00 AM 10.98 51.764 0.396 7.88 4.28 10.93
5/7/2023 9:00:00 AM 11.08 51.944 0.395 7.89 4.31 11.04
5/7/2023 9:15:00 AM 11.24 52.232 0.395 7.92 4.35 11.18
5/7/2023 9:30:00 AM 11.38 52.484 0.394 7.94 4.26 11.32
5/7/2023 9:45:00 AM 11.51 52.718 0.394 7.96 4.26 11.4
5/7/2023 10:00:00 AM 11.61 52.898 0.394 7.98 4.15 11.44
5/7/2023 10:15:00 AM 11.83 53.294 0.393 8 4.18 11.54
5/7/2023 10:30:00 AM 12.05 53.69 0.393 8.03 4.09 11.68
5/7/2023 10:45:00 AM 12.27 54.086 0.392 8.06 4.23 11.79
5/7/2023 11:00:00 AM 12.5 54.5 0.392 8.08 4.1 11.85
5/7/2023 11:15:00 AM 12.69 54.842 0.392 8.1 4.07 11.91
5/7/2023 11:30:00 AM 12.93 55.274 0.392 8.13 4.07 11.99
5/7/2023 11:45:00 AM 13.09 55.562 0.392 8.15 4.24 12
5/7/2023 12:00:00 PM 13.41 56.138 0.391 8.18 4.04 12.06
5/7/2023 12:15:00 PM 13.72 56.696 0.391 8.2 4.22 12.12
5/7/2023 12:30:00 PM 14.01 57.218 0.39 8.23 4.13 12.15
5/7/2023 12:45:00 PM 14.35 57.83 0.39 8.26 4.2 12.16
5/7/2023 1:00:00 PM 14.61 58.298 0.389 8.29 4.03 12.16
5/7/2023 1:15:00 PM 14.81 58.658 0.388 8.32 4.11 12.1
5/7/2023 1:30:00 PM 15 59 0.388 8.33 4.05 12.04
5/7/2023 1:45:00 PM 15.17 59.306 0.388 8.36 3.9 11.96
5/7/2023 2:00:00 PM 15.33 59.594 0.387 8.37 3.99 11.87
5/7/2023 2:15:00 PM 15.48 59.864 0.386 8.38 4.05 11.78
5/7/2023 2:30:00 PM 15.67 60.206 0.386 8.4 3.85 11.73
5/7/2023 2:45:00 PM 15.81 60.458 0.386 8.41 3.92 11.66
5/7/2023 3:00:00 PM 15.9 60.62 0.386 8.41 4.13 11.5
5/7/2023 3:15:00 PM 15.99 60.782 0.386 8.41 4.07 11.35
5/7/2023 3:30:00 PM 16.06 60.908 0.386 8.4 4.19 11.14
5/7/2023 3:45:00 PM 16.13 61.034 0.386 8.39 4.09 11
5/7/2023 4:00:00 PM 16.21 61.178 0.386 8.37 4.5 10.87
5/7/2023 4:15:00 PM 16.28 61.304 0.386 8.36 5.08 10.75
5/7/2023 4:30:00 PM 16.33 61.394 0.387 8.34 4.95 10.58
5/7/2023 4:45:00 PM 16.36 61.448 0.388 8.31 4.94 10.37
5/7/2023 5:00:00 PM 16.39 61.502 0.389 8.28 4.69 10.19
5/7/2023 5:15:00 PM 16.42 61.556 0.39 8.26 4.6 10.05
5/7/2023 5:30:00 PM 16.43 61.574 0.39 8.23 4.57 9.9
5/7/2023 5:45:00 PM 16.44 61.592 0.39 8.19 4.84 9.73
5/7/2023 6:00:00 PM 16.45 61.61 0.39 8.16 4.54 9.58
5/7/2023 6:15:00 PM 16.46 61.628 0.391 8.13 4.69 9.49
5/7/2023 6:30:00 PM 16.46 61.628 0.391 8.11 4.66 9.4
5/7/2023 6:45:00 PM 16.45 61.61 0.391 8.09 4.69 9.35
5/7/2023 7:00:00 PM 16.43 61.574 0.391 8.07 4.9 9.31
5/7/2023 7:15:00 PM 16.39 61.502 0.392 8.05 4.97 9.29
5/7/2023 7:30:00 PM 16.35 61.43 0.392 8.03 4.91 9.25
5/7/2023 7:45:00 PM 16.27 61.286 0.392 8.01 4.81 9.19
5/7/2023 8:00:00 PM 16.19 61.142 0.393 8 4.91 9.14
5/7/2023 8:15:00 PM 16.09 60.962 0.393 7.98 5.12 9.07
5/7/2023 8:30:00 PM 16 60.8 0.393 7.96 5.36 9.03
5/7/2023 8:45:00 PM 15.9 60.62 0.393 7.94 5.61 9.01
5/7/2023 9:00:00 PM 15.79 60.422 0.393 7.93 5.72 8.99
5/7/2023 9:15:00 PM 15.68 60.224 0.393 7.92 5.73 8.98
5/7/2023 9:30:00 PM 15.58 60.044 0.393 7.9 5.77 8.96
5/7/2023 9:45:00 PM 15.48 59.864 0.393 7.89 5.94 8.95
5/7/2023 10:00:00 PM 15.39 59.702 0.393 7.88 5.89 8.95
5/7/2023 10:15:00 PM 15.29 59.522 0.393 7.87 5.94 8.95
5/7/2023 10:30:00 PM 15.2 59.36 0.393 7.86 5.81 8.95
5/7/2023 10:45:00 PM 15.11 59.198 0.393 7.85 7.16 8.96
5/7/2023 11:00:00 PM 15.02 59.036 0.393 7.84 6.17 8.97
5/7/2023 11:15:00 PM 14.93 58.874 0.393 7.84 5.83 8.98
5/7/2023 11:30:00 PM 14.83 58.694 0.393 7.83 6.04 8.99
5/7/2023 11:45:00 PM 14.73 58.514 0.393 7.83 7.01 9.01
5/8/2023 12:00:00 AM 14.65 58.37 0.393 7.82 6.43 9.02
5/8/2023 12:15:00 AM 14.55 58.19 0.394 7.82 6.18 9.04
5/8/2023 12:30:00 AM 14.45 58.01 0.394 7.82 5.97 9.06
5/8/2023 12:45:00 AM 14.36 57.848 0.395 7.82 6.14 9.08
5/8/2023 1:00:00 AM 14.26 57.668 0.395 7.81 6.2 9.1
5/8/2023 1:15:00 AM 14.17 57.506 0.395 7.81 6.19 9.12
5/8/2023 1:30:00 AM 14.07 57.326 0.396 7.81 6.06 9.14
5/8/2023 1:45:00 AM 13.98 57.164 0.396 7.81 6.02 9.16
5/8/2023 2:00:00 AM 13.91 57.038 0.396 7.81 6.04 9.18
5/8/2023 2:15:00 AM 13.82 56.876 0.396 7.81 5.99 9.2
5/8/2023 2:30:00 AM 13.73 56.714 0.396 7.81 6.01 9.22
5/8/2023 2:45:00 AM 13.65 56.57 0.396 7.81 6.01 9.24
5/8/2023 3:00:00 AM 13.58 56.444 0.396 7.81 6.04 9.26
5/8/2023 3:15:00 AM 13.5 56.3 0.397 7.81 5.99 9.28
5/8/2023 3:30:00 AM 13.43 56.174 0.397 7.81 6.04 9.31
5/8/2023 3:45:00 AM 13.36 56.048 0.397 7.81 5.88 9.33
5/8/2023 4:00:00 AM 13.3 55.94 0.397 7.81 6.01 9.34
5/8/2023 4:15:00 AM 13.23 55.814 0.397 7.81 6.04 9.37
5/8/2023 4:30:00 AM 13.17 55.706 0.397 7.81 5.86 9.39
5/8/2023 4:45:00 AM 13.11 55.598 0.397 7.81 6 9.39
5/8/2023 5:00:00 AM 13.05 55.49 0.397 7.81 6.03 9.41
5/8/2023 5:15:00 AM 12.99 55.382 0.397 7.81 5.99 9.44
5/8/2023 5:30:00 AM 12.93 55.274 0.397 7.8 5.92 9.45
5/8/2023 5:45:00 AM 12.87 55.166 0.397 7.81 6.17 9.46
5/8/2023 6:00:00 AM 12.8 55.04 0.397 7.8 5.77 9.49
5/8/2023 6:15:00 AM 12.74 54.932 0.397 7.81 5.65 9.51
5/8/2023 6:30:00 AM 12.69 54.842 0.397 7.81 5.39 9.56
5/8/2023 6:45:00 AM 12.64 54.752 0.397 7.81 5.4 9.64
5/8/2023 7:00:00 AM 12.63 54.734 0.396 7.82 7.17 9.71
5/8/2023 7:15:00 AM 12.62 54.716 0.396 7.83 5.76 9.8
5/8/2023 7:30:00 AM 12.61 54.698 0.396 7.83 5.06 9.89
5/8/2023 7:45:00 AM 12.62 54.716 0.396 7.85 4.96 9.99
5/8/2023 8:00:00 AM 12.67 54.806 0.396 7.86 4.85 10.13
5/8/2023 8:15:00 AM 12.71 54.878 0.396 7.88 4.86 10.24
5/8/2023 8:30:00 AM 12.78 55.004 0.395 7.89 5.18 10.36
5/8/2023 8:45:00 AM 12.85 55.13 0.395 7.91 4.85 10.48
5/8/2023 9:00:00 AM 12.86 55.148 0.395 7.91 4.91 10.47
5/8/2023 9:15:00 AM 12.9 55.22 0.395 7.92 4.98 10.5
5/8/2023 9:30:00 AM 13.01 55.418 0.395 7.94 4.54 10.67
5/8/2023 9:45:00 AM 13.13 55.634 0.394 7.97 4.48 10.86
5/8/2023 10:00:00 AM 13.3 55.94 0.394 8 4.53 10.98
5/8/2023 10:15:00 AM 13.46 56.228 0.394 8.02 4.59 11.08
5/8/2023 10:30:00 AM 13.68 56.624 0.394 8.04 4.62 11.19
5/8/2023 10:45:00 AM 13.88 56.984 0.393 8.07 4.57 11.3
5/8/2023 11:00:00 AM 13.97 57.146 0.393 8.09 4.5 11.33
5/8/2023 11:15:00 AM 14.1 57.38 0.392 8.11 4.54 11.39
5/8/2023 11:30:00 AM 14.21 57.578 0.392 8.13 4.51 11.43
5/8/2023 11:45:00 AM 14.31 57.758 0.392 8.15 4.43 11.46
5/8/2023 12:00:00 PM 14.71 58.478 0.391 8.18 4.32 11.57
5/8/2023 12:15:00 PM 15.05 59.09 0.391 8.21 4.44 11.68
5/8/2023 12:30:00 PM 15.43 59.774 0.39 8.23 4.49 11.7
5/8/2023 12:45:00 PM 15.8 60.44 0.39 8.26 4.47 11.73
5/8/2023 1:00:00 PM 16.12 61.016 0.389 8.28 4.84 11.73
5/8/2023 1:15:00 PM 16.4 61.52 0.389 8.31 4.71 11.71
5/8/2023 1:30:00 PM 16.72 62.096 0.388 8.33 4.7 11.69
5/8/2023 1:45:00 PM 17.02 62.636 0.388 8.35 4.7 11.61
5/8/2023 2:00:00 PM 17.37 63.266 0.387 8.37 4.69 11.62
5/8/2023 2:15:00 PM 17.67 63.806 0.387 8.39 4.52 11.59
5/8/2023 2:30:00 PM 17.85 64.13 0.387 8.41 4.68 11.52
5/8/2023 2:45:00 PM 18.04 64.472 0.386 8.43 4.7 11.43
5/8/2023 3:00:00 PM 18.21 64.778 0.386 8.44 4.81 11.32
5/8/2023 3:15:00 PM 18.52 65.336 0.386 8.46 4.78 11.31
5/8/2023 3:30:00 PM 18.45 65.21 0.386 8.45 5.05 11.12
5/8/2023 3:45:00 PM 18.42 65.156 0.386 8.44 6.93 10.95
5/8/2023 4:00:00 PM 18.49 65.282 0.386 8.44 5.47 10.85
5/8/2023 4:15:00 PM 18.55 65.39 0.386 8.43 5.46 10.74
5/8/2023 4:30:00 PM 18.54 65.372 0.386 8.42 5.02 10.6
5/8/2023 4:45:00 PM 18.55 65.39 0.386 8.41 5.09 10.53
5/8/2023 5:00:00 PM 18.58 65.444 0.386 8.41 5.05 10.42
5/8/2023 5:15:00 PM 18.6 65.48 0.386 8.4 5.08 10.31
5/8/2023 5:30:00 PM 18.59 65.462 0.386 8.39 5.32 10.18
5/8/2023 5:45:00 PM 18.54 65.372 0.387 8.37 6.7 10.05
5/8/2023 6:00:00 PM 18.47 65.246 0.387 8.35 4.94 9.92
5/8/2023 6:15:00 PM 18.41 65.138 0.388 8.32 5.03 9.76
5/8/2023 6:30:00 PM 18.34 65.012 0.388 8.29 5.26 9.58
5/8/2023 6:45:00 PM 18.27 64.886 0.389 8.25 4.94 9.43
5/8/2023 7:00:00 PM 18.2 64.76 0.39 8.22 5.22 9.31
5/8/2023 7:15:00 PM 18.12 64.616 0.391 8.18 5.15 9.18
5/8/2023 7:30:00 PM 18.04 64.472 0.391 8.15 5.54 9.05
5/8/2023 7:45:00 PM 17.95 64.31 0.391 8.11 5.37 8.93
5/8/2023 8:00:00 PM 17.87 64.166 0.392 8.07 5.31 8.8
5/8/2023 8:15:00 PM 17.78 64.004 0.392 8.04 5.39 8.7
5/8/2023 8:30:00 PM 17.69 63.842 0.393 8.02 5.57 8.63
5/8/2023 8:45:00 PM 17.58 63.644 0.393 8 6.19 8.56
5/8/2023 9:00:00 PM 17.47 63.446 0.393 7.98 6.08 8.52
5/8/2023 9:15:00 PM 17.35 63.23 0.393 7.96 6.37 8.49
5/8/2023 9:30:00 PM 17.23 63.014 0.394 7.94 6.31 8.47
5/8/2023 9:45:00 PM 17.11 62.798 0.394 7.93 6.33 8.47
5/8/2023 10:00:00 PM 16.99 62.582 0.394 7.92 6.47 8.46
5/8/2023 10:15:00 PM 16.85 62.33 0.394 7.92 6.58 8.47
5/8/2023 10:30:00 PM 16.72 62.096 0.394 7.9 6.41 8.49
5/8/2023 10:45:00 PM 16.58 61.844 0.395 7.89 6.52 8.51
5/8/2023 11:00:00 PM 16.43 61.574 0.396 7.89 6.52 8.54
5/8/2023 11:15:00 PM 16.28 61.304 0.396 7.89 6.31 8.56
5/8/2023 11:30:00 PM 16.13 61.034 0.397 7.88 6.39 8.6
5/8/2023 11:45:00 PM 15.99 60.782 0.397 7.88 6.8 8.63
5/9/2023 12:00:00 AM 15.84 60.512 0.398 7.87 6.25 8.65
5/9/2023 12:15:00 AM 15.68 60.224 0.398 7.86 6.44 8.7
5/9/2023 12:30:00 AM 15.53 59.954 0.399 7.87 6.45 8.74
5/9/2023 12:45:00 AM 15.37 59.666 0.399 7.85 6.43 8.77
5/9/2023 1:00:00 AM 15.22 59.396 0.4 7.85 6.48 8.81
5/9/2023 1:15:00 AM 15.06 59.108 0.4 7.84 6.29 8.85
5/9/2023 1:30:00 AM 14.91 58.838 0.4 7.84 6.36 8.88
5/9/2023 1:45:00 AM 14.77 58.586 0.401 7.83 6.42 8.92
5/9/2023 2:00:00 AM 14.64 58.352 0.401 7.83 6.27 8.95
5/9/2023 2:15:00 AM 14.52 58.136 0.401 7.82 6.7 8.98
5/9/2023 2:30:00 AM 14.41 57.938 0.401 7.83 6.39 9.01
5/9/2023 2:45:00 AM 14.3 57.74 0.402 7.82 6.37 9.05
5/9/2023 3:00:00 AM 14.2 57.56 0.402 7.81 6.12 9.06
5/9/2023 3:15:00 AM 14.1 57.38 0.402 7.8 6.35 9.1
5/9/2023 3:30:00 AM 14.01 57.218 0.402 7.8 6.12 9.13
5/9/2023 3:45:00 AM 13.93 57.074 0.403 7.8 6.06 9.15
5/9/2023 4:00:00 AM 13.85 56.93 0.403 7.79 6.26 9.17
5/9/2023 4:15:00 AM 13.77 56.786 0.403 7.79 5.92 9.2
5/9/2023 4:30:00 AM 13.7 56.66 0.403 7.79 6.19 9.23
5/9/2023 4:45:00 AM 13.62 56.516 0.403 7.78 5.95 9.25
5/9/2023 5:00:00 AM 13.55 56.39 0.404 7.78 5.88 9.28
5/9/2023 5:15:00 AM 13.48 56.264 0.404 7.78 5.91 9.3
5/9/2023 5:30:00 AM 13.42 56.156 0.404 7.78 6.04 9.31
5/9/2023 5:45:00 AM 13.36 56.048 0.404 7.78 5.96 9.35
5/9/2023 6:00:00 AM 13.3 55.94 0.404 7.79 5.77 9.35
5/9/2023 6:15:00 AM 13.24 55.832 0.404 7.78 5.75 9.39
5/9/2023 6:30:00 AM 13.19 55.742 0.404 7.78 5.94 9.41
5/9/2023 6:45:00 AM 13.13 55.634 0.404 7.8 5.52 9.49
5/9/2023 7:00:00 AM 13.08 55.544 0.404 7.79 5.54 9.54
5/9/2023 7:15:00 AM 13.06 55.508 0.404 7.81 5.23 9.66
5/9/2023 7:30:00 AM 13.04 55.472 0.404 7.82 5.09 9.76
5/9/2023 7:45:00 AM 13.03 55.454 0.404 7.84 4.78 9.89
5/9/2023 8:00:00 AM 13.05 55.49 0.404 7.85 5.13 10.03
5/9/2023 8:15:00 AM 13.09 55.562 0.403 7.88 5.2 10.21
5/9/2023 8:30:00 AM 13.11 55.598 0.403 7.9 4.82 10.35
5/9/2023 8:45:00 AM 13.12 55.616 0.403 7.92 4.7 10.44
5/9/2023 9:00:00 AM 13.15 55.67 0.403 7.94 4.76 10.55
5/9/2023 9:15:00 AM 13.18 55.724 0.403 7.96 4.63 10.64
5/9/2023 9:30:00 AM 13.21 55.778 0.402 7.98 4.56 10.79
5/9/2023 9:45:00 AM 13.25 55.85 0.402 8 4.6 10.9
5/9/2023 10:00:00 AM 13.29 55.922 0.402 8.03 4.55 11.02
5/9/2023 10:15:00 AM 13.36 56.048 0.401 8.05 4.36 11.14
5/9/2023 10:30:00 AM 13.41 56.138 0.401 8.08 4.59 11.26
5/9/2023 10:45:00 AM 13.46 56.228 0.401 8.1 4.4 11.34
5/9/2023 11:00:00 AM 13.53 56.354 0.401 8.13 4.29 11.43
5/9/2023 11:15:00 AM 13.67 56.606 0.4 8.15 4.63 11.59
5/9/2023 11:30:00 AM 13.75 56.75 0.4 8.18 4.31 11.69
5/9/2023 11:45:00 AM 13.84 56.912 0.399 8.2 4.33 11.76
5/9/2023 12:00:00 PM 13.94 57.092 0.399 8.23 4.43 11.84
5/9/2023 12:15:00 PM 14.01 57.218 0.399 8.25 4.25 11.9
5/9/2023 12:30:00 PM 14.18 57.524 0.398 8.28 4.47 12
5/9/2023 12:45:00 PM 14.3 57.74 0.397 8.3 4.39 12.07
5/9/2023 1:00:00 PM 14.44 57.992 0.397 8.34 4.44 12.13
5/9/2023 1:15:00 PM 14.62 58.316 0.396 8.36 4.43 12.17
5/9/2023 1:30:00 PM 14.98 58.964 0.396 8.37 5.14 12.18
5/9/2023 1:45:00 PM 15.24 59.432 0.395 8.4 4.1 12.15
5/9/2023 2:00:00 PM 15.48 59.864 0.395 8.42 4.06 12.13
5/9/2023 2:15:00 PM 15.78 60.404 0.394 8.44 4.22 12.1
5/9/2023 2:30:00 PM 16.04 60.872 0.394 8.46 5.08 12.09
5/9/2023 2:45:00 PM 16.28 61.304 0.394 8.48 4.33 12.03
5/9/2023 3:00:00 PM 16.53 61.754 0.393 8.49 4.17 11.97
5/9/2023 3:15:00 PM 16.71 62.078 0.393 8.51 4.08 11.94
5/9/2023 3:30:00 PM 16.86 62.348 0.392 8.53 4.59 11.88
5/9/2023 3:45:00 PM 17 62.6 0.392 8.54 4.16 11.79
5/9/2023 4:00:00 PM 17.11 62.798 0.392 8.55 4.07 11.69
5/9/2023 4:15:00 PM 17.2 62.96 0.392 8.55 4.2 11.58
5/9/2023 4:30:00 PM 17.26 63.068 0.391 8.55 4.2 11.43
5/9/2023 4:45:00 PM 17.27 63.086 0.391 8.55 4.15 11.28
5/9/2023 5:00:00 PM 17.27 63.086 0.391 8.54 4.15 11.13
5/9/2023 5:15:00 PM 17.27 63.086 0.391 8.53 4.32 10.97
5/9/2023 5:30:00 PM 17.23 63.014 0.392 8.51 4.37 10.82
5/9/2023 5:45:00 PM 17.16 62.888 0.392 8.48 4.58 10.65
5/9/2023 6:00:00 PM 17.09 62.762 0.393 8.46 4.56 10.48
5/9/2023 6:15:00 PM 16.99 62.582 0.393 8.43 4.49 10.33
5/9/2023 6:30:00 PM 16.91 62.438 0.394 8.4 4.48 10.15
5/9/2023 6:45:00 PM 16.84 62.312 0.394 8.37 4.6 10.01
5/9/2023 7:00:00 PM 16.8 62.24 0.395 8.33 4.57 9.86
5/9/2023 7:15:00 PM 16.74 62.132 0.396 8.29 4.57 9.67
5/9/2023 7:30:00 PM 16.69 62.042 0.396 8.24 4.62 9.5
5/9/2023 7:45:00 PM 16.65 61.97 0.397 8.2 4.58 9.35
5/9/2023 8:00:00 PM 16.6 61.88 0.398 8.16 4.84 9.21
5/9/2023 8:15:00 PM 16.53 61.754 0.398 8.13 5.33 9.08
5/9/2023 8:30:00 PM 16.46 61.628 0.399 8.09 5.14 8.98
5/9/2023 8:45:00 PM 16.39 61.502 0.399 8.07 5.32 8.91
5/9/2023 9:00:00 PM 16.3 61.34 0.399 8.04 5.53 8.86
5/9/2023 9:15:00 PM 16.22 61.196 0.4 8.02 5.55 8.81
5/9/2023 9:30:00 PM 16.13 61.034 0.4 8 5.5 8.78
5/9/2023 9:45:00 PM 16.05 60.89 0.4 7.99 5.77 8.76
5/9/2023 10:00:00 PM 15.96 60.728 0.401 7.98 5.44 8.76
5/9/2023 10:15:00 PM 15.87 60.566 0.401 7.96 5.51 8.76
5/9/2023 10:30:00 PM 15.76 60.368 0.401 7.95 5.48 8.77
5/9/2023 10:45:00 PM 15.63 60.134 0.402 7.94 5.5 8.78
5/9/2023 11:00:00 PM 15.5 59.9 0.403 7.93 5.49 8.8
5/9/2023 11:15:00 PM 15.35 59.63 0.403 7.93 5.59 8.84
5/9/2023 11:30:00 PM 15.19 59.342 0.403 7.92 5.56 8.86
5/9/2023 11:45:00 PM 15.03 59.054 0.404 7.92 5.54 8.91
5/10/2023 12:00:00 AM 14.86 58.748 0.404 7.91 5.6 8.95
5/10/2023 12:15:00 AM 14.7 58.46 0.405 7.9 5.96 9
5/10/2023 12:30:00 AM 14.53 58.154 0.405 7.9 6.34 9.04
5/10/2023 12:45:00 AM 14.35 57.83 0.406 7.89 5.89 9.08
5/10/2023 1:00:00 AM 14.18 57.524 0.406 7.88 6.31 9.13
5/10/2023 1:15:00 AM 14 57.2 0.407 7.88 6.44 9.17
5/10/2023 1:30:00 AM 13.82 56.876 0.408 7.87 6.22 9.22
5/10/2023 1:45:00 AM 13.63 56.534 0.408 7.86 7.32 9.27
5/10/2023 2:00:00 AM 13.45 56.21 0.408 7.85 6.94 9.31
5/10/2023 2:15:00 AM 13.28 55.904 0.409 7.84 6.31 9.36
5/10/2023 2:30:00 AM 13.12 55.616 0.409 7.84 6.88 9.39
5/10/2023 2:45:00 AM 12.96 55.328 0.409 7.83 5.96 9.44
5/10/2023 3:00:00 AM 12.8 55.04 0.409 7.82 6.7 9.48
5/10/2023 3:15:00 AM 12.65 54.77 0.409 7.81 5.64 9.53
5/10/2023 3:30:00 AM 12.51 54.518 0.41 7.81 5.42 9.57
5/10/2023 3:45:00 AM 12.37 54.266 0.41 7.81 5.54 9.6
5/10/2023 4:00:00 AM 12.25 54.05 0.41 7.8 6.09 9.64
5/10/2023 4:15:00 AM 12.12 53.816 0.41 7.8 6.75 9.67
5/10/2023 4:30:00 AM 12.01 53.618 0.411 7.8 5.72 9.71
5/10/2023 4:45:00 AM 11.89 53.402 0.411 7.8 5.45 9.74
5/10/2023 5:00:00 AM 11.78 53.204 0.411 7.8 5.23 9.78
5/10/2023 5:15:00 AM 11.67 53.006 0.411 7.8 5.36 9.81
5/10/2023 5:30:00 AM 11.57 52.826 0.411 7.8 5.4 9.84
5/10/2023 5:45:00 AM 11.46 52.628 0.411 7.81 5 9.88
5/10/2023 6:00:00 AM 11.36 52.448 0.411 7.81 5.15 9.91
5/10/2023 6:15:00 AM 11.27 52.286 0.412 7.81 5.14 9.96
5/10/2023 6:30:00 AM 11.18 52.124 0.411 7.81 4.74 10.03
5/10/2023 6:45:00 AM 11.11 51.998 0.412 7.82 5.02 10.1
5/10/2023 7:00:00 AM 11.04 51.872 0.412 7.83 4.73 10.2
5/10/2023 7:15:00 AM 10.98 51.764 0.411 7.84 4.6 10.31
5/10/2023 7:30:00 AM 10.94 51.692 0.411 7.86 4.56 10.43
5/10/2023 7:45:00 AM 10.91 51.638 0.411 7.87 5.38 10.55
5/10/2023 8:00:00 AM 10.91 51.638 0.41 7.89 4.83 10.67
5/10/2023 8:15:00 AM 10.93 51.674 0.41 7.91 4.47 10.8
5/10/2023 8:30:00 AM 10.97 51.746 0.411 7.93 4.34 10.94
5/10/2023 8:45:00 AM 11.03 51.854 0.411 7.95 4.33 11.05
5/10/2023 9:00:00 AM 11.1 51.98 0.411 7.97 4.1 11.18
5/10/2023 9:15:00 AM 11.18 52.124 0.411 8 4.33 11.31
5/10/2023 9:30:00 AM 11.28 52.304 0.41 8.02 4.06 11.42
5/10/2023 9:45:00 AM 11.39 52.502 0.41 8.04 3.99 11.51
5/10/2023 10:00:00 AM 11.52 52.736 0.41 8.07 4 11.61
5/10/2023 10:15:00 AM 11.67 53.006 0.41 8.09 3.9 11.71
5/10/2023 10:30:00 AM 11.85 53.33 0.41 8.11 3.97 11.81
5/10/2023 10:45:00 AM 12.04 53.672 0.41 8.14 3.94 11.9
5/10/2023 11:00:00 AM 12.26 54.068 0.409 8.17 3.91 11.97
5/10/2023 11:15:00 AM 12.5 54.5 0.409 8.19 4.02 12.05
5/10/2023 11:30:00 AM 12.74 54.932 0.409 8.21 3.84 12.12
5/10/2023 11:45:00 AM 13 55.4 0.408 8.24 4 12.18
5/10/2023 12:00:00 PM 13.27 55.886 0.408 8.26 3.8 12.22
5/10/2023 12:15:00 PM 13.54 56.372 0.408 8.29 3.78 12.27
5/10/2023 12:30:00 PM 13.83 56.894 0.407 8.31 3.82 12.31
5/10/2023 12:45:00 PM 14.12 57.416 0.406 8.34 3.86 12.34
5/10/2023 1:00:00 PM 14.41 57.938 0.406 8.37 3.74 12.37
5/10/2023 1:15:00 PM 14.74 58.532 0.405 8.4 4.05 12.39
5/10/2023 1:30:00 PM 15.09 59.162 0.404 8.43 3.77 12.41
5/10/2023 1:45:00 PM 15.43 59.774 0.403 8.47 3.92 12.4
5/10/2023 2:00:00 PM 15.76 60.368 0.402 8.5 3.84 12.37
5/10/2023 2:15:00 PM 16.13 61.034 0.402 8.53 4.2 12.35
5/10/2023 2:30:00 PM 16.47 61.646 0.401 8.55 4.16 12.31
5/10/2023 2:45:00 PM 16.79 62.222 0.4 8.57 3.97 12.24
5/10/2023 3:00:00 PM 17.1 62.78 0.399 8.59 4.04 12.17
5/10/2023 3:15:00 PM 17.32 63.176 0.399 8.61 4.06 12.1
5/10/2023 3:30:00 PM 17.52 63.536 0.398 8.62 4.26 12.02
5/10/2023 3:45:00 PM 17.66 63.788 0.398 8.63 3.97 11.92
5/10/2023 4:00:00 PM 17.78 64.004 0.398 8.64 4.09 11.82
5/10/2023 4:15:00 PM 17.88 64.184 0.397 8.64 3.97 11.69
5/10/2023 4:30:00 PM 17.94 64.292 0.397 8.64 4.13 11.54
5/10/2023 4:45:00 PM 17.95 64.31 0.397 8.63 4.18 11.38
5/10/2023 5:00:00 PM 17.96 64.328 0.398 8.62 4.18 11.23
5/10/2023 5:15:00 PM 17.95 64.31 0.398 8.61 4.21 11.05
5/10/2023 5:30:00 PM 17.93 64.274 0.398 8.59 4.37 10.88
5/10/2023 5:45:00 PM 17.88 64.184 0.399 8.57 4.37 10.69
5/10/2023 6:00:00 PM 17.84 64.112 0.4 8.54 4.32 10.51
5/10/2023 6:15:00 PM 17.76 63.968 0.4 8.51 4.61 10.31
5/10/2023 6:30:00 PM 17.67 63.806 0.401 8.47 4.46 10.08
5/10/2023 6:45:00 PM 17.59 63.662 0.402 8.43 4.39 9.89
5/10/2023 7:00:00 PM 17.51 63.518 0.403 8.39 4.47 9.71
5/10/2023 7:15:00 PM 17.43 63.374 0.404 8.35 4.42 9.52
5/10/2023 7:30:00 PM 17.35 63.23 0.405 8.3 4.5 9.38
5/10/2023 7:45:00 PM 17.25 63.05 0.406 8.25 4.62 9.21
5/10/2023 8:00:00 PM 17.15 62.87 0.406 8.2 4.58 9.07
5/10/2023 8:15:00 PM 17.06 62.708 0.407 8.16 4.69 8.95
5/10/2023 8:30:00 PM 16.96 62.528 0.407 8.13 4.77 8.85
5/10/2023 8:45:00 PM 16.85 62.33 0.407 8.1 4.96 8.78
5/10/2023 9:00:00 PM 16.74 62.132 0.408 8.07 5.23 8.73
5/10/2023 9:15:00 PM 16.63 61.934 0.408 8.05 5.41 8.68
5/10/2023 9:30:00 PM 16.51 61.718 0.408 8.03 5.43 8.66
5/10/2023 9:45:00 PM 16.38 61.484 0.409 8.01 5.51 8.65
5/10/2023 10:00:00 PM 16.25 61.25 0.409 8 5.52 8.65
5/10/2023 10:15:00 PM 16.12 61.016 0.409 7.98 5.85 8.66
5/10/2023 10:30:00 PM 15.97 60.746 0.41 7.97 5.6 8.67
5/10/2023 10:45:00 PM 15.82 60.476 0.41 7.96 5.84 8.7
5/10/2023 11:00:00 PM 15.66 60.188 0.411 7.95 5.63 8.72
5/10/2023 11:15:00 PM 15.5 59.9 0.412 7.94 5.76 8.77
5/10/2023 11:30:00 PM 15.33 59.594 0.412 7.94 5.42 8.8
5/10/2023 11:45:00 PM 15.16 59.288 0.413 7.93 5.42 8.85
5/11/2023 12:00:00 AM 14.99 58.982 0.413 7.93 5.46 8.88
5/11/2023 12:15:00 AM 14.81 58.658 0.414 7.92 5.59 8.94
5/11/2023 12:30:00 AM 14.63 58.334 0.414 7.92 5.64 8.97
5/11/2023 12:45:00 AM 14.46 58.028 0.415 7.91 5.68 9.03
5/11/2023 1:00:00 AM 14.28 57.704 0.416 7.91 5.59 9.07
5/11/2023 1:15:00 AM 14.1 57.38 0.416 7.9 5.47 9.12
5/11/2023 1:30:00 AM 13.92 57.056 0.417 7.9 5.62 9.16
5/11/2023 1:45:00 AM 13.75 56.75 0.417 7.89 5.57 9.2
5/11/2023 2:00:00 AM 13.58 56.444 0.417 7.89 5.58 9.25
5/11/2023 2:15:00 AM 13.42 56.156 0.417 7.88 5.91 9.3
5/11/2023 2:30:00 AM 13.26 55.868 0.417 7.87 5.61 9.35
5/11/2023 2:45:00 AM 13.11 55.598 0.417 7.87 5.41 9.38
5/11/2023 3:00:00 AM 12.97 55.346 0.417 7.86 5.48 9.41
5/11/2023 3:15:00 AM 12.83 55.094 0.417 7.86 5.28 9.46
5/11/2023 3:30:00 AM 12.7 54.86 0.418 7.85 5.34 9.49
5/11/2023 3:45:00 AM 12.58 54.644 0.418 7.85 5.3 9.52
5/11/2023 4:00:00 AM 12.47 54.446 0.419 7.85 5.39 9.55
5/11/2023 4:15:00 AM 12.36 54.248 0.419 7.84 5.52 9.59
5/11/2023 4:30:00 AM 12.25 54.05 0.42 7.84 5.22 9.62
5/11/2023 4:45:00 AM 12.14 53.852 0.42 7.84 5.31 9.65
5/11/2023 5:00:00 AM 12.04 53.672 0.42 7.84 5.13 9.69
5/11/2023 5:15:00 AM 11.93 53.474 0.42 7.83 5.22 9.73
5/11/2023 5:30:00 AM 11.83 53.294 0.42 7.83 5.27 9.76
5/11/2023 5:45:00 AM 11.73 53.114 0.42 7.82 5.4 9.8
5/11/2023 6:00:00 AM 11.63 52.934 0.419 7.82 5.7 9.83
5/11/2023 6:15:00 AM 11.54 52.772 0.419 7.82 5.27 9.88
5/11/2023 6:30:00 AM 11.46 52.628 0.419 7.82 5.27 9.95
5/11/2023 6:45:00 AM 11.38 52.484 0.419 7.83 5.19 10.03
5/11/2023 7:00:00 AM 11.31 52.358 0.419 7.84 5.39 10.12
5/11/2023 7:15:00 AM 11.25 52.25 0.419 7.85 4.9 10.24
5/11/2023 7:30:00 AM 11.21 52.178 0.419 7.86 4.73 10.36
5/11/2023 7:45:00 AM 11.19 52.142 0.418 7.88 4.71 10.48
5/11/2023 8:00:00 AM 11.18 52.124 0.418 7.9 4.66 10.62
5/11/2023 8:15:00 AM 11.21 52.178 0.418 7.92 4.49 10.76
5/11/2023 8:30:00 AM 11.24 52.232 0.418 7.94 4.41 10.87
5/11/2023 8:45:00 AM 11.3 52.34 0.418 7.96 4.35 11
5/11/2023 9:00:00 AM 11.38 52.484 0.417 7.99 4.43 11.14
5/11/2023 9:15:00 AM 11.49 52.682 0.417 8.01 4.36 11.29
5/11/2023 9:30:00 AM 11.61 52.898 0.417 8.04 4.21 11.43
5/11/2023 9:45:00 AM 11.74 53.132 0.416 8.06 4.14 11.55
5/11/2023 10:00:00 AM 11.89 53.402 0.416 8.09 4.15 11.69
5/11/2023 10:15:00 AM 12.06 53.708 0.415 8.12 4.16 11.83
5/11/2023 10:30:00 AM 12.25 54.05 0.415 8.15 4.13 11.94
5/11/2023 10:45:00 AM 12.47 54.446 0.414 8.18 4.04 12.06
5/11/2023 11:00:00 AM 12.69 54.842 0.414 8.21 4.09 12.16
5/11/2023 11:15:00 AM 12.94 55.292 0.413 8.24 4.17 12.27
5/11/2023 11:30:00 AM 13.18 55.724 0.413 8.27 4.08 12.35
5/11/2023 11:45:00 AM 13.46 56.228 0.413 8.3 4.09 12.43
5/11/2023 12:00:00 PM 13.74 56.732 0.412 8.32 4.11 12.5
5/11/2023 12:15:00 PM 14.05 57.29 0.411 8.35 4.15 12.55
5/11/2023 12:30:00 PM 14.36 57.848 0.411 8.39 4.25 12.59
5/11/2023 12:45:00 PM 14.67 58.406 0.41 8.42 4.22 12.63
5/11/2023 1:00:00 PM 14.98 58.964 0.409 8.46 4.04 12.68
5/11/2023 1:15:00 PM 15.3 59.54 0.408 8.5 4.25 12.71
5/11/2023 1:30:00 PM 15.65 60.17 0.407 8.53 4.09 12.77
5/11/2023 1:45:00 PM 15.98 60.764 0.406 8.56 4.21 12.76
5/11/2023 2:00:00 PM 16.31 61.358 0.404 8.58 4.28 12.73
5/11/2023 2:15:00 PM 16.64 61.952 0.404 8.61 4.19 12.7
5/11/2023 2:30:00 PM 16.98 62.564 0.402 8.64 4.2 12.64
5/11/2023 2:45:00 PM 17.29 63.122 0.401 8.66 4.17 12.6
5/11/2023 3:00:00 PM 17.59 63.662 0.4 8.68 4.29 12.52
5/11/2023 3:15:00 PM 17.83 64.094 0.4 8.7 4.25 12.45
5/11/2023 3:30:00 PM 18.01 64.418 0.399 8.72 4.27 12.33
5/11/2023 3:45:00 PM 18.16 64.688 0.398 8.73 4.13 12.21
5/11/2023 4:00:00 PM 18.34 65.012 0.398 8.73 4.19 12.08
5/11/2023 4:15:00 PM 18.46 65.228 0.398 8.73 4.28 11.93
5/11/2023 4:30:00 PM 18.53 65.354 0.398 8.73 4.33 11.74
5/11/2023 4:45:00 PM 18.56 65.408 0.398 8.72 4.35 11.54
5/11/2023 5:00:00 PM 18.59 65.462 0.398 8.71 4.41 11.36
5/11/2023 5:15:00 PM 18.61 65.498 0.398 8.69 4.3 11.17
5/11/2023 5:30:00 PM 18.62 65.516 0.399 8.67 4.39 10.98
5/11/2023 5:45:00 PM 18.61 65.498 0.4 8.65 4.49 10.75
5/11/2023 6:00:00 PM 18.56 65.408 0.401 8.61 4.5 10.53
5/11/2023 6:15:00 PM 18.5 65.3 0.402 8.58 4.51 10.29
5/11/2023 6:30:00 PM 18.45 65.21 0.403 8.54 4.52 10.06
5/11/2023 6:45:00 PM 18.39 65.102 0.404 8.49 4.59 9.84
5/11/2023 7:00:00 PM 18.34 65.012 0.405 8.44 4.7 9.64
5/11/2023 7:15:00 PM 18.25 64.85 0.407 8.39 4.62 9.44
5/11/2023 7:30:00 PM 18.16 64.688 0.408 8.34 4.75 9.25
5/11/2023 7:45:00 PM 18.07 64.526 0.409 8.28 4.2 9.07
5/11/2023 8:00:00 PM 17.98 64.364 0.41 8.23 4.34 8.91
5/11/2023 8:15:00 PM 17.9 64.22 0.411 8.18 4.35 8.76
5/11/2023 8:30:00 PM 17.81 64.058 0.411 8.14 4.55 8.64
5/11/2023 8:45:00 PM 17.72 63.896 0.412 8.1 4.84 8.54
5/11/2023 9:00:00 PM 17.62 63.716 0.412 8.07 5.12 8.49
5/11/2023 9:15:00 PM 17.51 63.518 0.412 8.05 4.97 8.43
5/11/2023 9:30:00 PM 17.4 63.32 0.412 8.03 5.09 8.4
5/11/2023 9:45:00 PM 17.28 63.104 0.413 8.01 5.05 8.39
5/11/2023 10:00:00 PM 17.17 62.906 0.413 7.99 5.28 8.38
5/11/2023 10:15:00 PM 17.04 62.672 0.413 7.98 5.26 8.37
5/11/2023 10:30:00 PM 16.91 62.438 0.414 7.96 5.1 8.39
5/11/2023 10:45:00 PM 16.78 62.204 0.414 7.95 5.32 8.41
5/11/2023 11:00:00 PM 16.64 61.952 0.415 7.94 5.27 8.42
5/11/2023 11:15:00 PM 16.49 61.682 0.415 7.93 5.04 8.45
5/11/2023 11:30:00 PM 16.34 61.412 0.416 7.93 5.28 8.48
5/11/2023 11:45:00 PM 16.19 61.142 0.416 7.92 5 8.52
5/12/2023 12:00:00 AM 16.03 60.854 0.417 7.91 5.2 8.56
5/12/2023 12:15:00 AM 15.87 60.566 0.417 7.91 5.23 8.6
5/12/2023 12:30:00 AM 15.71 60.278 0.418 7.9 6.59 8.63
5/12/2023 12:45:00 AM 15.55 59.99 0.419 7.9 5.22 8.68
5/12/2023 1:00:00 AM 15.39 59.702 0.419 7.89 5.21 8.73
5/12/2023 1:15:00 AM 15.22 59.396 0.42 7.89 5.14 8.77
5/12/2023 1:30:00 AM 15.05 59.09 0.42 7.89 5.26 8.81
5/12/2023 1:45:00 AM 14.89 58.802 0.421 7.88 5.17 8.86
5/12/2023 2:00:00 AM 14.72 58.496 0.421 7.88 5.17 8.9
5/12/2023 2:15:00 AM 14.56 58.208 0.422 7.87 5.13 8.93
5/12/2023 2:30:00 AM 14.41 57.938 0.422 7.87 5 8.98
5/12/2023 2:45:00 AM 14.26 57.668 0.422 7.87 5.02 9.02
5/12/2023 3:00:00 AM 14.12 57.416 0.422 7.86 5.09 9.05
5/12/2023 3:15:00 AM 13.99 57.182 0.422 7.86 5 9.1
5/12/2023 3:30:00 AM 13.86 56.948 0.422 7.86 5.05 9.14
5/12/2023 3:45:00 AM 13.73 56.714 0.423 7.85 4.92 9.17
5/12/2023 4:00:00 AM 13.62 56.516 0.423 7.85 5.02 9.2
5/12/2023 4:15:00 AM 13.51 56.318 0.423 7.84 5 9.25
5/12/2023 4:30:00 AM 13.4 56.12 0.423 7.84 5.08 9.27
5/12/2023 4:45:00 AM 13.3 55.94 0.423 7.84 5.06 9.3
5/12/2023 5:00:00 AM 13.2 55.76 0.423 7.84 5.08 9.33
5/12/2023 5:15:00 AM 13.11 55.598 0.423 7.83 5.4 9.36
5/12/2023 5:30:00 AM 13.01 55.418 0.424 7.83 5.74 9.4
5/12/2023 5:45:00 AM 12.92 55.256 0.424 7.83 4.97 9.42
5/12/2023 6:00:00 AM 12.83 55.094 0.424 7.83 4.67 9.46
5/12/2023 6:15:00 AM 12.75 54.95 0.424 7.83 4.67 9.52
5/12/2023 6:30:00 AM 12.68 54.824 0.423 7.83 4.39 9.57
5/12/2023 6:45:00 AM 12.61 54.698 0.423 7.83 4.22 9.66
5/12/2023 7:00:00 AM 12.55 54.59 0.423 7.84 4.5 9.76
5/12/2023 7:15:00 AM 12.5 54.5 0.423 7.85 4.09 9.86
5/12/2023 7:30:00 AM 12.47 54.446 0.423 7.87 3.98 10
5/12/2023 7:45:00 AM 12.47 54.446 0.423 7.89 4.03 10.15
5/12/2023 8:00:00 AM 12.47 54.446 0.423 7.91 3.79 10.31
5/12/2023 8:15:00 AM 12.51 54.518 0.422 7.93 3.77 10.51
5/12/2023 8:30:00 AM 12.56 54.608 0.422 7.96 3.77 10.68
5/12/2023 8:45:00 AM 12.62 54.716 0.422 7.98 3.86 10.82
5/12/2023 9:00:00 AM 12.67 54.806 0.422 8 3.76 10.97
5/12/2023 9:15:00 AM 12.76 54.968 0.421 8.03 3.64 11.15
5/12/2023 9:30:00 AM 12.88 55.184 0.421 8.06 3.6 11.33
5/12/2023 9:45:00 AM 12.97 55.346 0.421 8.09 3.61 11.48
5/12/2023 10:00:00 AM 13.11 55.598 0.42 8.12 3.62 11.63
5/12/2023 10:15:00 AM 13.26 55.868 0.42 8.15 4.13 11.76
5/12/2023 10:30:00 AM 13.43 56.174 0.419 8.19 3.66 11.9
5/12/2023 10:45:00 AM 13.61 56.498 0.419 8.22 3.5 12.05
5/12/2023 11:00:00 AM 13.8 56.84 0.418 8.25 3.84 12.2
5/12/2023 11:15:00 AM 14.02 57.236 0.417 8.28 3.99 12.31
5/12/2023 11:30:00 AM 14.21 57.578 0.417 8.32 4.08 12.42
5/12/2023 11:45:00 AM 14.41 57.938 0.416 8.35 3.7 12.5
5/12/2023 12:00:00 PM 14.6 58.28 0.415 8.38 4.03 12.57
5/12/2023 12:15:00 PM 14.9 58.82 0.414 8.41 3.66 12.66
5/12/2023 12:30:00 PM 15.23 59.414 0.413 8.45 3.5 12.75
5/12/2023 12:45:00 PM 15.55 59.99 0.412 8.49 3.55 12.82
5/12/2023 1:00:00 PM 15.88 60.584 0.411 8.52 3.45 12.84
5/12/2023 1:15:00 PM 16.21 61.178 0.41 8.55 3.61 12.88
5/12/2023 1:30:00 PM 16.52 61.736 0.409 8.58 3.56 12.91
5/12/2023 1:45:00 PM 16.81 62.258 0.408 8.62 3.62 12.91
5/12/2023 2:00:00 PM 17.02 62.636 0.406 8.65 3.53 12.87
5/12/2023 2:15:00 PM 17.32 63.176 0.405 8.68 3.69 12.87
5/12/2023 2:30:00 PM 17.62 63.716 0.404 8.7 3.6 12.84
5/12/2023 2:45:00 PM 17.94 64.292 0.403 8.73 3.6 12.81
5/12/2023 3:00:00 PM 18.21 64.778 0.401 8.75 3.61 12.74
5/12/2023 3:15:00 PM 18.4 65.12 0.401 8.76 3.7 12.62
5/12/2023 3:30:00 PM 18.56 65.408 0.4 8.77 3.66 12.48
5/12/2023 3:45:00 PM 18.71 65.67799 0.399 8.78 3.68 12.35
5/12/2023 4:00:00 PM 18.86 65.948 0.399 8.79 3.63 12.19
5/12/2023 4:15:00 PM 18.99 66.182 0.398 8.79 3.68 12.02
5/12/2023 4:30:00 PM 19.02 66.236 0.398 8.78 3.69 11.77
5/12/2023 4:45:00 PM 19.06 66.308 0.399 8.76 3.84 11.55
5/12/2023 5:00:00 PM 19.14 66.452 0.399 8.74 3.75 11.34
5/12/2023 5:15:00 PM 19.21 66.578 0.4 8.73 3.77 11.17
5/12/2023 5:30:00 PM 19.23 66.614 0.4 8.7 3.78 10.95
5/12/2023 5:45:00 PM 19.22 66.596 0.401 8.67 3.97 10.69
5/12/2023 6:00:00 PM 19.21 66.578 0.402 8.64 3.96 10.46
5/12/2023 6:15:00 PM 19.2 66.56 0.403 8.6 3.99 10.23
5/12/2023 6:30:00 PM 19.18 66.524 0.405 8.56 3.98 10
5/12/2023 6:45:00 PM 19.15 66.47 0.406 8.51 4.03 9.76
5/12/2023 7:00:00 PM 19.12 66.416 0.407 8.46 4.2 9.54
5/12/2023 7:15:00 PM 19.08 66.344 0.409 8.4 4.34 9.32
5/12/2023 7:30:00 PM 19.03 66.254 0.41 8.34 4.27 9.08
5/12/2023 7:45:00 PM 18.98 66.164 0.411 8.28 4.44 8.86
5/12/2023 8:00:00 PM 18.92 66.056 0.412 8.22 4.66 8.68
5/12/2023 8:15:00 PM 18.86 65.948 0.413 8.17 4.58 8.52
5/12/2023 8:30:00 PM 18.79 65.82201 0.414 8.13 4.79 8.39
5/12/2023 8:45:00 PM 18.71 65.67799 0.414 8.08 4.89 8.27
5/12/2023 9:00:00 PM 18.64 65.552 0.415 8.05 5.12 8.19
5/12/2023 9:15:00 PM 18.55 65.39 0.415 8.02 5.47 8.14
5/12/2023 9:30:00 PM 18.47 65.246 0.415 8 5.28 8.09
5/12/2023 9:45:00 PM 18.38 65.084 0.416 7.97 5.57 8.06
5/12/2023 10:00:00 PM 18.28 64.904 0.417 7.96 5.58 8.04
5/12/2023 10:15:00 PM 18.17 64.706 0.417 7.94 5.44 8.03
5/12/2023 10:30:00 PM 18.05 64.49 0.417 7.93 5.41 8.04
5/12/2023 10:45:00 PM 17.93 64.274 0.418 7.92 5.58 8.05
5/12/2023 11:00:00 PM 17.81 64.058 0.418 7.91 5.84 8.08
5/12/2023 11:15:00 PM 17.7 63.86 0.418 7.91 5.31 8.1
5/12/2023 11:30:00 PM 17.58 63.644 0.419 7.9 5.19 8.12
5/12/2023 11:45:00 PM 17.45 63.41 0.419 7.89 5.32 8.15
5/13/2023 12:00:00 AM 17.34 63.212 0.42 7.89 5.27 8.17
5/13/2023 12:15:00 AM 17.22 62.996 0.421 7.88 5.16 8.22
5/13/2023 12:30:00 AM 17.1 62.78 0.422 7.88 5.15 8.25
5/13/2023 12:45:00 AM 16.97 62.546 0.422 7.87 5.65 8.28
5/13/2023 1:00:00 AM 16.84 62.312 0.423 7.87 5.5 8.32
5/13/2023 1:15:00 AM 16.71 62.078 0.424 7.86 5.38 8.34
5/13/2023 1:30:00 AM 16.57 61.826 0.424 7.86 5.57 8.38
5/13/2023 1:45:00 AM 16.44 61.592 0.425 7.85 6.04 8.41
5/13/2023 2:00:00 AM 16.31 61.358 0.425 7.85 6.38 8.44
5/13/2023 2:15:00 AM 16.18 61.124 0.426 7.85 6.59 8.48
5/13/2023 2:30:00 AM 16.05 60.89 0.426 7.84 6.57 8.51
5/13/2023 2:45:00 AM 15.93 60.674 0.426 7.84 6.17 8.54
5/13/2023 3:00:00 AM 15.82 60.476 0.426 7.84 5.97 8.57
5/13/2023 3:15:00 AM 15.72 60.296 0.426 7.83 6.26 8.59
5/13/2023 3:30:00 AM 15.62 60.116 0.426 7.83 5.9 8.62
5/13/2023 3:45:00 AM 15.52 59.936 0.426 7.83 5.86 8.66
5/13/2023 4:00:00 AM 15.44 59.792 0.426 7.82 5.71 8.68
5/13/2023 4:15:00 AM 15.35 59.63 0.427 7.82 5.6 8.7
5/13/2023 4:30:00 AM 15.28 59.504 0.427 7.82 5.6 8.72
5/13/2023 4:45:00 AM 15.21 59.378 0.427 7.82 5.76 8.75
5/13/2023 5:00:00 AM 15.14 59.252 0.427 7.81 5.66 8.76
5/13/2023 5:15:00 AM 15.08 59.144 0.427 7.81 5.69 8.78
5/13/2023 5:30:00 AM 15.03 59.054 0.427 7.81 5.6 8.81
5/13/2023 5:45:00 AM 14.97 58.946 0.428 7.81 5.63 8.81
5/13/2023 6:00:00 AM 14.92 58.856 0.427 7.81 5.72 8.84
5/13/2023 6:15:00 AM 14.87 58.766 0.428 7.81 5.22 8.87
5/13/2023 6:30:00 AM 14.83 58.694 0.428 7.81 5.22 8.91
5/13/2023 6:45:00 AM 14.79 58.622 0.428 7.81 4.98 8.95
5/13/2023 7:00:00 AM 14.76 58.568 0.427 7.82 4.8 9.04
5/13/2023 7:15:00 AM 14.73 58.514 0.427 7.82 4.72 9.1
5/13/2023 7:30:00 AM 14.71 58.478 0.427 7.83 4.62 9.2
5/13/2023 7:45:00 AM 14.69 58.442 0.428 7.84 4.76 9.26
5/13/2023 8:00:00 AM 14.67 58.406 0.428 7.84 4.47 9.31
5/13/2023 8:15:00 AM 14.65 58.37 0.428 7.85 4.5 9.38
5/13/2023 8:30:00 AM 14.64 58.352 0.427 7.85 4.25 9.49
5/13/2023 8:45:00 AM 14.63 58.334 0.427 7.87 4.27 9.59
5/13/2023 9:00:00 AM 14.62 58.316 0.427 7.88 4.38 9.65
5/13/2023 9:15:00 AM 14.61 58.298 0.427 7.88 4.27 9.69
5/13/2023 9:30:00 AM 14.61 58.298 0.426 7.89 4.34 9.79
5/13/2023 9:45:00 AM 14.63 58.334 0.426 7.91 6.63 9.95
5/13/2023 10:00:00 AM 14.65 58.37 0.426 7.93 4.4 10.14
5/13/2023 10:15:00 AM 14.67 58.406 0.425 7.96 4.38 10.3
5/13/2023 10:30:00 AM 14.7 58.46 0.425 7.98 4.45 10.42
5/13/2023 10:45:00 AM 14.74 58.532 0.424 8.01 3.93 10.61
5/13/2023 11:00:00 AM 14.82 58.676 0.424 8.05 4.03 10.86
5/13/2023 11:15:00 AM 14.87 58.766 0.423 8.08 4.12 11.01
5/13/2023 11:30:00 AM 14.93 58.874 0.423 8.12 4.11 11.18
5/13/2023 11:45:00 AM 14.98 58.964 0.422 8.15 3.9 11.27
5/13/2023 12:00:00 PM 15 59 0.422 8.17 3.9 11.3
5/13/2023 12:15:00 PM 15.02 59.036 0.421 8.18 3.81 11.28
5/13/2023 12:30:00 PM 15.02 59.036 0.421 8.18 3.97 11.17
5/13/2023 12:45:00 PM 15.02 59.036 0.42 8.18 4.09 11.09
5/13/2023 1:00:00 PM 15.04 59.072 0.42 8.18 4 11.07
5/13/2023 1:15:00 PM 15.08 59.144 0.42 8.2 3.93 11.14
5/13/2023 1:30:00 PM 15.13 59.234 0.419 8.22 3.98 11.21
5/13/2023 1:45:00 PM 15.18 59.324 0.419 8.24 6.4 11.3
5/13/2023 2:00:00 PM 15.21 59.378 0.418 8.25 3.86 11.27
5/13/2023 2:15:00 PM 15.23 59.414 0.418 8.25 3.95 11.24
5/13/2023 2:30:00 PM 15.25 59.45 0.418 8.26 3.86 11.18
5/13/2023 2:45:00 PM 15.28 59.504 0.418 8.26 3.84 11.16
5/13/2023 3:00:00 PM 15.31 59.558 0.417 8.26 3.93 11.12
5/13/2023 3:15:00 PM 15.34 59.612 0.417 8.27 3.98 11.09
5/13/2023 3:30:00 PM 15.37 59.666 0.417 8.27 4.17 11.08
5/13/2023 3:45:00 PM 15.41 59.738 0.416 8.28 4.1 11.08
5/13/2023 4:00:00 PM 15.44 59.792 0.416 8.28 4.2 11
5/13/2023 4:15:00 PM 15.46 59.828 0.416 8.28 4.26 10.88
5/13/2023 4:30:00 PM 15.48 59.864 0.416 8.27 4.22 10.77
5/13/2023 4:45:00 PM 15.5 59.9 0.416 8.26 3.98 10.67
5/13/2023 5:00:00 PM 15.53 59.954 0.416 8.25 4.14 10.59
5/13/2023 5:15:00 PM 15.55 59.99 0.416 8.25 4.14 10.51
5/13/2023 5:30:00 PM 15.57 60.026 0.417 8.24 4.13 10.43
5/13/2023 5:45:00 PM 15.61 60.098 0.417 8.24 4.04 10.42
5/13/2023 6:00:00 PM 15.63 60.134 0.417 8.24 4.19 10.41
5/13/2023 6:15:00 PM 15.64 60.152 0.417 8.23 4.13 10.35
5/13/2023 6:30:00 PM 15.63 60.134 0.417 8.21 4.19 10.22
5/13/2023 6:45:00 PM 15.61 60.098 0.417 8.19 4.21 10.11
5/13/2023 7:00:00 PM 15.6 60.08 0.418 8.17 4.27 10.04
5/13/2023 7:15:00 PM 15.59 60.062 0.418 8.15 4.13 9.97
5/13/2023 7:30:00 PM 15.57 60.026 0.418 8.14 4.29 9.87
5/13/2023 7:45:00 PM 15.54 59.972 0.419 8.11 4.48 9.77
5/13/2023 8:00:00 PM 15.5 59.9 0.419 8.09 5.06 9.65
5/13/2023 8:15:00 PM 15.46 59.828 0.419 8.07 4.57 9.55
5/13/2023 8:30:00 PM 15.41 59.738 0.42 8.05 4.57 9.44
5/13/2023 8:45:00 PM 15.35 59.63 0.42 8.03 4.79 9.36
5/13/2023 9:00:00 PM 15.29 59.522 0.42 8.02 4.77 9.29
5/13/2023 9:15:00 PM 15.22 59.396 0.421 8 4.99 9.24
5/13/2023 9:30:00 PM 15.15 59.27 0.421 7.99 4.99 9.19
5/13/2023 9:45:00 PM 15.08 59.144 0.421 7.97 5.02 9.15
5/13/2023 10:00:00 PM 15 59 0.421 7.96 5.13 9.14
5/13/2023 10:15:00 PM 14.92 58.856 0.422 7.95 5.07 9.13
5/13/2023 10:30:00 PM 14.84 58.712 0.422 7.94 5.04 9.12
5/13/2023 10:45:00 PM 14.75 58.55 0.422 7.94 5.07 9.12
5/13/2023 11:00:00 PM 14.67 58.406 0.422 7.93 5.07 9.13
5/13/2023 11:15:00 PM 14.58 58.244 0.423 7.92 4.97 9.14
5/13/2023 11:30:00 PM 14.5 58.1 0.423 7.92 5.08 9.16
5/13/2023 11:45:00 PM 14.42 57.956 0.423 7.91 4.98 9.17
5/14/2023 12:00:00 AM 14.33 57.794 0.423 7.91 5.05 9.17
5/14/2023 12:15:00 AM 14.25 57.65 0.424 7.9 4.91 9.19
5/14/2023 12:30:00 AM 14.17 57.506 0.424 7.89 5.15 9.21
5/14/2023 12:45:00 AM 14.09 57.362 0.424 7.89 5.16 9.23
5/14/2023 1:00:00 AM 14 57.2 0.424 7.88 5.12 9.24
5/14/2023 1:15:00 AM 13.92 57.056 0.425 7.88 5.12 9.27
5/14/2023 1:30:00 AM 13.83 56.894 0.425 7.88 5.04 9.28
5/14/2023 1:45:00 AM 13.74 56.732 0.425 7.87 5.21 9.31
5/14/2023 2:00:00 AM 13.65 56.57 0.425 7.87 5.2 9.33
5/14/2023 2:15:00 AM 13.55 56.39 0.425 7.86 5.11 9.35
5/14/2023 2:30:00 AM 13.45 56.21 0.425 7.86 5.25 9.37
5/14/2023 2:45:00 AM 13.35 56.03 0.425 7.85 5.4 9.4
5/14/2023 3:00:00 AM 13.25 55.85 0.425 7.85 5.36 9.43
5/14/2023 3:15:00 AM 13.15 55.67 0.425 7.85 5.41 9.44
5/14/2023 3:30:00 AM 13.04 55.472 0.425 7.85 5.21 9.48
5/14/2023 3:45:00 AM 12.94 55.292 0.425 7.85 5.22 9.51
5/14/2023 4:00:00 AM 12.84 55.112 0.425 7.85 5.05 9.54
5/14/2023 4:15:00 AM 12.74 54.932 0.425 7.85 5.08 9.57
5/14/2023 4:30:00 AM 12.64 54.752 0.425 7.85 5.19 9.6
5/14/2023 4:45:00 AM 12.54 54.572 0.425 7.85 5.12 9.63
5/14/2023 5:00:00 AM 12.44 54.392 0.425 7.85 5.6 9.65
5/14/2023 5:15:00 AM 12.34 54.212 0.426 7.85 5.33 9.67
5/14/2023 5:30:00 AM 12.25 54.05 0.426 7.85 5.26 9.7
5/14/2023 5:45:00 AM 12.16 53.888 0.426 7.85 5.23 9.72
5/14/2023 6:00:00 AM 12.08 53.744 0.426 7.85 5.13 9.76
5/14/2023 6:15:00 AM 12 53.6 0.426 7.86 5.06 9.82
5/14/2023 6:30:00 AM 11.93 53.474 0.426 7.86 4.93 9.88
5/14/2023 6:45:00 AM 11.87 53.366 0.426 7.87 4.79 9.97
5/14/2023 7:00:00 AM 11.83 53.294 0.426 7.88 4.45 10.08
5/14/2023 7:15:00 AM 11.79 53.222 0.426 7.9 4.28 10.2
5/14/2023 7:30:00 AM 11.76 53.168 0.426 7.91 4.17 10.33
5/14/2023 7:45:00 AM 11.73 53.114 0.425 7.93 4.19 10.43
5/14/2023 8:00:00 AM 11.72 53.096 0.426 7.95 4.03 10.54
5/14/2023 8:15:00 AM 11.72 53.096 0.425 7.96 4.11 10.66
5/14/2023 8:30:00 AM 11.76 53.168 0.425 7.99 4.03 10.86
5/14/2023 8:45:00 AM 11.82 53.276 0.425 8.02 4.13 11.03
5/14/2023 9:00:00 AM 11.89 53.402 0.425 8.05 4.09 11.21
5/14/2023 9:15:00 AM 11.99 53.582 0.424 8.08 3.99 11.4
5/14/2023 9:30:00 AM 12.09 53.762 0.424 8.12 4 11.55
5/14/2023 9:45:00 AM 12.16 53.888 0.424 8.14 4.01 11.67
5/14/2023 10:00:00 AM 12.3 54.14 0.424 8.17 3.91 11.79
5/14/2023 10:15:00 AM 12.4 54.32 0.424 8.19 4.03 11.89
5/14/2023 10:30:00 AM 12.59 54.662 0.423 8.22 3.89 12
5/14/2023 10:45:00 AM 12.8 55.04 0.423 8.25 3.83 12.11
5/14/2023 11:00:00 AM 13.03 55.454 0.423 8.28 3.89 12.2
5/14/2023 11:15:00 AM 13.25 55.85 0.422 8.3 4.03 12.29
5/14/2023 11:30:00 AM 13.49 56.282 0.422 8.33 3.93 12.36
5/14/2023 11:45:00 AM 13.73 56.714 0.422 8.35 3.8 12.42
5/14/2023 12:00:00 PM 13.99 57.182 0.421 8.38 3.88 12.49
5/14/2023 12:15:00 PM 14.26 57.668 0.421 8.4 3.98 12.54
5/14/2023 12:30:00 PM 14.56 58.208 0.42 8.43 3.98 12.59
5/14/2023 12:45:00 PM 14.82 58.676 0.42 8.45 3.9 12.64
5/14/2023 1:00:00 PM 15.11 59.198 0.419 8.48 4.03 12.65
5/14/2023 1:15:00 PM 15.41 59.738 0.418 8.51 4.05 12.68
5/14/2023 1:30:00 PM 15.72 60.296 0.418 8.54 3.96 12.7
5/14/2023 1:45:00 PM 16.04 60.872 0.417 8.57 3.98 12.72
5/14/2023 2:00:00 PM 16.37 61.466 0.416 8.6 3.96 12.7
5/14/2023 2:15:00 PM 16.69 62.042 0.415 8.63 4.09 12.68
5/14/2023 2:30:00 PM 17.03 62.654 0.414 8.66 4.14 12.66
5/14/2023 2:45:00 PM 17.32 63.176 0.412 8.68 3.73 12.62
5/14/2023 3:00:00 PM 17.58 63.644 0.411 8.7 3.89 12.56
5/14/2023 3:15:00 PM 17.78 64.004 0.41 8.73 3.91 12.5
5/14/2023 3:30:00 PM 17.98 64.364 0.409 8.74 3.96 12.44
5/14/2023 3:45:00 PM 18.09 64.562 0.409 8.76 3.89 12.33
5/14/2023 4:00:00 PM 18.22 64.796 0.408 8.76 4.17 12.18
5/14/2023 4:15:00 PM 18.27 64.886 0.408 8.77 3.96 12.06
5/14/2023 4:30:00 PM 18.3 64.94 0.408 8.77 4.1 11.95
5/14/2023 4:45:00 PM 18.3 64.94 0.408 8.77 3.98 11.81
5/14/2023 5:00:00 PM 18.32 64.976 0.408 8.76 4.13 11.67
5/14/2023 5:15:00 PM 18.32 64.976 0.408 8.75 4.01 11.53
5/14/2023 5:30:00 PM 18.31 64.958 0.409 8.74 4.08 11.38
5/14/2023 5:45:00 PM 18.26 64.868 0.41 8.72 4.1 11.13
5/14/2023 6:00:00 PM 18.21 64.778 0.411 8.69 4.09 10.89
5/14/2023 6:15:00 PM 18.14 64.652 0.412 8.65 4.44 10.57
5/14/2023 6:30:00 PM 18.07 64.526 0.413 8.61 4.21 10.29
5/14/2023 6:45:00 PM 17.99 64.382 0.414 8.57 4.38 10.09
5/14/2023 7:00:00 PM 17.94 64.292 0.415 8.53 4.32 9.93
5/14/2023 7:15:00 PM 17.87 64.166 0.416 8.49 4.31 9.73
5/14/2023 7:30:00 PM 17.8 64.04 0.417 8.45 4.33 9.56
5/14/2023 7:45:00 PM 17.72 63.896 0.418 8.4 4.38 9.33
5/14/2023 8:00:00 PM 17.64 63.752 0.419 8.35 4.48 9.16
5/14/2023 8:15:00 PM 17.56 63.608 0.42 8.3 4.47 8.99
5/14/2023 8:30:00 PM 17.45 63.41 0.421 8.25 4.54 8.84
5/14/2023 8:45:00 PM 17.33 63.194 0.422 8.21 4.79 8.72
5/14/2023 9:00:00 PM 17.2 62.96 0.422 8.17 5.03 8.64
5/14/2023 9:15:00 PM 17.05 62.69 0.423 8.13 4.91 8.58
5/14/2023 9:30:00 PM 16.9 62.42 0.423 8.1 4.98 8.54
5/14/2023 9:45:00 PM 16.75 62.15 0.424 8.08 5.13 8.52
5/14/2023 10:00:00 PM 16.59 61.862 0.424 8.06 5.06 8.51
5/14/2023 10:15:00 PM 16.43 61.574 0.425 8.04 5.03 8.52
5/14/2023 10:30:00 PM 16.26 61.268 0.425 8.03 4.98 8.54
5/14/2023 10:45:00 PM 16.09 60.962 0.425 8.01 5.21 8.57
5/14/2023 11:00:00 PM 15.92 60.656 0.426 8 5.08 8.6
5/14/2023 11:15:00 PM 15.75 60.35 0.426 7.99 5.1 8.64
5/14/2023 11:30:00 PM 15.58 60.044 0.427 7.98 5.13 8.68
5/14/2023 11:45:00 PM 15.42 59.756 0.427 7.97 5.12 8.72
5/15/2023 12:00:00 AM 15.25 59.45 0.428 7.97 5.2 8.76
5/15/2023 12:15:00 AM 15.08 59.144 0.429 7.96 5.12 8.81
5/15/2023 12:30:00 AM 14.92 58.856 0.429 7.95 5.21 8.85
5/15/2023 12:45:00 AM 14.76 58.568 0.43 7.95 5.33 8.9
5/15/2023 1:00:00 AM 14.62 58.316 0.43 7.94 5.34 8.94
5/15/2023 1:15:00 AM 14.48 58.064 0.431 7.94 5.29 8.98
5/15/2023 1:30:00 AM 14.33 57.794 0.432 7.93 5.13 9.02
5/15/2023 1:45:00 AM 14.19 57.542 0.432 7.92 5.36 9.06
5/15/2023 2:00:00 AM 14.04 57.272 0.433 7.92 5.06 9.1
5/15/2023 2:15:00 AM 13.89 57.002 0.434 7.91 5.16 9.14
5/15/2023 2:30:00 AM 13.74 56.732 0.435 7.91 5.04 9.19
5/15/2023 2:45:00 AM 13.58 56.444 0.435 7.9 5.06 9.23
5/15/2023 3:00:00 AM 13.43 56.174 0.435 7.9 5.02 9.27
5/15/2023 3:15:00 AM 13.29 55.922 0.436 7.89 4.97 9.3
5/15/2023 3:30:00 AM 13.14 55.652 0.436 7.88 5.04 9.34
5/15/2023 3:45:00 AM 12.99 55.382 0.436 7.87 5.03 9.39
5/15/2023 4:00:00 AM 12.85 55.13 0.436 7.87 5.04 9.42
5/15/2023 4:15:00 AM 12.71 54.878 0.436 7.86 4.92 9.47
5/15/2023 4:30:00 AM 12.58 54.644 0.436 7.86 4.97 9.51
5/15/2023 4:45:00 AM 12.45 54.41 0.436 7.85 4.98 9.55
5/15/2023 5:00:00 AM 12.33 54.194 0.436 7.85 5.07 9.59
5/15/2023 5:15:00 AM 12.21 53.978 0.436 7.85 5.1 9.63
5/15/2023 5:30:00 AM 12.09 53.762 0.436 7.85 5.03 9.66
5/15/2023 5:45:00 AM 11.97 53.546 0.436 7.85 4.24 9.7
5/15/2023 6:00:00 AM 11.86 53.348 0.437 7.85 4.92 9.75
5/15/2023 6:15:00 AM 11.75 53.15 0.437 7.86 4.57 9.82
5/15/2023 6:30:00 AM 11.65 52.97 0.437 7.86 4.63 9.88
5/15/2023 6:45:00 AM 11.55 52.79 0.437 7.87 4.51 9.97
5/15/2023 7:00:00 AM 11.47 52.646 0.437 7.88 4.36 10.07
5/15/2023 7:15:00 AM 11.41 52.538 0.437 7.9 4.22 10.18
5/15/2023 7:30:00 AM 11.35 52.43 0.437 7.91 4.25 10.31
5/15/2023 7:45:00 AM 11.32 52.376 0.437 7.93 4.14 10.45
5/15/2023 8:00:00 AM 11.31 52.358 0.437 7.95 4.13 10.59
5/15/2023 8:15:00 AM 11.33 52.394 0.436 7.97 4.17 10.77
5/15/2023 8:30:00 AM 11.36 52.448 0.436 8 4.09 10.93
5/15/2023 8:45:00 AM 11.42 52.556 0.436 8.02 4.01 11.09
5/15/2023 9:00:00 AM 11.48 52.664 0.436 8.05 3.9 11.22
5/15/2023 9:15:00 AM 11.57 52.826 0.435 8.08 4.01 11.4
5/15/2023 9:30:00 AM 11.66 52.988 0.435 8.11 3.92 11.56
5/15/2023 9:45:00 AM 11.76 53.168 0.435 8.14 3.88 11.71
5/15/2023 10:00:00 AM 11.88 53.384 0.434 8.17 3.82 11.84
5/15/2023 10:15:00 AM 12.03 53.654 0.434 8.2 3.87 11.98
5/15/2023 10:30:00 AM 12.19 53.942 0.433 8.23 3.88 12.14
5/15/2023 10:45:00 AM 12.37 54.266 0.433 8.26 3.82 12.3
5/15/2023 11:00:00 AM 12.58 54.644 0.432 8.29 3.93 12.42
5/15/2023 11:15:00 AM 12.77 54.986 0.432 8.33 3.86 12.55
5/15/2023 11:30:00 AM 13.02 55.436 0.431 8.36 3.94 12.65
5/15/2023 11:45:00 AM 13.24 55.832 0.43 8.39 4.05 12.79
5/15/2023 12:00:00 PM 13.5 56.3 0.43 8.42 3.94 12.87
5/15/2023 12:15:00 PM 13.75 56.75 0.429 8.45 4.06 12.95
5/15/2023 12:30:00 PM 14.03 57.254 0.428 8.48 5.12 13.03
5/15/2023 12:45:00 PM 14.3 57.74 0.427 8.51 3.97 13.1
5/15/2023 1:00:00 PM 14.58 58.244 0.426 8.54 3.8 13.15
5/15/2023 1:15:00 PM 14.87 58.766 0.425 8.58 3.86 13.21
5/15/2023 1:30:00 PM 15.17 59.306 0.423 8.61 3.8 13.23
5/15/2023 1:45:00 PM 15.5 59.9 0.422 8.64 3.79 13.25
5/15/2023 2:00:00 PM 15.83 60.494 0.421 8.67 3.77 13.23
5/15/2023 2:15:00 PM 16.16 61.088 0.419 8.7 3.77 13.21
5/15/2023 2:30:00 PM 16.5 61.7 0.418 8.73 3.84 13.16
5/15/2023 2:45:00 PM 16.81 62.258 0.417 8.75 3.88 13.12
5/15/2023 3:00:00 PM 17.09 62.762 0.415 8.78 4 13.03
5/15/2023 3:15:00 PM 17.34 63.212 0.415 8.8 3.92 12.96
5/15/2023 3:30:00 PM 17.54 63.572 0.414 8.82 3.96 12.87
5/15/2023 3:45:00 PM 17.69 63.842 0.413 8.83 3.94 12.73
5/15/2023 4:00:00 PM 17.83 64.094 0.412 8.83 4.04 12.58
5/15/2023 4:15:00 PM 17.94 64.292 0.412 8.83 4.06 12.42
5/15/2023 4:30:00 PM 18.03 64.454 0.412 8.83 4.12 12.21
5/15/2023 4:45:00 PM 18.08 64.544 0.412 8.82 4.16 11.98
5/15/2023 5:00:00 PM 18.1 64.58 0.412 8.8 4.19 11.75
5/15/2023 5:15:00 PM 18.1 64.58 0.412 8.79 4.21 11.53
5/15/2023 5:30:00 PM 18.1 64.58 0.412 8.77 4.09 11.33
5/15/2023 5:45:00 PM 18.08 64.544 0.413 8.75 4.26 11.12
5/15/2023 6:00:00 PM 18.05 64.49 0.414 8.72 4.32 10.89
5/15/2023 6:15:00 PM 18.02 64.436 0.415 8.68 4.18 10.64
5/15/2023 6:30:00 PM 17.97 64.346 0.416 8.64 4.33 10.37
5/15/2023 6:45:00 PM 17.91 64.238 0.418 8.6 4.35 10.13
5/15/2023 7:00:00 PM 17.85 64.13 0.419 8.55 4.36 9.9
5/15/2023 7:15:00 PM 17.78 64.004 0.42 8.5 4.47 9.67
5/15/2023 7:30:00 PM 17.7 63.86 0.421 8.45 4.41 9.46
5/15/2023 7:45:00 PM 17.62 63.716 0.422 8.38 4.66 9.25
5/15/2023 8:00:00 PM 17.54 63.572 0.423 8.34 4.72 9.06
5/15/2023 8:15:00 PM 17.45 63.41 0.424 8.29 4.68 8.9
5/15/2023 8:30:00 PM 17.37 63.266 0.425 8.24 4.69 8.75
5/15/2023 8:45:00 PM 17.28 63.104 0.426 8.2 4.92 8.63
5/15/2023 9:00:00 PM 17.18 62.924 0.427 8.16 5.08 8.54
5/15/2023 9:15:00 PM 17.09 62.762 0.427 8.13 5.01 8.47
5/15/2023 9:30:00 PM 16.98 62.564 0.428 8.1 5.39 8.43
5/15/2023 9:45:00 PM 16.87 62.366 0.429 8.08 5.27 8.39
5/15/2023 10:00:00 PM 16.76 62.168 0.429 8.07 5.16 8.38
5/15/2023 10:15:00 PM 16.64 61.952 0.43 8.05 5.21 8.38
5/15/2023 10:30:00 PM 16.52 61.736 0.43 8.03 5.01 8.38
5/15/2023 10:45:00 PM 16.39 61.502 0.429 8.01 5.3 8.39
5/15/2023 11:00:00 PM 16.25 61.25 0.428 8 5.11 8.42
5/15/2023 11:15:00 PM 16.1 60.98 0.428 8 5.05 8.44
5/15/2023 11:30:00 PM 15.96 60.728 0.427 7.98 5.13 8.48
5/15/2023 11:45:00 PM 15.8 60.44 0.427 7.98 5.08 8.51
5/16/2023 12:00:00 AM 15.64 60.152 0.428 7.95 5.07 8.56
5/16/2023 12:15:00 AM 15.48 59.864 0.429 7.95 5.05 8.59
5/16/2023 12:30:00 AM 15.33 59.594 0.43 7.95 4.98 8.63
5/16/2023 12:45:00 AM 15.18 59.324 0.431 7.94 5.16 8.67
5/16/2023 1:00:00 AM 15.03 59.054 0.432 7.95 5.21 8.71
5/16/2023 1:15:00 AM 14.88 58.784 0.434 7.93 5.19 8.76
5/16/2023 1:30:00 AM 14.74 58.532 0.434 7.94 5.09 8.8
5/16/2023 1:45:00 AM 14.61 58.298 0.435 7.92 5.12 8.83
5/16/2023 2:00:00 AM 14.48 58.064 0.436 7.93 5.09 8.87
5/16/2023 2:15:00 AM 14.34 57.812 0.436 7.92 5.08 8.91
5/16/2023 2:30:00 AM 14.22 57.596 0.437 7.91 4.95 8.95
5/16/2023 2:45:00 AM 14.09 57.362 0.437 7.92 4.95 8.98
5/16/2023 3:00:00 AM 13.97 57.146 0.437 7.91 4.92 9.01
5/16/2023 3:15:00 AM 13.85 56.93 0.437 7.9 4.93 9.05
5/16/2023 3:30:00 AM 13.73 56.714 0.437 7.91 4.96 9.08
5/16/2023 3:45:00 AM 13.62 56.516 0.437 7.88 4.93 9.11
5/16/2023 4:00:00 AM 13.51 56.318 0.437 7.9 4.93 9.14
5/16/2023 4:15:00 AM 13.41 56.138 0.437 7.9 5.11 9.18
5/16/2023 4:30:00 AM 13.31 55.958 0.437 7.89 5.1 9.2
5/16/2023 4:45:00 AM 13.21 55.778 0.437 7.89 5.02 9.23
5/16/2023 5:00:00 AM 13.11 55.598 0.438 7.89 5.13 9.25
5/16/2023 5:15:00 AM 13.02 55.436 0.437 7.89 5.02 9.29
5/16/2023 5:30:00 AM 12.93 55.274 0.437 7.88 4.95 9.31
5/16/2023 5:45:00 AM 12.84 55.112 0.437 7.88 4.97 9.34
5/16/2023 6:00:00 AM 12.75 54.95 0.437 7.87 4.48 9.37
5/16/2023 6:15:00 AM 12.67 54.806 0.437 7.89 4.14 9.43
5/16/2023 6:30:00 AM 12.59 54.662 0.437 7.87 4.07 9.5
5/16/2023 6:45:00 AM 12.52 54.536 0.438 7.88 4.74 9.59
5/16/2023 7:00:00 AM 12.45 54.41 0.437 7.9 4.06 9.69
5/16/2023 7:15:00 AM 12.4 54.32 0.437 7.89 3.7 9.79
5/16/2023 7:30:00 AM 12.36 54.248 0.437 7.92 4.04 9.9
5/16/2023 7:45:00 AM 12.34 54.212 0.437 7.94 4.24 10.03
5/16/2023 8:00:00 AM 12.34 54.212 0.437 7.95 4.15 10.19
5/16/2023 8:15:00 AM 12.37 54.266 0.436 7.97 4.3 10.37
5/16/2023 8:30:00 AM 12.41 54.338 0.436 8 3.55 10.53
5/16/2023 8:45:00 AM 12.47 54.446 0.435 8.03 4.06 10.7
5/16/2023 9:00:00 AM 12.54 54.572 0.435 8.05 3.88 10.87
5/16/2023 9:15:00 AM 12.63 54.734 0.435 8.08 3.4 11.04
5/16/2023 9:30:00 AM 12.73 54.914 0.434 8.11 5.24 11.23
5/16/2023 9:45:00 AM 12.83 55.094 0.434 8.14 3.74 11.4
5/16/2023 10:00:00 AM 12.94 55.292 0.433 8.18 3.25 11.56
5/16/2023 10:15:00 AM 13.08 55.544 0.433 8.19 3.26 11.73
5/16/2023 10:30:00 AM 13.23 55.814 0.432 8.25 4.47 11.93
5/16/2023 10:45:00 AM 13.4 56.12 0.431 8.28 4.05 12.09
5/16/2023 11:00:00 AM 13.59 56.462 0.431 8.3 3.79 12.26
5/16/2023 11:15:00 AM 13.78 56.804 0.43 8.35 3.73 12.43
5/16/2023 11:30:00 AM 13.99 57.182 0.429 8.38 3.85 12.59
5/16/2023 11:45:00 AM 14.2 57.56 0.428 8.43 4.54 12.76
5/16/2023 12:00:00 PM 14.4 57.92 0.427 8.47 3.8 12.89
5/16/2023 12:15:00 PM 14.59 58.262 0.426 8.5 3.62 13.03
5/16/2023 12:30:00 PM 14.77 58.586 0.424 8.53 3.17 13.14
5/16/2023 12:45:00 PM 15.05 59.09 0.423 8.58 3.83 13.24
5/16/2023 1:00:00 PM 15.24 59.432 0.421 8.6 3.68 13.32
5/16/2023 1:15:00 PM 15.47 59.846 0.419 8.65 3.27 13.38
5/16/2023 1:30:00 PM 15.76 60.368 0.418 8.67 3.64 13.42
5/16/2023 1:45:00 PM 16.05 60.89 0.416 8.7 3.28 13.42
5/16/2023 2:00:00 PM 16.38 61.484 0.414 8.75 3.18 13.45
5/16/2023 2:15:00 PM 16.55 61.79 0.412 8.77 3.13 13.35
5/16/2023 2:30:00 PM 16.78 62.204 0.41 8.78 3.31 13.28
5/16/2023 2:45:00 PM 17.01 62.618 0.408 8.82 3.38 13.31
5/16/2023 3:00:00 PM 17.14 62.852 0.407 8.83 3.29 13.17
5/16/2023 3:15:00 PM 17.24 63.032 0.406 8.84 3.38 12.99
5/16/2023 3:30:00 PM 17.37 63.266 0.405 8.83 4.39 12.8
5/16/2023 3:45:00 PM 17.51 63.518 0.405 8.84 4.83 12.65
5/16/2023 4:00:00 PM 17.65 63.77 0.405 8.85 4.5 12.55
5/16/2023 4:15:00 PM 17.75 63.95 0.405 8.85 3.98 12.38
5/16/2023 4:30:00 PM 17.83 64.094 0.407 8.82 3.65 12.16
5/16/2023 4:45:00 PM 17.89 64.202 0.408 8.81 3.82 11.9
5/16/2023 5:00:00 PM 18 64.4 0.409 8.81 3.82 11.73
5/16/2023 5:15:00 PM 18.09 64.562 0.411 8.79 3.79 11.56
5/16/2023 5:30:00 PM 18.14 64.652 0.413 8.77 3.92 11.25
5/16/2023 5:45:00 PM 18.2 64.76 0.415 8.73 3.73 11.05
5/16/2023 6:00:00 PM 18.23 64.814 0.417 8.71 3.9 10.79
5/16/2023 6:15:00 PM 18.28 64.904 0.418 8.67 3.92 10.56
5/16/2023 6:30:00 PM 18.3 64.94 0.419 8.65 3.8 10.29
5/16/2023 6:45:00 PM 18.32 64.976 0.42 8.6 3.82 10
5/16/2023 7:00:00 PM 18.32 64.976 0.42 8.56 3.81 9.78
5/16/2023 7:15:00 PM 18.31 64.958 0.419 8.51 3.98 9.53
5/16/2023 7:30:00 PM 18.27 64.886 0.418 8.46 3.96 9.28
5/16/2023 7:45:00 PM 18.24 64.832 0.417 8.41 3.95 9.05
5/16/2023 8:00:00 PM 18.18 64.724 0.415 8.34 3.94 8.82
5/16/2023 8:15:00 PM 18.13 64.634 0.412 8.29 4.17 8.62
5/16/2023 8:30:00 PM 18.06 64.508 0.409 8.23 4.27 8.48
5/16/2023 8:45:00 PM 17.99 64.382 0.407 8.16 4.41 8.35
5/16/2023 9:00:00 PM 17.9 64.22 0.405 8.12 4.54 8.25
5/16/2023 9:15:00 PM 17.8 64.04 0.405 8.1 4.57 8.18
5/16/2023 9:30:00 PM 17.7 63.86 0.406 8.06 4.55 8.14
5/16/2023 9:45:00 PM 17.59 63.662 0.409 8.02 4.65 8.1
5/16/2023 10:00:00 PM 17.47 63.446 0.412 8.01 4.52 8.09
5/16/2023 10:15:00 PM 17.34 63.212 0.416 8.01 4.53 8.08
5/16/2023 10:30:00 PM 17.22 62.996 0.419 7.99 4.74 8.08
5/16/2023 10:45:00 PM 17.09 62.762 0.422 7.98 4.66 8.1
5/16/2023 11:00:00 PM 16.96 62.528 0.425 7.95 4.75 8.11
5/16/2023 11:15:00 PM 16.82 62.276 0.427 7.96 4.67 8.14
5/16/2023 11:30:00 PM 16.67 62.006 0.429 7.96 4.55 8.16
5/16/2023 11:45:00 PM 16.53 61.754 0.43 7.95 4.61 8.18
5/17/2023 12:00:00 AM 16.38 61.484 0.431 7.95 4.53 8.21
5/17/2023 12:15:00 AM 16.24 61.232 0.432 7.93 4.55 8.26
5/17/2023 12:30:00 AM 16.09 60.962 0.432 7.93 4.55 8.29
5/17/2023 12:45:00 AM 15.94 60.692 0.433 7.93 4.56 8.34
5/17/2023 1:00:00 AM 15.79 60.422 0.433 7.92 4.72 8.37
5/17/2023 1:15:00 AM 15.64 60.152 0.434 7.9 4.51 8.4
5/17/2023 1:30:00 AM 15.5 59.9 0.434 7.92 4.62 8.44
5/17/2023 1:45:00 AM 15.37 59.666 0.435 7.91 4.56 8.48
5/17/2023 2:00:00 AM 15.24 59.432 0.435 7.89 4.73 8.51
5/17/2023 2:15:00 AM 15.11 59.198 0.435 7.91 4.75 8.55
5/17/2023 2:30:00 AM 14.99 58.982 0.435 7.88 4.94 8.58
5/17/2023 2:45:00 AM 14.88 58.784 0.435 7.9 4.7 8.61
5/17/2023 3:00:00 AM 14.78 58.604 0.436 7.87 4.63 8.64
5/17/2023 3:15:00 AM 14.69 58.442 0.436 7.88 4.72 8.67
5/17/2023 3:30:00 AM 14.6 58.28 0.436 7.88 4.88 8.7
5/17/2023 3:45:00 AM 14.52 58.136 0.436 7.88 4.83 8.72
5/17/2023 4:00:00 AM 14.45 58.01 0.436 7.86 4.9 8.74
5/17/2023 4:15:00 AM 14.37 57.866 0.436 7.86 4.95 8.77
5/17/2023 4:30:00 AM 14.3 57.74 0.436 7.87 4.86 8.79
5/17/2023 4:45:00 AM 14.23 57.614 0.436 7.86 4.84 8.82
5/17/2023 5:00:00 AM 14.17 57.506 0.436 7.86 4.86 8.84
5/17/2023 5:15:00 AM 14.11 57.398 0.436 7.87 5.48 8.86
5/17/2023 5:30:00 AM 14.04 57.272 0.436 7.87 5.03 8.88
5/17/2023 5:45:00 AM 13.97 57.146 0.436 7.87 5.54 8.9
5/17/2023 6:00:00 AM 13.89 57.002 0.436 7.87 4.87 8.94
5/17/2023 6:15:00 AM 13.8 56.84 0.436 7.87 5.44 9.01
5/17/2023 6:30:00 AM 13.71 56.678 0.436 7.88 6.32 9.09
5/17/2023 6:45:00 AM 13.64 56.552 0.436 7.88 7.29 9.2
5/17/2023 7:00:00 AM 13.56 56.408 0.436 7.9 4.31 9.31
5/17/2023 7:15:00 AM 13.49 56.282 0.436 7.91 4.42 9.41
5/17/2023 7:30:00 AM 13.43 56.174 0.435 7.91 4.14 9.53
5/17/2023 7:45:00 AM 13.38 56.084 0.435 7.93 4.02 9.66
5/17/2023 8:00:00 AM 13.32 55.976 0.435 7.95 3.88 9.83
5/17/2023 8:15:00 AM 13.29 55.922 0.434 7.97 4.23 9.99
5/17/2023 8:30:00 AM 13.27 55.886 0.434 7.99 3.6 10.15
5/17/2023 8:45:00 AM 13.23 55.814 0.434 8.01 4.8 10.29
5/17/2023 9:00:00 AM 13.24 55.832 0.433 8.03 3.44 10.42
5/17/2023 9:15:00 AM 13.21 55.778 0.433 8.05 3.44 10.54
5/17/2023 9:30:00 AM 13.25 55.85 0.433 8.08 3.45 10.79
5/17/2023 9:45:00 AM 13.28 55.904 0.432 8.11 3.37 10.97
5/17/2023 10:00:00 AM 13.34 56.012 0.432 8.14 3.44 11.14
5/17/2023 10:15:00 AM 13.42 56.156 0.432 8.17 3.43 11.32
5/17/2023 10:30:00 AM 13.52 56.336 0.431 8.2 3.48 11.51
5/17/2023 10:45:00 AM 13.62 56.516 0.43 8.23 3.6 11.69
5/17/2023 11:00:00 AM 13.74 56.732 0.43 8.27 3.64 11.87
5/17/2023 11:15:00 AM 13.9 57.02 0.429 8.31 3.62 12.03
5/17/2023 11:30:00 AM 14.04 57.272 0.429 8.34 3.39 12.2
5/17/2023 11:45:00 AM 14.23 57.614 0.428 8.37 3.37 12.34
5/17/2023 12:00:00 PM 14.43 57.974 0.427 8.4 3.39 12.45
5/17/2023 12:15:00 PM 14.63 58.334 0.427 8.43 3.36 12.56
5/17/2023 12:30:00 PM 14.83 58.694 0.426 8.46 3.35 12.66
5/17/2023 12:45:00 PM 15.04 59.072 0.425 8.49 3.42 12.77
5/17/2023 1:00:00 PM 15.25 59.45 0.424 8.52 3.5 12.85
5/17/2023 1:15:00 PM 15.47 59.846 0.423 8.55 3.4 12.9
5/17/2023 1:30:00 PM 15.75 60.35 0.422 8.57 3.44 12.95
5/17/2023 1:45:00 PM 16 60.8 0.421 8.61 3.53 12.99
5/17/2023 2:00:00 PM 16.27 61.286 0.419 8.65 3.47 12.99
5/17/2023 2:15:00 PM 16.55 61.79 0.418 8.66 3.56 12.98
5/17/2023 2:30:00 PM 16.8 62.24 0.417 8.7 3.7 12.97
5/17/2023 2:45:00 PM 17.03 62.654 0.416 8.73 3.58 12.94
5/17/2023 3:00:00 PM 17.25 63.05 0.415 8.75 3.62 12.9
5/17/2023 3:15:00 PM 17.43 63.374 0.414 8.77 3.81 12.82
5/17/2023 3:30:00 PM 17.54 63.572 0.413 8.78 3.74 12.67
5/17/2023 3:45:00 PM 17.65 63.77 0.413 8.79 3.9 12.51
5/17/2023 4:00:00 PM 17.72 63.896 0.413 8.79 3.81 12.33
5/17/2023 4:15:00 PM 17.78 64.004 0.413 8.79 3.92 12.17
5/17/2023 4:30:00 PM 17.76 63.968 0.413 8.77 3.93 11.98
5/17/2023 4:45:00 PM 17.72 63.896 0.413 8.77 3.96 11.77
5/17/2023 5:00:00 PM 17.69 63.842 0.414 8.76 4.14 11.55
5/17/2023 5:15:00 PM 17.63 63.734 0.414 8.74 4.4 11.38
5/17/2023 5:30:00 PM 17.53 63.554 0.415 8.73 4.26 11.21
5/17/2023 5:45:00 PM 17.47 63.446 0.416 8.7 4.04 11
5/17/2023 6:00:00 PM 17.4 63.32 0.417 8.67 4.32 10.79
5/17/2023 6:15:00 PM 17.29 63.122 0.418 8.65 4.31 10.6
5/17/2023 6:30:00 PM 17.2 62.96 0.419 8.61 4.06 10.42
5/17/2023 6:45:00 PM 17.09 62.762 0.419 8.59 4.11 10.25
5/17/2023 7:00:00 PM 16.99 62.582 0.42 8.55 3.97 10.05
5/17/2023 7:15:00 PM 16.88 62.384 0.42 8.5 4.08 9.86
5/17/2023 7:30:00 PM 16.75 62.15 0.42 8.46 4.1 9.66
5/17/2023 7:45:00 PM 16.65 61.97 0.42 8.41 4.11 9.46
5/17/2023 8:00:00 PM 16.54 61.772 0.42 8.36 4.05 9.27
5/17/2023 8:15:00 PM 16.42 61.556 0.421 8.31 4.13 9.1
5/17/2023 8:30:00 PM 16.31 61.358 0.421 8.27 4.27 8.95
5/17/2023 8:45:00 PM 16.19 61.142 0.422 8.21 4.34 8.84
5/17/2023 9:00:00 PM 16.08 60.944 0.423 8.18 4.8 8.76
5/17/2023 9:15:00 PM 15.96 60.728 0.423 8.16 4.61 8.71
5/17/2023 9:30:00 PM 15.83 60.494 0.424 8.14 4.52 8.67
5/17/2023 9:45:00 PM 15.7 60.26 0.425 8.11 4.6 8.65
5/17/2023 10:00:00 PM 15.57 60.026 0.425 8.09 4.55 8.64
5/17/2023 10:15:00 PM 15.43 59.774 0.426 8.08 4.56 8.64
5/17/2023 10:30:00 PM 15.28 59.504 0.427 8.05 4.66 8.66
5/17/2023 10:45:00 PM 15.12 59.216 0.428 8.04 4.56 8.68
5/17/2023 11:00:00 PM 14.95 58.91 0.428 8.03 4.63 8.7
5/17/2023 11:15:00 PM 14.76 58.568 0.429 8.03 4.67 8.74
5/17/2023 11:30:00 PM 14.58 58.244 0.43 8.01 4.89 8.78
5/17/2023 11:45:00 PM 14.39 57.902 0.431 8 4.73 8.83
5/18/2023 12:00:00 AM 14.21 57.578 0.432 8 4.66 8.88
5/18/2023 12:15:00 AM 14.02 57.236 0.432 7.99 4.69 8.94
5/18/2023 12:30:00 AM 13.82 56.876 0.433 7.96 4.55 9
5/18/2023 12:45:00 AM 13.62 56.516 0.434 7.97 4.77 9.06
5/18/2023 1:00:00 AM 13.42 56.156 0.435 7.96 4.65 9.11
5/18/2023 1:15:00 AM 13.22 55.796 0.435 7.95 4.96 9.19
5/18/2023 1:30:00 AM 13.03 55.454 0.436 7.93 4.68 9.23
5/18/2023 1:45:00 AM 12.83 55.094 0.437 7.92 4.64 9.29
5/18/2023 2:00:00 AM 12.64 54.752 0.437 7.9 4.71 9.35
5/18/2023 2:15:00 AM 12.45 54.41 0.438 7.9 4.74 9.41
5/18/2023 2:30:00 AM 12.26 54.068 0.439 7.88 4.66 9.46
5/18/2023 2:45:00 AM 12.08 53.744 0.439 7.87 4.82 9.52
5/18/2023 3:00:00 AM 11.9 53.42 0.44 7.87 4.69 9.58
5/18/2023 3:15:00 AM 11.73 53.114 0.44 7.87 4.78 9.62
5/18/2023 3:30:00 AM 11.57 52.826 0.44 7.87 4.56 9.67
5/18/2023 3:45:00 AM 11.41 52.538 0.44 7.88 4.58 9.72
5/18/2023 4:00:00 AM 11.26 52.268 0.441 7.86 4.47 9.77
5/18/2023 4:15:00 AM 11.11 51.998 0.441 7.87 4.39 9.81
5/18/2023 4:30:00 AM 10.97 51.746 0.441 7.88 4.41 9.86
5/18/2023 4:45:00 AM 10.84 51.512 0.441 7.88 4.48 9.9
5/18/2023 5:00:00 AM 10.7 51.26 0.441 7.87 4.31 9.94
5/18/2023 5:15:00 AM 10.58 51.044 0.442 7.88 4.46 9.99
5/18/2023 5:30:00 AM 10.45 50.81 0.442 7.88 4.53 10.02
5/18/2023 5:45:00 AM 10.33 50.594 0.442 7.88 4.35 10.07
5/18/2023 6:00:00 AM 10.22 50.396 0.442 7.89 4.29 10.12
5/18/2023 6:15:00 AM 10.12 50.216 0.442 7.89 4.28 10.19
5/18/2023 6:30:00 AM 10.02 50.036 0.442 7.9 4.13 10.29
5/18/2023 6:45:00 AM 9.93 49.874 0.443 7.91 3.77 10.41
5/18/2023 7:00:00 AM 9.86 49.748 0.443 7.92 4.28 10.54
5/18/2023 7:15:00 AM 9.8 49.64 0.442 7.94 3.86 10.68
5/18/2023 7:30:00 AM 9.75 49.55 0.443 7.96 4.11 10.83
5/18/2023 7:45:00 AM 9.73 49.514 0.442 7.98 3.84 11.02
5/18/2023 8:00:00 AM 9.72 49.496 0.442 8.01 3.73 11.23
5/18/2023 8:15:00 AM 9.74 49.532 0.442 8.04 3.63 11.45
5/18/2023 8:30:00 AM 9.78 49.604 0.442 8.07 3.58 11.64
5/18/2023 8:45:00 AM 9.83 49.694 0.442 8.11 3.5 11.85
5/18/2023 9:00:00 AM 9.89 49.802 0.442 8.14 3.22 12.03
5/18/2023 9:15:00 AM 9.96 49.928 0.442 8.18 3.9 12.23
5/18/2023 9:30:00 AM 10.06 50.108 0.441 8.19 3.13 12.42
5/18/2023 9:45:00 AM 10.15 50.27 0.441 8.24 3.11 12.57
5/18/2023 10:00:00 AM 10.27 50.486 0.44 8.28 4.19 12.73
5/18/2023 10:15:00 AM 10.39 50.702 0.44 8.31 3.1 12.88
5/18/2023 10:30:00 AM 10.57 51.026 0.439 8.34 6.84 13.02
5/18/2023 10:45:00 AM 10.74 51.332 0.438 8.37 3.29 13.15
5/18/2023 11:00:00 AM 10.92 51.656 0.438 8.4 3.34 13.25
5/18/2023 11:15:00 AM 11.13 52.034 0.437 8.43 3.26 13.34
5/18/2023 11:30:00 AM 11.36 52.448 0.436 8.44 3.17 13.43
5/18/2023 11:45:00 AM 11.62 52.916 0.436 8.48 3.15 13.52
5/18/2023 12:00:00 PM 11.88 53.384 0.435 8.49 3.48 13.6
5/18/2023 12:15:00 PM 12.15 53.87 0.434 8.52 3.34 13.63
5/18/2023 12:30:00 PM 12.42 54.356 0.434 8.55 3.17 13.7
5/18/2023 12:45:00 PM 12.68 54.824 0.433 8.57 3.01 13.73
5/18/2023 1:00:00 PM 12.96 55.328 0.432 8.59 3.25 13.75
5/18/2023 1:15:00 PM 13.25 55.85 0.431 8.62 3.18 13.79
5/18/2023 1:30:00 PM 13.55 56.39 0.43 8.65 3.06 13.82
5/18/2023 1:45:00 PM 13.86 56.948 0.429 8.67 5.02 13.82
5/18/2023 2:00:00 PM 14.18 57.524 0.427 8.7 3.22 13.8
5/18/2023 2:15:00 PM 14.49 58.082 0.426 8.72 3.22 13.78
5/18/2023 2:30:00 PM 14.82 58.676 0.425 8.75 3.27 13.76
5/18/2023 2:45:00 PM 15.12 59.216 0.424 8.77 3.35 13.72
5/18/2023 3:00:00 PM 15.39 59.702 0.423 8.78 3.25 13.64
5/18/2023 3:15:00 PM 15.63 60.134 0.421 8.8 3.23 13.55
5/18/2023 3:30:00 PM 15.84 60.512 0.42 8.81 3.29 13.47
5/18/2023 3:45:00 PM 16.03 60.854 0.42 8.82 3.37 13.31
5/18/2023 4:00:00 PM 16.16 61.088 0.419 8.84 3.46 13.15
5/18/2023 4:15:00 PM 16.29 61.322 0.419 8.84 3.56 12.97
5/18/2023 4:30:00 PM 16.39 61.502 0.419 8.84 3.39 12.76
5/18/2023 4:45:00 PM 16.45 61.61 0.419 8.83 3.47 12.5
5/18/2023 5:00:00 PM 16.48 61.664 0.419 8.82 3.62 12.26
5/18/2023 5:15:00 PM 16.52 61.736 0.419 8.8 3.5 12
5/18/2023 5:30:00 PM 16.53 61.754 0.42 8.78 3.56 11.73
5/18/2023 5:45:00 PM 16.51 61.718 0.42 8.75 3.69 11.47
5/18/2023 6:00:00 PM 16.5 61.7 0.421 8.71 3.44 11.21
5/18/2023 6:15:00 PM 16.46 61.628 0.422 8.69 3.45 10.94
5/18/2023 6:30:00 PM 16.44 61.592 0.423 8.65 3.54 10.67
5/18/2023 6:45:00 PM 16.4 61.52 0.424 8.62 3.46 10.41
5/18/2023 7:00:00 PM 16.36 61.448 0.426 8.57 3.55 10.19

These are provisional data and have not been subject to a quality assurance process, but rather are the raw data reported by the instrument.
H: value is above sensor operating range
L: value is below sensor operating range
Offline: station is not reporting data
NC: parameter is not collected at site

Data Availability & Limitations

Uncertainty and potential for error can be associated with environmental monitoring data. Provisional data have not been subject to a quality assurance process, but rather are the raw data reported by the instrument. Data users are cautioned to consider carefully the provisional nature of the information before using it for decisions that concern personal or public safety or the conduct of business that involves substantial monetary or operational consequences.

Approved data are currently available by request by emailing: [email protected]. Approved data have been subject to a quality assurance process to correct for equipment or fouling drift. Data recorded during equipment malfunctions have been removed.

View Historical Stations that have been discontinued.